UA986 / N642UA 7700 Squawk Report (15th of December, 2019)

Aircraft B763 Reg No. N642UA Age 28 years old
Model 767 Jet engines 2 First flight 19-04-91
Registered 15-05-91 Rollout N/A Delivered 08-05-91
Construction No. 25092 Line No. 0367 Series 322(ER)
ADSHEX A86E6C Airline name United Airlines Owner Wells Fargo Trust Co NA Trustee
Airfield based Chicago O`Hare~IL~N First tracked 2017-07-13 02:18:00

Flight history for N642UA

Route Flight No Date Playback
Guarulhos Gov Andre Franco Montoro (GRU) - Washington Dulles International (IAD) UA860 2020-01-19 04:15:00
Washington Dulles International (IAD) - Guarulhos Gov Andre Franco Montoro (GRU) UA861 2020-01-18 13:19:00
Schiphol (AMS) - Washington Dulles International (IAD) UA947 2020-01-17 19:30:00
Chicago Ohare Intl (ORD) - Schiphol (AMS) UA909 2020-01-17 11:14:00
Frankfurt Main (FRA) - Chicago Ohare Intl (ORD) UA906 2020-01-17 00:59:00
Chicago Ohare Intl (ORD) - Frankfurt Main (FRA) UA907 2020-01-16 12:00:00
George Bush Intercontinental (IAH) - Chicago Ohare Intl (ORD) UA1403 2020-01-15 23:55:00
Chicago Ohare Intl (ORD) - George Bush Intercontinental (IAH) UA1215 2020-01-14 03:19:00
Charles De Gaulle (CDG) - Chicago Ohare Intl (ORD) UA986 2020-01-14 00:31:00
Chicago Ohare Intl (ORD) - Charles De Gaulle (CDG) UA987 2020-01-13 08:32:00
Frankfurt Main (FRA) - Chicago Ohare Intl (ORD) UA906 2020-01-13 00:33:00
Chicago Ohare Intl (ORD) - Frankfurt Main (FRA) UA907 2020-01-12 08:43:00
Brussels Airport (BRU) - Chicago Ohare Intl (ORD) UA973 2020-01-11 19:34:00
Chicago Ohare Intl (ORD) - Brussels Airport (BRU) UA972 2020-01-11 10:07:00
Charles De Gaulle (CDG) - Chicago Ohare Intl (ORD) UA986 2020-01-11 00:01:00
Chicago Ohare Intl (ORD) - Charles De Gaulle (CDG) UA987 2020-01-10 08:04:00
Munich Airport (MUC) - Chicago Ohare Intl (ORD) UA953 2020-01-10 00:19:00
Chicago Ohare Intl (ORD) - Munich Airport (MUC) UA952 2020-01-09 08:29:00
Newark Liberty Intl (EWR) - Chicago Ohare Intl (ORD) UA1207 2020-01-08 03:57:00
Chicago Ohare Intl (ORD) - George Bush Intercontinental (IAH) - Newark Liberty Intl (EWR) UA748 2020-01-08 01:41:00
Time Lat Lon Altitude Heading Speed Vertical Rate
2019-12-15 14:02:18 GMT 53.333576 -2.307364 0 53 3 0
2019-12-15 14:02:09 GMT 53.333508 -2.307462 0 75 3 0
2019-12-15 14:01:59 GMT 53.333416 -2.307659 0 126 4 0
2019-12-15 14:01:32 GMT 53.333714 -2.307737 0 270 6 0
2019-12-15 14:01:25 GMT 53.333714 -2.307412 0 255 6 0
2019-12-15 14:01:08 GMT 53.333817 -2.306854 0 233 3 0
2019-12-15 14:00:46 GMT 53.333912 -2.306664 0 230 0 0
2019-12-15 13:59:41 GMT 53.333908 -2.306658 0 230 0 0
2019-12-15 13:59:16 GMT 53.333912 -2.306644 0 230 0 0
We lost coverage of the aircraft here for a total of 5 minutes
2019-12-15 13:54:11 GMT 53.338371 -2.297418 0 230 0 0
2019-12-15 13:54:11 GMT 53.338371 -2.297418 0 230 11 0
2019-12-15 13:54:11 GMT 53.338371 -2.297418 0 230 11 0
2019-12-15 13:54:11 GMT 53.338371 -2.297418 0 230 11 0
2019-12-15 13:54:09 GMT 53.338844 -2.296446 0 230 82 0
2019-12-15 13:53:53 GMT 53.343338 -2.287197 775 231 124 -128
2019-12-15 13:53:48 GMT 53.345261 -2.283116 800 231 148 -256
2019-12-15 13:53:41 GMT 53.348492 -2.276513 850 231 150 -832
2019-12-15 13:53:37 GMT 53.350067 -2.273228 925 232 149 -832
2019-12-15 13:53:33 GMT 53.352127 -2.268912 975 232 147 -640
2019-12-15 13:53:28 GMT 53.356407 -2.260195 1,100 231 145 -512
2019-12-15 13:53:23 GMT 53.356407 -2.260195 1,125 231 145 -512
2019-12-15 13:53:18 GMT 53.358398 -2.256121 1,175 233 146 -896
2019-12-15 13:53:15 GMT 53.359756 -2.253328 1,150 232 146 -704
2019-12-15 13:53:11 GMT 53.361385 -2.249935 1,200 233 146 -896
2019-12-15 13:53:06 GMT 53.363342 -2.245735 1,275 233 144 -704
2019-12-15 13:53:03 GMT 53.365017 -2.242100 1,350 231 140 -768
2019-12-15 13:52:59 GMT 53.366230 -2.239595 1,350 231 140 -512
2019-12-15 13:52:56 GMT 53.367950 -2.236202 1,400 230 139 -640
2019-12-15 13:52:51 GMT 53.369522 -2.233050 1,450 230 139 -896
2019-12-15 13:52:47 GMT 53.371208 -2.229821 1,500 229 139 -960
2019-12-15 13:52:44 GMT 53.372635 -2.227086 1,550 229 138 -896
2019-12-15 13:52:40 GMT 53.374420 -2.223681 1,600 229 137 -896
2019-12-15 13:52:37 GMT 53.375793 -2.221122 1,675 228 137 -832
2019-12-15 13:52:34 GMT 53.377029 -2.218846 1,750 228 140 -704
2019-12-15 13:52:30 GMT 53.378613 -2.216088 1,825 229 141 -896
2019-12-15 13:52:27 GMT 53.380241 -2.213099 1,800 227 142 -640
2019-12-15 13:52:24 GMT 53.383266 -2.207606 1,850 228 142 -832
2019-12-15 13:52:20 GMT 53.383266 -2.207606 1,875 229 141 -896
2019-12-15 13:52:17 GMT 53.384399 -2.205505 1,950 231 140 -768
2019-12-15 13:52:14 GMT 53.385921 -2.202516 1,950 231 140 -768
2019-12-15 13:52:10 GMT 53.387512 -2.199306 2,025 232 140 -704
2019-12-15 13:52:06 GMT 53.388931 -2.196324 2,100 231 139 -768
2019-12-15 13:52:03 GMT 53.390259 -2.193577 2,125 231 139 -768
2019-12-15 13:51:59 GMT 53.391907 -2.190281 2,125 232 140 -704
2019-12-15 13:51:56 GMT 53.392902 -2.188137 2,175 232 140 -704
2019-12-15 13:51:53 GMT 53.394196 -2.185495 2,400 232 140 -768
2019-12-15 13:51:49 GMT 53.395844 -2.182042 2,275 231 140 -768
2019-12-15 13:51:46 GMT 53.397217 -2.179217 2,300 231 140 -768
2019-12-15 13:51:43 GMT 53.398315 -2.176941 2,350 232 141 -768
2019-12-15 13:51:39 GMT 53.399918 -2.173645 2,400 232 141 -768
2019-12-15 13:51:36 GMT 53.401096 -2.171173 3,225 232 140 -768
2019-12-15 13:51:33 GMT 53.402401 -2.168507 2,475 232 140 -768
2019-12-15 13:51:29 GMT 53.404030 -2.165114 2,525 232 140 -768
2019-12-15 13:51:26 GMT 53.405331 -2.162368 2,550 232 139 -704
2019-12-15 13:51:22 GMT 53.407059 -2.158813 2,600 231 139 -768
2019-12-15 13:51:19 GMT 53.408264 -2.156309 2,650 231 139 -768
2019-12-15 13:51:15 GMT 53.409706 -2.153401 2,700 232 138 -704
2019-12-15 13:51:12 GMT 53.410873 -2.150897 2,725 232 137 -704
2019-12-15 13:51:09 GMT 53.412231 -2.148063 2,775 232 136 -768
2019-12-15 13:51:05 GMT 53.413666 -2.145081 2,800 232 137 -704
2019-12-15 13:51:01 GMT 53.415298 -2.141549 2,975 233 138 -768
2019-12-15 13:50:58 GMT 53.417496 -2.136841 2,900 232 138 -768
2019-12-15 13:50:55 GMT 53.417496 -2.136841 2,925 232 138 -768
2019-12-15 13:50:51 GMT 53.419373 -2.132917 3,000 232 138 -640
2019-12-15 13:50:48 GMT 53.420368 -2.130701 3,025 232 138 -640
2019-12-15 13:50:45 GMT 53.421341 -2.128680 3,075 232 138 -768
2019-12-15 13:50:42 GMT 53.422577 -2.126090 3,100 232 138 -768
2019-12-15 13:50:39 GMT 53.424179 -2.122872 3,150 232 140 -768
2019-12-15 13:50:35 GMT 53.425644 -2.119655 3,175 233 140 -704
2019-12-15 13:50:31 GMT 53.427338 -2.116045 3,250 233 140 -768
2019-12-15 13:50:23 GMT 53.430611 -2.109052 3,350 232 138 -704
2019-12-15 13:50:19 GMT 53.432335 -2.105417 3,350 232 138 -704
2019-12-15 13:50:14 GMT 53.433868 -2.102105 3,425 233 138 -704
2019-12-15 13:50:11 GMT 53.435349 -2.098860 3,475 232 138 -960
2019-12-15 13:50:06 GMT 53.437134 -2.095093 3,575 232 136 -1216
2019-12-15 13:50:02 GMT 53.438736 -2.091797 3,775 232 136 -1792
2019-12-15 13:49:58 GMT 53.440109 -2.088893 3,900 232 138 -1600
2019-12-15 13:49:51 GMT 53.443222 -2.082380 4,000 232 140 -1216
2019-12-15 13:49:47 GMT 53.444485 -2.079647 4,000 232 140 -1088
2019-12-15 13:49:44 GMT 53.445927 -2.076658 4,075 232 142 -320
2019-12-15 13:49:40 GMT 53.447929 -2.072458 4,100 233 143 -192
2019-12-15 13:49:34 GMT 53.451462 -2.065037 4,125 231 144 -192
2019-12-15 13:49:31 GMT 53.451462 -2.065037 4,125 228 143 0
2019-12-15 13:49:28 GMT 53.452908 -2.062360 4,125 227 144 256
2019-12-15 13:49:24 GMT 53.454575 -2.059466 4,100 226 144 448
2019-12-15 13:49:21 GMT 53.456352 -2.056463 4,050 226 147 448
2019-12-15 13:49:18 GMT 53.459801 -2.050566 4,025 226 152 64
2019-12-15 13:49:14 GMT 53.459801 -2.050566 4,025 226 156 -64
2019-12-15 13:49:11 GMT 53.460869 -2.048789 4,050 226 159 -320
2019-12-15 13:49:08 GMT 53.462311 -2.046284 4,050 226 161 -320
2019-12-15 13:49:05 GMT 53.463615 -2.044103 4,075 226 164 -192
2019-12-15 13:49:02 GMT 53.467438 -2.037650 4,075 226 166 0
2019-12-15 13:48:59 GMT 53.468994 -2.034982 4,075 225 166 0
2019-12-15 13:48:56 GMT 53.468994 -2.034982 4,075 225 165 -64
2019-12-15 13:48:53 GMT 53.471786 -2.030430 4,075 224 164 -128
2019-12-15 13:48:50 GMT 53.473438 -2.027785 4,100 223 164 -192
2019-12-15 13:48:43 GMT 53.475906 -2.023996 4,100 224 164 -128
2019-12-15 13:48:40 GMT 53.477875 -2.020935 4,100 224 164 -64
2019-12-15 13:48:37 GMT 53.479488 -2.018334 4,100 225 163 192
2019-12-15 13:48:34 GMT 53.480301 -2.017011 4,100 224 163 192
2019-12-15 13:48:30 GMT 53.483074 -2.012437 4,075 207 163 -64
2019-12-15 13:48:27 GMT 53.484425 -2.010498 4,075 215 163 64
2019-12-15 13:48:24 GMT 53.486195 -2.008236 4,075 211 163 0
2019-12-15 13:48:20 GMT 53.491974 -2.003592 4,075 200 165 -128
2019-12-15 13:48:17 GMT 53.493073 -2.002965 4,100 198 167 -128
2019-12-15 13:48:11 GMT 53.495735 -2.001612 4,100 197 167 -128
2019-12-15 13:48:08 GMT 53.500439 -1.999350 4,150 198 161 -192
2019-12-15 13:48:05 GMT 53.500439 -1.999350 4,100 197 168 0
2019-12-15 13:48:00 GMT 53.503979 -1.997573 4,100 197 166 0
2019-12-15 13:47:57 GMT 53.508224 -1.995431 4,675 193 165 -1344
2019-12-15 13:47:54 GMT 53.508224 -1.995431 4,100 198 162 -192
2019-12-15 13:47:50 GMT 53.510880 -1.994019 4,100 199 161 -256
2019-12-15 13:47:47 GMT 53.512665 -1.992998 4,100 200 161 -448
2019-12-15 13:47:44 GMT 53.515228 -1.991429 4,150 203 161 -960
2019-12-15 13:47:41 GMT 53.517712 -1.989737 4,250 208 161 -1344
2019-12-15 13:47:38 GMT 53.519440 -1.988290 4,300 210 160 -1344
2019-12-15 13:47:35 GMT 53.521248 -1.986667 4,375 212 161 -1344
2019-12-15 13:47:32 GMT 53.522968 -1.984890 4,450 211 161 -1408
2019-12-15 13:47:29 GMT 53.525066 -1.982709 4,500 199 163 -1408
2019-12-15 13:47:26 GMT 53.526810 -1.981070 4,625 197 163 -1408
2019-12-15 13:47:23 GMT 53.529877 -1.978952 4,650 195 164 -1408
2019-12-15 13:47:20 GMT 53.530838 -1.978508 4,725 190 166 -1280
2019-12-15 13:47:17 GMT 53.533401 -1.977618 4,775 189 166 -1280
2019-12-15 13:47:14 GMT 53.536469 -1.976893 4,850 188 168 -1152
2019-12-15 13:47:11 GMT 53.538704 -1.976408 4,875 188 168 -1088
2019-12-15 13:47:08 GMT 53.540680 -1.975970 4,925 188 168 -1088
2019-12-15 13:47:05 GMT 53.542557 -1.975499 5,025 188 168 -1152
2019-12-15 13:47:02 GMT 53.547737 -1.974389 5,100 188 168 -1152
2019-12-15 13:46:58 GMT 53.547737 -1.974389 5,125 188 168 -1152
2019-12-15 13:46:55 GMT 53.550434 -1.973823 5,225 188 168 -1088
2019-12-15 13:46:52 GMT 53.552261 -1.973380 5,250 188 168 -1024
2019-12-15 13:46:49 GMT 53.555649 -1.972692 5,425 187 169 -896
2019-12-15 13:46:45 GMT 53.558395 -1.972127 5,350 188 169 -960
2019-12-15 13:46:42 GMT 53.560410 -1.971654 5,400 187 169 -896
2019-12-15 13:46:38 GMT 53.563431 -1.971026 5,450 187 170 -832
2019-12-15 13:46:34 GMT 53.566963 -1.970349 5,500 187 172 -576
2019-12-15 13:46:30 GMT 53.570686 -1.969622 5,550 187 174 -192
2019-12-15 13:46:27 GMT 53.572769 -1.969221 5,575 187 173 -384
2019-12-15 13:46:24 GMT 53.574829 -1.968815 5,575 187 174 -256
2019-12-15 13:46:21 GMT 53.578033 -1.968201 5,575 187 174 -64
2019-12-15 13:46:18 GMT 53.579681 -1.967887 5,575 186 173 0
2019-12-15 13:46:14 GMT 53.583710 -1.967259 5,575 186 174 0
2019-12-15 13:46:08 GMT 53.590118 -1.966239 5,600 185 176 -128
2019-12-15 13:46:05 GMT 53.592426 -1.965906 5,600 185 176 -128
2019-12-15 13:46:02 GMT 53.592426 -1.965906 5,600 185 176 -192
2019-12-15 13:45:58 GMT 53.595406 -1.965503 5,600 185 176 -192
2019-12-15 13:45:55 GMT 53.598431 -1.965179 5,625 186 175 -192
2019-12-15 13:45:52 GMT 53.604389 -1.963725 5,650 192 171 -384
2019-12-15 13:45:47 GMT 53.604389 -1.963725 5,650 193 169 -448
2019-12-15 13:45:43 GMT 53.607697 -1.962594 5,700 204 164 -1280
2019-12-15 13:45:40 GMT 53.610535 -1.960979 5,800 227 159 -1536
2019-12-15 13:45:37 GMT 53.613556 -1.958156 5,900 227 159 -1536
2019-12-15 13:45:34 GMT 53.615330 -1.955566 5,950 227 159 -1536
2019-12-15 13:45:31 GMT 53.617218 -1.951643 6,000 233 157 -1600
2019-12-15 13:45:25 GMT 53.618031 -1.949427 6,150 248 156 -1536
2019-12-15 13:45:22 GMT 53.618916 -1.945953 6,200 250 156 -1536
2019-12-15 13:45:19 GMT 53.619690 -1.942618 6,400 301 174 0
2019-12-15 13:45:16 GMT 53.620216 -1.940056 6,350 251 155 -1472
2019-12-15 13:45:13 GMT 53.621292 -1.935085 6,500 251 155 -1344
2019-12-15 13:45:10 GMT 53.621799 -1.932786 6,500 251 154 -1408
2019-12-15 13:45:07 GMT 53.622757 -1.928258 6,600 251 154 -1408
2019-12-15 13:45:04 GMT 53.624313 -1.920669 6,750 251 156 -1152
2019-12-15 13:45:01 GMT 53.624313 -1.920669 6,750 251 156 -1152
2019-12-15 13:44:57 GMT 53.625057 -1.917114 6,800 251 157 -1024
2019-12-15 13:44:54 GMT 53.625710 -1.914125 6,850 250 157 -960
2019-12-15 13:44:51 GMT 53.627151 -1.907462 6,925 250 157 -896
2019-12-15 13:44:48 GMT 53.627151 -1.907462 7,000 250 159 -448
2019-12-15 13:44:42 GMT 53.628876 -1.899585 7,000 250 160 -256
2019-12-15 13:44:39 GMT 53.629669 -1.895949 7,000 250 160 -128
2019-12-15 13:44:35 GMT 53.631248 -1.889002 7,025 249 160 -64
2019-12-15 13:44:29 GMT 53.632179 -1.885125 7,025 251 161 64
2019-12-15 13:44:25 GMT 53.633423 -1.879133 7,025 255 160 0
2019-12-15 13:44:22 GMT 53.633926 -1.876072 7,025 258 161 0
2019-12-15 13:44:19 GMT 53.634464 -1.867918 7,025 274 164 0
2019-12-15 13:44:16 GMT 53.634464 -1.867918 7,025 317 185 0
2019-12-15 13:44:13 GMT 53.634323 -1.865495 7,025 284 167 0
2019-12-15 13:44:09 GMT 53.633484 -1.860325 7,025 298 173 0
2019-12-15 13:44:06 GMT 53.632740 -1.857578 7,025 317 185 0
2019-12-15 13:44:03 GMT 53.631111 -1.853297 7,000 309 179 64
2019-12-15 13:44:00 GMT 53.628159 -1.848293 7,000 325 191 0
2019-12-15 13:43:54 GMT 53.625011 -1.844895 7,000 340 202 0
2019-12-15 13:43:48 GMT 53.616623 -1.840602 7,000 350 209 0
2019-12-15 13:43:45 GMT 53.616623 -1.840602 7,000 354 210 -64
2019-12-15 13:43:42 GMT 53.613701 -1.839968 7,000 354 210 -64
2019-12-15 13:43:39 GMT 53.611885 -1.839644 7,025 354 210 -64
2019-12-15 13:43:36 GMT 53.608017 -1.838954 7,025 354 209 -64
2019-12-15 13:43:33 GMT 53.605320 -1.838514 7,025 354 209 0
2019-12-15 13:43:29 GMT 53.601883 -1.837856 7,025 354 209 64
2019-12-15 13:43:26 GMT 53.598862 -1.837306 7,025 354 209 64
2019-12-15 13:43:23 GMT 53.593216 -1.836332 7,000 354 209 64
2019-12-15 13:43:17 GMT 53.589340 -1.835580 7,000 354 209 64
2019-12-15 13:43:13 GMT 53.586655 -1.835121 7,000 354 209 0
2019-12-15 13:43:10 GMT 53.583115 -1.834474 7,000 354 209 0
2019-12-15 13:43:07 GMT 53.580696 -1.833990 7,000 354 209 0
2019-12-15 13:43:04 GMT 53.574463 -1.832833 7,000 354 209 64
2019-12-15 13:43:01 GMT 53.574463 -1.832833 7,000 354 208 0
2019-12-15 13:42:58 GMT 53.572266 -1.832441 7,000 354 208 0
2019-12-15 13:42:52 GMT 53.566315 -1.831264 7,000 354 209 -64
2019-12-15 13:42:49 GMT 53.563934 -1.830793 7,025 354 209 -64
2019-12-15 13:42:46 GMT 53.560959 -1.830244 7,025 354 210 -128
2019-12-15 13:42:43 GMT 53.557465 -1.829628 7,025 354 210 -64
2019-12-15 13:42:40 GMT 53.550949 -1.828335 7,025 354 209 64
2019-12-15 13:42:37 GMT 53.550949 -1.828335 7,025 354 209 64
2019-12-15 13:42:34 GMT 53.544205 -1.827105 7,025 354 208 0
2019-12-15 13:42:30 GMT 53.544205 -1.827105 7,025 354 208 0
2019-12-15 13:42:26 GMT 53.541229 -1.826556 7,025 354 208 0
2019-12-15 13:42:23 GMT 53.537216 -1.825831 7,000 354 208 64
2019-12-15 13:42:20 GMT 53.535095 -1.825378 7,000 354 208 64
2019-12-15 13:42:17 GMT 53.532166 -1.824908 7,000 354 208 64
2019-12-15 13:42:14 GMT 53.528778 -1.824280 7,000 354 207 0
2019-12-15 13:42:11 GMT 53.527863 -1.824123 7,000 354 207 0
2019-12-15 13:42:08 GMT 53.523575 -1.823327 7,000 354 205 64
2019-12-15 13:42:05 GMT 53.521774 -1.822946 7,000 354 206 64
2019-12-15 13:42:02 GMT 53.518158 -1.822318 7,000 354 206 64
2019-12-15 13:41:59 GMT 53.515522 -1.821872 7,000 354 205 128
2019-12-15 13:41:56 GMT 53.513168 -1.821376 7,000 354 205 -128
2019-12-15 13:41:53 GMT 53.507538 -1.820356 7,000 354 206 -64
2019-12-15 13:41:47 GMT 53.504150 -1.819728 7,000 354 206 -64
2019-12-15 13:41:44 GMT 53.501678 -1.819257 7,000 354 206 -64
2019-12-15 13:41:41 GMT 53.499229 -1.818722 7,000 353 207 -64
2019-12-15 13:41:38 GMT 53.496483 -1.818157 7,000 353 207 -64
2019-12-15 13:41:35 GMT 53.493317 -1.817510 7,025 353 207 -64
2019-12-15 13:41:32 GMT 53.490757 -1.816945 7,025 353 207 -64
2019-12-15 13:41:29 GMT 53.486938 -1.816137 7,000 354 202 64
2019-12-15 13:41:26 GMT 53.484558 -1.815648 7,000 350 265 -128
2019-12-15 13:41:22 GMT 53.480839 -1.814844 7,000 354 205 64
2019-12-15 13:41:18 GMT 53.477051 -1.814078 7,000 354 203 128
2019-12-15 13:41:15 GMT 53.474442 -1.813529 7,000 354 203 128
2019-12-15 13:41:12 GMT 53.471191 -1.812901 7,000 354 203 64
2019-12-15 13:41:09 GMT 53.467758 -1.812195 7,000 354 202 0
2019-12-15 13:41:06 GMT 53.465523 -1.811775 7,075 353 205 -192
2019-12-15 13:41:02 GMT 53.462265 -1.811209 7,000 354 203 0
2019-12-15 13:40:59 GMT 53.458542 -1.810482 7,000 354 204 -128
2019-12-15 13:40:56 GMT 53.456165 -1.809998 7,000 354 205 -320
2019-12-15 13:40:52 GMT 53.451828 -1.809056 7,050 353 206 -320
2019-12-15 13:40:49 GMT 53.447113 -1.808036 7,075 353 206 0
2019-12-15 13:40:46 GMT 53.447113 -1.808036 7,075 353 206 128
2019-12-15 13:40:43 GMT 53.444733 -1.807565 7,050 353 206 320
2019-12-15 13:40:40 GMT 53.441319 -1.806766 7,050 353 208 384
2019-12-15 13:40:36 GMT 53.437126 -1.805797 7,000 352 215 192
2019-12-15 13:40:33 GMT 53.433311 -1.804908 7,000 352 216 128
2019-12-15 13:40:30 GMT 53.431366 -1.804426 7,000 352 218 64
2019-12-15 13:40:26 GMT 53.424698 -1.802808 7,000 352 223 0
2019-12-15 13:40:20 GMT 53.418320 -1.801130 7,000 351 233 0
2019-12-15 13:40:17 GMT 53.418320 -1.801130 7,000 351 230 0
2019-12-15 13:40:14 GMT 53.414841 -1.800188 7,000 351 241 64
2019-12-15 13:40:11 GMT 53.407894 -1.798203 7,000 351 238 128
2019-12-15 13:40:08 GMT 53.407894 -1.798203 7,000 351 244 -64
2019-12-15 13:40:05 GMT 53.406235 -1.797756 7,000 351 243 0
2019-12-15 13:40:02 GMT 53.401981 -1.796588 7,000 351 245 -64
2019-12-15 13:39:58 GMT 53.398178 -1.795480 7,000 351 249 -192
2019-12-15 13:39:55 GMT 53.394241 -1.794303 7,025 350 258 -320
2019-12-15 13:39:52 GMT 53.390388 -1.793195 7,025 351 253 -256
2019-12-15 13:39:48 GMT 53.385635 -1.791792 7,025 350 255 -192
2019-12-15 13:39:45 GMT 53.382381 -1.790852 7,050 350 260 -256
2019-12-15 13:39:42 GMT 53.379684 -1.789987 8,450 350 265 -64
2019-12-15 13:39:39 GMT 53.371490 -1.787554 7,075 350 263 -64
2019-12-15 13:39:36 GMT 53.371490 -1.787554 7,075 350 265 -128
2019-12-15 13:39:33 GMT 53.368931 -1.786813 7,075 350 269 -256
2019-12-15 13:39:30 GMT 53.364552 -1.785521 8,450 351 291 -2432
2019-12-15 13:39:27 GMT 53.360970 -1.784390 7,125 350 277 -640
2019-12-15 13:39:24 GMT 53.356934 -1.783160 7,125 350 279 -896
2019-12-15 13:39:21 GMT 53.353985 -1.782289 7,200 350 282 -1280
2019-12-15 13:39:18 GMT 53.349518 -1.780884 7,275 350 283 -1472
2019-12-15 13:39:15 GMT 53.345764 -1.779707 7,325 350 285 -1792
2019-12-15 13:39:12 GMT 53.342422 -1.778608 7,500 349 287 -2240
2019-12-15 13:39:09 GMT 53.333549 -1.775746 7,900 350 289 -2368
2019-12-15 13:39:06 GMT 53.333549 -1.775746 7,800 350 288 -2368
2019-12-15 13:39:03 GMT 53.330566 -1.774763 7,975 350 289 -2368
2019-12-15 13:38:59 GMT 53.325577 -1.773193 7,900 350 290 -2368
2019-12-15 13:38:56 GMT 53.317520 -1.770682 8,175 351 291 -2368
2019-12-15 13:38:49 GMT 53.306534 -1.767622 8,400 351 291 -2368
2019-12-15 13:38:46 GMT 53.306534 -1.767622 8,525 351 291 -2496
2019-12-15 13:38:43 GMT 53.302544 -1.766537 8,700 351 292 -2496
2019-12-15 13:38:39 GMT 53.298679 -1.765568 8,950 356 296 -2560
2019-12-15 13:38:36 GMT 53.295456 -1.764718 8,825 352 292 -2496
2019-12-15 13:38:33 GMT 53.290394 -1.763386 9,025 352 293 -2496
2019-12-15 13:38:30 GMT 53.286392 -1.762336 9,200 352 293 -2496
2019-12-15 13:38:27 GMT 53.282730 -1.761579 9,250 354 295 -2560
2019-12-15 13:38:24 GMT 53.277454 -1.760640 9,425 357 297 -2560
2019-12-15 13:38:18 GMT 53.268932 -1.760155 9,675 2 302 -2240
2019-12-15 13:38:15 GMT 53.265060 -1.760167 9,800 4 303 -2240
2019-12-15 13:38:12 GMT 53.262138 -1.760398 10,000 16 313 -2176
2019-12-15 13:38:09 GMT 53.253990 -1.762175 10,025 45 340 -1408
2019-12-15 13:38:06 GMT 53.253990 -1.762175 10,125 16 313 -2176
2019-12-15 13:38:03 GMT 53.249130 -1.764247 10,200 17 314 -2176
2019-12-15 13:38:00 GMT 53.243656 -1.767668 10,650 33 325 -1920
2019-12-15 13:37:57 GMT 53.239975 -1.770761 10,350 28 322 -2048
2019-12-15 13:37:54 GMT 53.237885 -1.772676 10,475 33 325 -1920
2019-12-15 13:37:51 GMT 53.233383 -1.777588 10,825 45 359 -2880
2019-12-15 13:37:48 GMT 53.228619 -1.783905 10,650 40 329 -1792
2019-12-15 13:37:45 GMT 53.225922 -1.788106 10,825 44 334 -1600
2019-12-15 13:37:39 GMT 53.217262 -1.802566 10,950 45 339 -1408
2019-12-15 13:37:36 GMT 53.217262 -1.802566 11,100 45 343 -1344
2019-12-15 13:37:33 GMT 53.212372 -1.810782 11,050 45 343 -1344
2019-12-15 13:37:30 GMT 53.208694 -1.816945 11,175 45 347 -1472
2019-12-15 13:37:27 GMT 53.206463 -1.820742 11,200 44 353 -1664
2019-12-15 13:37:23 GMT 53.201202 -1.829466 11,350 44 352 -1600
2019-12-15 13:37:20 GMT 53.197769 -1.835266 11,400 44 354 -1728
2019-12-15 13:37:17 GMT 53.194263 -1.841018 11,525 44 357 -2048
2019-12-15 13:37:14 GMT 53.190536 -1.847194 11,600 45 357 -2304
2019-12-15 13:37:11 GMT 53.186920 -1.853237 11,675 45 357 -2560
2019-12-15 13:37:07 GMT 53.183029 -1.859671 11,975 45 359 -3008
2019-12-15 13:37:04 GMT 53.179413 -1.865714 12,050 45 360 -3072
2019-12-15 13:37:01 GMT 53.175224 -1.872765 12,550 45 363 -3136
2019-12-15 13:36:58 GMT 53.171593 -1.878904 12,375 45 361 -3072
2019-12-15 13:36:55 GMT 53.169357 -1.882701 12,550 45 362 -3072
2019-12-15 13:36:52 GMT 53.165730 -1.888760 12,650 45 362 -3072
2019-12-15 13:36:49 GMT 53.161587 -1.895707 12,875 45 363 -3136
2019-12-15 13:36:45 GMT 53.156525 -1.904245 13,475 44 364 -3200
2019-12-15 13:36:42 GMT 53.153549 -1.909188 13,175 44 364 -3200
2019-12-15 13:36:39 GMT 53.146408 -1.920992 13,400 44 364 -3264
2019-12-15 13:36:36 GMT 53.146408 -1.920992 13,500 44 363 -3264
2019-12-15 13:36:33 GMT 53.138855 -1.933358 13,725 46 365 -2944
2019-12-15 13:36:30 GMT 53.138855 -1.933358 13,825 44 364 -3200
2019-12-15 13:36:27 GMT 53.135937 -1.938037 14,450 45 365 -3008
2019-12-15 13:36:24 GMT 53.131279 -1.945711 14,150 45 365 -3008
2019-12-15 13:36:21 GMT 53.124622 -1.957667 14,450 50 367 -2880
2019-12-15 13:36:18 GMT 53.122330 -1.962158 14,550 69 374 -3072
2019-12-15 13:36:15 GMT 53.122330 -1.962158 14,650 54 370 -2752
2019-12-15 13:36:12 GMT 53.118393 -1.970790 14,725 57 371 -2816
2019-12-15 13:36:09 GMT 53.116516 -1.975499 14,975 61 373 -2880
2019-12-15 13:36:06 GMT 53.112984 -1.985294 15,000 63 374 -2944
2019-12-15 13:36:03 GMT 53.111023 -1.991350 15,100 64 374 -2944
2019-12-15 13:36:00 GMT 53.108871 -1.998962 15,225 66 375 -3008
2019-12-15 13:35:57 GMT 53.107040 -2.006731 15,650 73 375 -3136
2019-12-15 13:35:54 GMT 53.103790 -2.024388 15,625 76 375 -3136
2019-12-15 13:35:51 GMT 53.103790 -2.024388 16,075 81 376 -3008
2019-12-15 13:35:48 GMT 53.102646 -2.032785 15,925 82 376 -3008
2019-12-15 13:35:45 GMT 53.101765 -2.042811 16,000 84 376 -2944
2019-12-15 13:35:42 GMT 53.101299 -2.050000 16,225 87 377 -2752
2019-12-15 13:35:39 GMT 53.100952 -2.061271 16,325 89 378 -2624
2019-12-15 13:35:36 GMT 53.100952 -2.066528 16,475 91 379 -2368
2019-12-15 13:35:33 GMT 53.101299 -2.077547 16,600 98 378 -1792
2019-12-15 13:35:30 GMT 53.101719 -2.084737 16,675 99 377 -1792
2019-12-15 13:35:27 GMT 53.102417 -2.092817 16,775 103 375 -1792
2019-12-15 13:35:24 GMT 53.103722 -2.102670 16,825 105 375 -1792
2019-12-15 13:35:21 GMT 53.104698 -2.108810 16,925 110 374 -1792
2019-12-15 13:35:18 GMT 53.106583 -2.118321 17,025 111 374 -1792
2019-12-15 13:35:15 GMT 53.108826 -2.127659 17,050 113 372 -1728
2019-12-15 13:35:12 GMT 53.110470 -2.133933 17,175 114 372 -1792
2019-12-15 13:35:09 GMT 53.112900 -2.142805 17,300 114 373 -1728
2019-12-15 13:35:06 GMT 53.115417 -2.151908 17,375 114 373 -1728
2019-12-15 13:35:03 GMT 53.117157 -2.158107 17,500 115 373 -1664
2019-12-15 13:35:00 GMT 53.118851 -2.164071 17,550 115 373 -1664
2019-12-15 13:34:57 GMT 53.121178 -2.172385 17,625 115 374 -1600
2019-12-15 13:34:54 GMT 53.123566 -2.180708 17,700 115 374 -1600
2019-12-15 13:34:51 GMT 53.125534 -2.187770 17,750 115 375 -1600
2019-12-15 13:34:48 GMT 53.127686 -2.195304 17,825 115 375 -1600
2019-12-15 13:34:45 GMT 53.130386 -2.205035 17,925 114 376 -1664
2019-12-15 13:34:42 GMT 53.135330 -2.222550 18,075 114 376 -1664
2019-12-15 13:34:39 GMT 53.135330 -2.222550 18,100 114 377 -1664
2019-12-15 13:34:33 GMT 53.139053 -2.235960 18,275 114 381 -1792
2019-12-15 13:34:30 GMT 53.140778 -2.242310 18,375 114 379 -1536
2019-12-15 13:34:27 GMT 53.143383 -2.251874 18,650 114 379 -1536
2019-12-15 13:34:24 GMT 53.145401 -2.259338 18,525 114 380 -1600
2019-12-15 13:34:21 GMT 53.147690 -2.267578 18,525 114 381 -1600
2019-12-15 13:34:18 GMT 53.150131 -2.276593 18,650 114 382 -1728
2019-12-15 13:34:15 GMT 53.151901 -2.283037 18,700 114 381 -1728
2019-12-15 13:34:12 GMT 53.156322 -2.299374 18,875 114 382 -1792
2019-12-15 13:34:09 GMT 53.158356 -2.306893 18,925 114 382 -1728
2019-12-15 13:34:06 GMT 53.160793 -2.316015 19,100 114 383 -1728
2019-12-15 13:34:03 GMT 53.160793 -2.316015 19,175 114 383 -1664
2019-12-15 13:34:00 GMT 53.162979 -2.324079 19,175 114 386 -1536
2019-12-15 13:33:56 GMT 53.166458 -2.336949 19,300 114 384 -1664
2019-12-15 13:33:50 GMT 53.170197 -2.350751 19,450 114 388 -1472
2019-12-15 13:33:47 GMT 53.173141 -2.361590 19,475 114 387 -1472
2019-12-15 13:33:44 GMT 53.175247 -2.369437 19,600 113 388 -1408
2019-12-15 13:33:41 GMT 53.176529 -2.374097 19,650 113 389 -1408
2019-12-15 13:33:38 GMT 53.180904 -2.390496 19,750 114 390 -1408
2019-12-15 13:33:32 GMT 53.183899 -2.401690 19,875 113 391 -1408
2019-12-15 13:33:29 GMT 53.185513 -2.407783 19,975 113 392 -1408
2019-12-15 13:33:26 GMT 53.187885 -2.416588 20,000 113 393 -1472
2019-12-15 13:33:23 GMT 53.189941 -2.424290 20,175 113 394 -1472
2019-12-15 13:33:20 GMT 53.192402 -2.433714 20,150 113 394 -1536
2019-12-15 13:33:17 GMT 53.194218 -2.440661 24,850 113 395 -1600
2019-12-15 13:33:14 GMT 53.196777 -2.450436 20,325 111 398 -1600
2019-12-15 13:33:11 GMT 53.198593 -2.457464 20,350 113 396 -1600
2019-12-15 13:33:08 GMT 53.200596 -2.465300 20,500 112 397 -1664
2019-12-15 13:33:05 GMT 53.202785 -2.474105 20,525 111 398 -1664
2019-12-15 13:33:02 GMT 53.205185 -2.484009 20,625 110 399 -1536
2019-12-15 13:32:59 GMT 53.209259 -2.501822 20,725 111 399 -1472
2019-12-15 13:32:56 GMT 53.209259 -2.501822 20,875 112 400 -1472
2019-12-15 13:32:53 GMT 53.213791 -2.519322 20,875 116 397 -1408
2019-12-15 13:32:50 GMT 53.216354 -2.527719 21,025 119 396 -1408
2019-12-15 13:32:47 GMT 53.216354 -2.527719 21,025 120 396 -1408
2019-12-15 13:32:44 GMT 53.221592 -2.542689 21,125 122 395 -1344
2019-12-15 13:32:41 GMT 53.221592 -2.542689 21,250 126 393 -1472
2019-12-15 13:32:38 GMT 53.224182 -2.549299 21,200 126 393 -1472
2019-12-15 13:32:35 GMT 53.227409 -2.556664 21,375 134 388 -1664
2019-12-15 13:32:32 GMT 53.235489 -2.572763 21,750 141 383 -1472
2019-12-15 13:32:29 GMT 53.235489 -2.572763 21,450 135 388 -1664
2019-12-15 13:32:25 GMT 53.240585 -2.581222 21,525 138 386 -1536
2019-12-15 13:32:22 GMT 53.242676 -2.584455 21,600 141 384 -1472
2019-12-15 13:32:19 GMT 53.247242 -2.590996 21,675 140 383 -1472
2019-12-15 13:32:16 GMT 53.251244 -2.596409 21,875 141 383 -1408
2019-12-15 13:32:13 GMT 53.255402 -2.601955 21,825 141 384 -1408
2019-12-15 13:32:10 GMT 53.260925 -2.609334 21,925 141 384 -1472
2019-12-15 13:32:07 GMT 53.265060 -2.614903 22,025 141 384 -1472
2019-12-15 13:32:04 GMT 53.267944 -2.618827 22,125 141 384 -1472
2019-12-15 13:32:01 GMT 53.272797 -2.625340 22,125 141 384 -1472
2019-12-15 13:31:58 GMT 53.276150 -2.629772 22,225 141 384 -1472
2019-12-15 13:31:55 GMT 53.280014 -2.634942 22,250 141 384 -1472
2019-12-15 13:31:52 GMT 53.284882 -2.641427 22,350 141 384 -1536
2019-12-15 13:31:48 GMT 53.290009 -2.648333 22,450 141 385 -1472
2019-12-15 13:31:45 GMT 53.294167 -2.653844 22,550 141 385 -1472
2019-12-15 13:31:42 GMT 53.298218 -2.659257 22,575 141 386 -1472
2019-12-15 13:31:39 GMT 53.303104 -2.665719 22,775 141 387 -1472
2019-12-15 13:31:36 GMT 53.307587 -2.671640 22,750 141 387 -1536
2019-12-15 13:31:33 GMT 53.310104 -2.674935 22,850 141 387 -1472
2019-12-15 13:31:30 GMT 53.315277 -2.681841 22,850 141 388 -1536
2019-12-15 13:31:27 GMT 53.319210 -2.687127 23,100 141 389 -1408
2019-12-15 13:31:24 GMT 53.323975 -2.693455 23,025 141 389 -1536
2019-12-15 13:31:21 GMT 53.328918 -2.699969 23,125 141 389 -1536
2019-12-15 13:31:18 GMT 53.336620 -2.710311 23,275 141 389 -1472
2019-12-15 13:31:15 GMT 53.336620 -2.710311 23,275 141 389 -1472
2019-12-15 13:31:12 GMT 53.340820 -2.715977 23,375 141 389 -1472
2019-12-15 13:31:09 GMT 53.345047 -2.721540 23,425 141 389 -1472
2019-12-15 13:31:06 GMT 53.353088 -2.732221 23,475 141 389 -1408
2019-12-15 13:31:03 GMT 53.353088 -2.732221 23,975 141 389 -1472
2019-12-15 13:31:00 GMT 53.357288 -2.737858 23,625 141 389 -1472
2019-12-15 13:30:57 GMT 53.360828 -2.742462 24,025 141 390 -1536
2019-12-15 13:30:54 GMT 53.365631 -2.748858 24,150 141 389 -1472
2019-12-15 13:30:51 GMT 53.370419 -2.755226 23,800 141 389 -1472
2019-12-15 13:30:48 GMT 53.373688 -2.759530 23,925 141 390 -1536
2019-12-15 13:30:45 GMT 53.382801 -2.771786 24,075 140 392 -1408
2019-12-15 13:30:39 GMT 53.388290 -2.779149 24,175 140 393 -1536
2019-12-15 13:30:33 GMT 53.394764 -2.788023 24,350 141 394 -1536
2019-12-15 13:30:30 GMT 53.400024 -2.795051 24,375 141 394 -1536
2019-12-15 13:30:27 GMT 53.405426 -2.802321 24,475 141 395 -1600
2019-12-15 13:30:24 GMT 53.407707 -2.805391 24,500 141 395 -1600
2019-12-15 13:30:21 GMT 53.413559 -2.813206 24,625 141 399 -1536
2019-12-15 13:30:18 GMT 53.419144 -2.820661 24,650 141 397 -1472
2019-12-15 13:30:15 GMT 53.421890 -2.824271 24,800 141 400 -1472
2019-12-15 13:30:12 GMT 53.426048 -2.829868 25,050 141 403 -1472
2019-12-15 13:30:06 GMT 53.433544 -2.839966 24,925 141 401 -1536
2019-12-15 13:30:03 GMT 53.443817 -2.853856 25,150 141 402 -1536
2019-12-15 13:30:00 GMT 53.443817 -2.853856 25,125 141 403 -1472
2019-12-15 13:29:57 GMT 53.446838 -2.857936 25,200 141 403 -1472
2019-12-15 13:29:54 GMT 53.452515 -2.865627 25,225 141 404 -1472
2019-12-15 13:29:51 GMT 53.455982 -2.870340 25,350 141 406 -1536
2019-12-15 13:29:47 GMT 53.461990 -2.878418 25,450 141 407 -1536
2019-12-15 13:29:41 GMT 53.475021 -2.896028 25,675 141 408 -1408
2019-12-15 13:29:38 GMT 53.475021 -2.896028 25,725 141 407 -1472
2019-12-15 13:29:35 GMT 53.479862 -2.902491 25,775 141 406 -1536
2019-12-15 13:29:32 GMT 53.484879 -2.909180 25,850 141 404 -1600
2019-12-15 13:29:29 GMT 53.487625 -2.912868 25,925 141 401 -1408
2019-12-15 13:29:26 GMT 53.491562 -2.918126 26,025 141 400 -1024
2019-12-15 13:29:23 GMT 53.497368 -2.925918 26,025 141 401 -256
2019-12-15 13:29:20 GMT 53.501835 -2.931896 26,025 141 401 -64
2019-12-15 13:29:17 GMT 53.510773 -2.944013 26,050 140 401 0
2019-12-15 13:29:14 GMT 53.510773 -2.944013 26,050 140 401 -64
2019-12-15 13:29:08 GMT 53.518204 -2.954302 26,025 141 401 0
2019-12-15 13:29:05 GMT 53.521957 -2.959403 26,025 140 401 0
2019-12-15 13:29:02 GMT 53.527298 -2.966551 26,025 141 401 64
2019-12-15 13:28:58 GMT 53.532349 -2.973371 26,025 141 401 64
2019-12-15 13:28:55 GMT 53.541138 -2.985299 26,025 141 400 0
2019-12-15 13:28:52 GMT 53.541138 -2.985299 26,025 141 400 0
2019-12-15 13:28:49 GMT 53.550201 -2.997652 26,025 141 400 0
2019-12-15 13:28:46 GMT 53.554951 -3.004034 26,025 141 400 0
2019-12-15 13:28:43 GMT 53.554951 -3.004034 26,025 141 400 -64
2019-12-15 13:28:40 GMT 53.559422 -3.010092 26,025 140 400 0
2019-12-15 13:28:37 GMT 53.563889 -3.016151 26,050 140 400 0
2019-12-15 13:28:34 GMT 53.566914 -3.020190 26,050 140 400 0
2019-12-15 13:28:31 GMT 53.571339 -3.026249 26,050 140 400 0
2019-12-15 13:28:28 GMT 53.575653 -3.032148 26,050 141 399 0
2019-12-15 13:28:25 GMT 53.579269 -3.037013 26,050 141 399 0
2019-12-15 13:28:22 GMT 53.585304 -3.045232 26,050 141 399 0
2019-12-15 13:28:19 GMT 53.588196 -3.049098 26,050 141 399 0
2019-12-15 13:28:16 GMT 53.592636 -3.055062 26,050 141 400 0
2019-12-15 13:28:13 GMT 53.596382 -3.060096 26,050 141 399 0
2019-12-15 13:28:10 GMT 53.601131 -3.066559 26,050 140 400 0
2019-12-15 13:28:07 GMT 53.605740 -3.072779 26,050 140 400 0
2019-12-15 13:28:04 GMT 53.610764 -3.079625 26,050 140 400 0
2019-12-15 13:28:01 GMT 53.614773 -3.085058 26,050 141 399 0
2019-12-15 13:27:58 GMT 53.619240 -3.091117 26,050 141 399 0
2019-12-15 13:27:55 GMT 53.623428 -3.096771 26,050 141 399 0
2019-12-15 13:27:52 GMT 53.627571 -3.102426 26,050 141 399 -64
2019-12-15 13:27:49 GMT 53.632599 -3.109212 26,050 141 399 0
2019-12-15 13:27:46 GMT 53.636353 -3.114232 26,050 141 399 -64
2019-12-15 13:27:43 GMT 53.641663 -3.121451 26,050 141 399 0
2019-12-15 13:27:40 GMT 53.644520 -3.125368 26,050 141 399 -64
2019-12-15 13:27:36 GMT 53.651966 -3.135466 26,050 141 398 0
2019-12-15 13:27:33 GMT 53.658997 -3.144998 26,050 140 398 64
2019-12-15 13:27:30 GMT 53.658997 -3.144998 26,025 140 398 64
2019-12-15 13:27:27 GMT 53.664825 -3.152998 26,025 140 399 64
2019-12-15 13:27:24 GMT 53.667984 -3.157392 26,025 140 398 0
2019-12-15 13:27:21 GMT 53.673248 -3.164612 26,025 140 398 128
2019-12-15 13:27:18 GMT 53.675949 -3.168379 26,025 140 398 128
2019-12-15 13:27:15 GMT 53.680206 -3.174264 26,025 140 398 64
2019-12-15 13:27:12 GMT 53.685204 -3.181107 26,025 140 398 0
2019-12-15 13:27:09 GMT 53.690094 -3.187683 26,025 140 398 0
2019-12-15 13:27:06 GMT 53.692932 -3.191609 26,025 140 398 0
2019-12-15 13:27:03 GMT 53.698799 -3.199607 26,025 141 397 0
2019-12-15 13:26:59 GMT 53.703220 -3.205665 26,025 141 397 0
2019-12-15 13:26:56 GMT 53.708759 -3.213259 26,025 141 397 0
2019-12-15 13:26:53 GMT 53.711601 -3.217136 26,025 140 396 -64
2019-12-15 13:26:50 GMT 53.716442 -3.223760 26,025 140 397 0
2019-12-15 13:26:47 GMT 53.724262 -3.234504 26,025 140 397 0
2019-12-15 13:26:41 GMT 53.729942 -3.242340 26,025 140 397 0
2019-12-15 13:26:38 GMT 53.733948 -3.247794 26,025 140 396 0
2019-12-15 13:26:35 GMT 53.741161 -3.257769 26,025 140 397 0
2019-12-15 13:26:32 GMT 53.745712 -3.264038 26,025 140 397 0
2019-12-15 13:26:29 GMT 53.745712 -3.264038 26,025 140 397 0
2019-12-15 13:26:26 GMT 53.749969 -3.269924 26,025 141 397 0
2019-12-15 13:26:23 GMT 53.754547 -3.276123 26,025 141 397 0
2019-12-15 13:26:20 GMT 53.758804 -3.281923 26,025 141 396 0
2019-12-15 13:26:17 GMT 53.763924 -3.288951 26,025 141 397 0
2019-12-15 13:26:14 GMT 53.767509 -3.293798 26,025 140 397 -128
2019-12-15 13:26:11 GMT 53.774632 -3.303573 26,025 140 398 -64
2019-12-15 13:26:08 GMT 53.781189 -3.312613 26,050 140 398 -64
2019-12-15 13:26:05 GMT 53.781189 -3.312613 26,025 140 398 -64
2019-12-15 13:26:02 GMT 53.784592 -3.317306 26,025 140 398 -64
2019-12-15 13:25:59 GMT 53.788879 -3.323129 26,050 140 398 0
2019-12-15 13:25:55 GMT 53.800003 -3.338470 26,050 140 398 0
2019-12-15 13:25:52 GMT 53.800003 -3.338470 26,050 140 398 64
2019-12-15 13:25:48 GMT 53.804306 -3.344317 26,050 140 399 0
2019-12-15 13:25:45 GMT 53.809452 -3.351396 26,050 140 398 0
2019-12-15 13:25:42 GMT 53.812431 -3.355596 26,050 140 398 0
2019-12-15 13:25:39 GMT 53.824448 -3.372096 26,050 140 399 0
2019-12-15 13:25:35 GMT 53.824448 -3.372096 26,050 140 399 0
2019-12-15 13:25:32 GMT 53.827286 -3.376020 26,050 140 399 0
2019-12-15 13:25:29 GMT 53.831451 -3.381670 26,050 140 398 64
2019-12-15 13:25:26 GMT 53.835709 -3.387586 26,050 140 398 64
2019-12-15 13:25:23 GMT 53.844406 -3.399562 26,050 140 398 0
2019-12-15 13:25:20 GMT 53.844406 -3.399562 26,050 140 398 0
2019-12-15 13:25:17 GMT 53.848698 -3.405439 26,050 140 397 0
2019-12-15 13:25:14 GMT 53.854385 -3.413295 26,025 140 396 0
2019-12-15 13:25:11 GMT 53.856377 -3.416021 26,025 140 396 0
2019-12-15 13:25:08 GMT 53.861217 -3.422645 26,025 140 396 0
2019-12-15 13:25:05 GMT 53.866196 -3.429461 26,025 140 396 0
2019-12-15 13:25:02 GMT 53.875580 -3.442409 26,025 140 396 64
2019-12-15 13:24:59 GMT 53.879105 -3.447274 26,025 140 395 64
2019-12-15 13:24:53 GMT 53.882675 -3.452140 26,025 140 395 64
2019-12-15 13:24:50 GMT 53.886795 -3.457790 26,025 140 395 64
2019-12-15 13:24:47 GMT 53.891464 -3.464225 26,025 140 396 64
2019-12-15 13:24:41 GMT 53.899704 -3.475603 26,025 140 397 0
2019-12-15 13:24:38 GMT 53.904232 -3.481858 26,025 140 397 0
2019-12-15 13:24:35 GMT 53.908653 -3.487917 26,025 140 397 0
2019-12-15 13:24:32 GMT 53.914078 -3.495379 26,025 140 397 0
2019-12-15 13:24:29 GMT 53.916046 -3.498125 26,025 140 399 -64
2019-12-15 13:24:26 GMT 53.921906 -3.506208 26,025 140 399 -64
2019-12-15 13:24:23 GMT 53.926624 -3.512798 26,025 140 399 -64
2019-12-15 13:24:20 GMT 53.930630 -3.518291 26,025 140 400 -128
2019-12-15 13:24:17 GMT 53.933327 -3.522088 26,025 140 400 -128
2019-12-15 13:24:14 GMT 53.939072 -3.530064 26,025 140 404 64
2019-12-15 13:24:10 GMT 53.945244 -3.538648 26,025 140 404 64
2019-12-15 13:24:06 GMT 53.950104 -3.545445 26,025 140 404 64
2019-12-15 13:24:03 GMT 53.955185 -3.552429 26,025 140 406 64
2019-12-15 13:24:00 GMT 53.958046 -3.556501 26,025 140 407 64
2019-12-15 13:23:57 GMT 53.962284 -3.562398 26,025 140 408 64
2019-12-15 13:23:54 GMT 53.971756 -3.575657 26,025 140 412 64
2019-12-15 13:23:51 GMT 53.971756 -3.575657 26,025 140 414 64
2019-12-15 13:23:45 GMT 53.981506 -3.589312 26,000 140 419 0
2019-12-15 13:23:42 GMT 53.989471 -3.600365 26,025 140 421 -64
2019-12-15 13:23:39 GMT 53.995056 -3.608120 26,025 140 422 -64
2019-12-15 13:23:35 GMT 53.995056 -3.608120 26,025 140 424 -64
2019-12-15 13:23:32 GMT 53.999710 -3.614664 26,025 140 424 0
2019-12-15 13:23:29 GMT 54.003529 -3.619914 26,025 140 424 0
2019-12-15 13:23:26 GMT 54.008183 -3.626458 26,025 140 424 0
2019-12-15 13:23:23 GMT 54.018192 -3.640433 26,025 140 424 0
2019-12-15 13:23:20 GMT 54.018192 -3.640433 26,025 140 425 -64
2019-12-15 13:23:17 GMT 54.023781 -3.648269 26,025 140 424 -64
2019-12-15 13:23:14 GMT 54.027100 -3.652954 26,050 140 424 0
2019-12-15 13:23:11 GMT 54.033180 -3.661436 26,050 140 424 0
2019-12-15 13:23:08 GMT 54.036530 -3.666059 26,050 140 425 0
2019-12-15 13:23:05 GMT 54.040924 -3.672180 26,050 140 424 0
2019-12-15 13:23:02 GMT 54.044262 -3.676866 26,050 140 425 -64
2019-12-15 13:22:59 GMT 54.054550 -3.691245 26,050 140 425 -64
2019-12-15 13:22:56 GMT 54.059254 -3.697869 26,050 140 425 0
2019-12-15 13:22:53 GMT 54.059254 -3.697869 26,050 140 425 -64
2019-12-15 13:22:50 GMT 54.064884 -3.705705 26,050 140 425 0
2019-12-15 13:22:47 GMT 54.067120 -3.708936 26,050 140 426 -64
2019-12-15 13:22:44 GMT 54.073635 -3.718064 26,050 140 426 -64
2019-12-15 13:22:41 GMT 54.076813 -3.722560 26,050 140 426 0
2019-12-15 13:22:38 GMT 54.082123 -3.730015 26,050 140 426 0
2019-12-15 13:22:35 GMT 54.091373 -3.743026 26,050 140 426 64
2019-12-15 13:22:32 GMT 54.094864 -3.747873 26,050 140 426 64
2019-12-15 13:22:29 GMT 54.099567 -3.754497 26,050 140 426 64
2019-12-15 13:22:26 GMT 54.105057 -3.762190 26,050 140 427 64
2019-12-15 13:22:23 GMT 54.105057 -3.762190 26,050 140 427 0
2019-12-15 13:22:19 GMT 54.111156 -3.770653 26,050 140 427 0
2019-12-15 13:22:16 GMT 54.114929 -3.775985 26,050 140 427 0
2019-12-15 13:22:13 GMT 54.119350 -3.782205 26,050 140 427 0
2019-12-15 13:22:10 GMT 54.124237 -3.788949 26,050 140 427 -64
2019-12-15 13:22:07 GMT 54.134308 -3.802996 26,050 140 427 0
2019-12-15 13:22:04 GMT 54.139297 -3.810059 26,050 140 427 0
2019-12-15 13:22:01 GMT 54.143883 -3.816457 26,050 140 427 0
2019-12-15 13:21:58 GMT 54.143883 -3.816457 26,050 140 427 0
2019-12-15 13:21:55 GMT 54.146942 -3.820731 26,050 140 427 64
2019-12-15 13:21:52 GMT 54.156372 -3.833993 26,050 140 427 0
2019-12-15 13:21:49 GMT 54.156372 -3.833993 26,050 140 427 0
2019-12-15 13:21:46 GMT 54.162457 -3.842549 26,050 140 427 0
2019-12-15 13:21:43 GMT 54.166122 -3.847726 26,050 140 427 0
2019-12-15 13:21:39 GMT 54.171753 -3.855652 26,050 140 427 0
2019-12-15 13:21:36 GMT 54.176331 -3.862098 26,050 140 427 -64
2019-12-15 13:21:33 GMT 54.181824 -3.869777 26,050 140 427 -64
2019-12-15 13:21:30 GMT 54.186218 -3.875977 26,050 140 427 0
2019-12-15 13:21:27 GMT 54.195232 -3.888514 26,050 140 427 0
2019-12-15 13:21:24 GMT 54.195232 -3.888514 26,050 140 427 0
2019-12-15 13:21:21 GMT 54.198898 -3.893633 26,050 140 427 0
2019-12-15 13:21:18 GMT 54.204353 -3.901358 26,050 140 427 0
2019-12-15 13:21:15 GMT 54.208172 -3.906690 26,050 140 427 64
2019-12-15 13:21:12 GMT 54.213341 -3.913960 26,050 140 427 64
2019-12-15 13:21:09 GMT 54.222610 -3.927141 26,025 140 427 64
2019-12-15 13:21:06 GMT 54.222610 -3.927141 26,050 140 427 0
2019-12-15 13:21:03 GMT 54.226841 -3.933186 26,050 140 427 64
2019-12-15 13:21:00 GMT 54.230804 -3.938756 26,025 140 428 64
2019-12-15 13:20:57 GMT 54.235519 -3.945426 26,025 140 428 0
2019-12-15 13:20:54 GMT 54.240189 -3.952175 26,025 140 428 0
2019-12-15 13:20:51 GMT 54.243973 -3.957582 26,025 140 428 -64
2019-12-15 13:20:48 GMT 54.249603 -3.965580 26,025 140 428 -64
2019-12-15 13:20:45 GMT 54.253422 -3.970992 26,050 140 428 -64
2019-12-15 13:20:42 GMT 54.259186 -3.979170 26,050 140 428 0
2019-12-15 13:20:38 GMT 54.264221 -3.986311 26,050 140 428 0
2019-12-15 13:20:35 GMT 54.269852 -3.994315 26,050 140 428 0
2019-12-15 13:20:32 GMT 54.273651 -3.999730 26,050 140 428 0
2019-12-15 13:20:29 GMT 54.278366 -4.006455 26,050 140 429 -64
2019-12-15 13:20:26 GMT 54.282028 -4.011625 26,050 140 429 -64
2019-12-15 13:20:22 GMT 54.288895 -4.021412 26,050 140 429 0
2019-12-15 13:20:19 GMT 54.293316 -4.027738 26,050 140 429 0
2019-12-15 13:20:16 GMT 54.297592 -4.033760 26,050 140 429 0
2019-12-15 13:20:13 GMT 54.306259 -4.046131 26,050 140 429 0
2019-12-15 13:20:07 GMT 54.312820 -4.055453 26,050 140 429 -64
2019-12-15 13:20:04 GMT 54.316772 -4.061145 26,050 140 429 64
2019-12-15 13:20:01 GMT 54.319942 -4.065690 26,050 140 429 64
2019-12-15 13:19:58 GMT 54.324509 -4.072212 26,050 140 429 64
2019-12-15 13:19:55 GMT 54.335354 -4.087580 26,050 140 430 0
2019-12-15 13:19:52 GMT 54.335354 -4.087580 26,050 140 429 64
2019-12-15 13:19:48 GMT 54.339775 -4.093905 26,050 140 429 0
2019-12-15 13:19:45 GMT 54.344055 -4.100001 26,050 140 429 -64
2019-12-15 13:19:41 GMT 54.353043 -4.112799 26,050 140 429 0
2019-12-15 13:19:37 GMT 54.356964 -4.118419 26,050 140 429 64
2019-12-15 13:19:34 GMT 54.366123 -4.131525 26,050 140 429 0
2019-12-15 13:19:28 GMT 54.371017 -4.138453 26,050 140 429 0
2019-12-15 13:19:25 GMT 54.375412 -4.144754 26,050 140 430 0
2019-12-15 13:19:22 GMT 54.380604 -4.152166 26,050 140 430 0
2019-12-15 13:19:19 GMT 54.384418 -4.157576 26,050 140 429 0
2019-12-15 13:19:16 GMT 54.389774 -4.165150 26,050 140 430 64
2019-12-15 13:19:13 GMT 54.394196 -4.171475 26,050 140 430 64
2019-12-15 13:19:10 GMT 54.398758 -4.178036 26,050 140 430 64
2019-12-15 13:19:07 GMT 54.402294 -4.183044 26,025 140 430 64
2019-12-15 13:19:04 GMT 54.407639 -4.190638 26,025 140 430 64
2019-12-15 13:19:01 GMT 54.411575 -4.196373 26,025 140 430 64
2019-12-15 13:18:58 GMT 54.421848 -4.210926 26,025 140 430 0
2019-12-15 13:18:52 GMT 54.425537 -4.216165 26,025 140 431 -64
2019-12-15 13:18:49 GMT 54.429794 -4.222224 26,025 140 430 0
2019-12-15 13:18:46 GMT 54.440689 -4.237653 26,025 140 431 64
2019-12-15 13:18:43 GMT 54.440689 -4.237653 26,025 140 430 64
2019-12-15 13:18:40 GMT 54.448471 -4.248801 26,025 139 432 64
2019-12-15 13:18:37 GMT 54.448471 -4.248801 26,025 139 432 64
2019-12-15 13:18:34 GMT 54.453964 -4.256798 26,025 139 432 64
2019-12-15 13:18:31 GMT 54.458221 -4.262938 26,025 139 432 -64
2019-12-15 13:18:27 GMT 54.468292 -4.277559 26,025 139 432 -64
2019-12-15 13:18:24 GMT 54.468292 -4.277559 26,025 140 431 0
2019-12-15 13:18:21 GMT 54.474449 -4.286333 26,025 140 432 0
2019-12-15 13:18:18 GMT 54.477661 -4.290910 26,025 140 432 0
2019-12-15 13:18:15 GMT 54.482693 -4.298151 26,025 140 432 0
2019-12-15 13:18:12 GMT 54.492188 -4.311801 26,025 140 432 0
2019-12-15 13:18:06 GMT 54.500015 -4.322959 26,025 140 432 0
2019-12-15 13:18:00 GMT 54.505547 -4.330860 26,025 140 432 0
2019-12-15 13:17:57 GMT 54.509720 -4.336772 26,050 140 433 0
2019-12-15 13:17:54 GMT 54.515533 -4.345093 26,050 140 433 0
2019-12-15 13:17:51 GMT 54.520584 -4.352334 26,050 140 433 0
2019-12-15 13:17:48 GMT 54.525051 -4.358742 26,050 140 433 0
2019-12-15 13:17:45 GMT 54.528122 -4.363107 26,050 139 433 0
2019-12-15 13:17:42 GMT 54.532562 -4.369570 26,050 139 433 0
2019-12-15 13:17:39 GMT 54.542511 -4.383961 26,050 139 434 0
2019-12-15 13:17:36 GMT 54.542511 -4.383961 26,050 139 434 -64
2019-12-15 13:17:33 GMT 54.547680 -4.391535 26,050 139 434 -64
2019-12-15 13:17:30 GMT 54.552425 -4.398443 26,050 139 434 0
2019-12-15 13:17:26 GMT 54.558384 -4.407099 26,050 139 433 0
2019-12-15 13:17:23 GMT 54.562248 -4.412675 26,050 139 433 0
2019-12-15 13:17:20 GMT 54.566528 -4.418847 26,050 139 434 0
2019-12-15 13:17:17 GMT 54.570190 -4.424178 26,050 139 434 0
2019-12-15 13:17:14 GMT 54.577423 -4.434648 26,050 139 434 64
2019-12-15 13:17:11 GMT 54.581383 -4.440391 26,050 139 434 0
2019-12-15 13:17:08 GMT 54.585388 -4.446232 26,050 139 434 -64
2019-12-15 13:17:05 GMT 54.589828 -4.452613 26,050 139 434 -64
2019-12-15 13:17:02 GMT 54.593948 -4.458672 26,050 139 434 -64
2019-12-15 13:16:59 GMT 54.600540 -4.468204 26,050 139 434 -64
2019-12-15 13:16:55 GMT 54.605450 -4.475347 26,050 139 434 0
2019-12-15 13:16:51 GMT 54.610657 -4.482907 26,050 139 434 64
2019-12-15 13:16:48 GMT 54.620483 -4.497237 26,050 139 434 128
2019-12-15 13:16:45 GMT 54.620483 -4.497237 26,025 139 435 128
2019-12-15 13:16:42 GMT 54.626629 -4.506142 26,025 139 435 64
2019-12-15 13:16:38 GMT 54.630913 -4.512385 26,025 139 435 64
2019-12-15 13:16:35 GMT 54.636314 -4.520208 26,025 139 434 0
2019-12-15 13:16:32 GMT 54.640411 -4.526201 26,025 139 434 0
2019-12-15 13:16:29 GMT 54.644714 -4.532507 26,025 139 434 0
2019-12-15 13:16:26 GMT 54.649300 -4.539185 26,025 139 434 -64
2019-12-15 13:16:23 GMT 54.653305 -4.545011 26,025 139 434 0
2019-12-15 13:16:20 GMT 54.659134 -4.553510 26,025 139 434 0
2019-12-15 13:16:17 GMT 54.663254 -4.559569 26,025 139 434 0
2019-12-15 13:16:14 GMT 54.672298 -4.572726 26,025 139 435 0
2019-12-15 13:16:11 GMT 54.672298 -4.572726 26,025 139 435 0
2019-12-15 13:16:08 GMT 54.676620 -4.578956 26,025 139 435 0
2019-12-15 13:16:05 GMT 54.680630 -4.584794 26,025 139 435 0
2019-12-15 13:16:02 GMT 54.686462 -4.593255 26,025 139 435 0
2019-12-15 13:15:59 GMT 54.691223 -4.600202 26,050 140 435 0
2019-12-15 13:15:56 GMT 54.696899 -4.608442 26,050 140 435 0
2019-12-15 13:15:53 GMT 54.700462 -4.613509 26,050 140 435 0
2019-12-15 13:15:50 GMT 54.703999 -4.618669 26,050 140 435 0
2019-12-15 13:15:47 GMT 54.709400 -4.626493 26,050 140 435 -64
2019-12-15 13:15:44 GMT 54.714661 -4.634049 26,050 140 435 -128
2019-12-15 13:15:41 GMT 54.719597 -4.641224 26,050 139 434 -64
2019-12-15 13:15:38 GMT 54.722534 -4.645440 26,075 139 435 -64
2019-12-15 13:15:35 GMT 54.727139 -4.652127 26,075 139 434 -64
2019-12-15 13:15:32 GMT 54.732212 -4.659535 26,075 139 434 0
2019-12-15 13:15:28 GMT 54.743317 -4.675894 26,050 139 433 128
2019-12-15 13:15:25 GMT 54.743317 -4.675894 26,050 139 433 192
2019-12-15 13:15:22 GMT 54.747711 -4.682438 26,050 139 432 256
2019-12-15 13:15:19 GMT 54.752426 -4.689385 26,050 139 430 128
2019-12-15 13:15:16 GMT 54.761539 -4.702731 26,025 139 430 64
2019-12-15 13:15:10 GMT 54.765354 -4.708224 26,025 139 430 64
2019-12-15 13:15:07 GMT 54.771469 -4.717093 26,025 139 431 0
2019-12-15 13:15:03 GMT 54.776779 -4.724848 26,025 139 431 -64
2019-12-15 13:15:00 GMT 54.780899 -4.730826 26,025 139 432 0
2019-12-15 13:14:57 GMT 54.786350 -4.738853 26,025 139 432 0
2019-12-15 13:14:54 GMT 54.789562 -4.743514 26,025 139 433 -64
2019-12-15 13:14:50 GMT 54.796127 -4.753168 26,025 139 434 -64
2019-12-15 13:14:47 GMT 54.800125 -4.759019 26,025 139 440 0
2019-12-15 13:14:44 GMT 54.805481 -4.766855 26,025 139 437 0
2019-12-15 13:14:40 GMT 54.811909 -4.776389 26,025 139 439 -128
2019-12-15 13:14:37 GMT 54.816238 -4.782688 26,025 139 451 0
2019-12-15 13:14:34 GMT 54.821045 -4.789716 26,025 139 442 64
2019-12-15 13:14:31 GMT 54.826061 -4.797030 26,025 139 444 64
2019-12-15 13:14:28 GMT 54.830750 -4.803934 26,025 139 447 0
2019-12-15 13:14:25 GMT 54.835602 -4.811123 26,000 139 451 0
2019-12-15 13:14:22 GMT 54.839722 -4.817182 26,025 139 450 64
2019-12-15 13:14:19 GMT 54.843517 -4.822832 26,000 139 455 64
2019-12-15 13:14:16 GMT 54.849430 -4.831571 26,025 139 458 -64
2019-12-15 13:14:13 GMT 54.854408 -4.839061 26,025 139 460 -64
2019-12-15 13:14:10 GMT 54.864349 -4.853776 26,025 139 466 -128
2019-12-15 13:14:07 GMT 54.864349 -4.853776 26,025 139 468 -64
2019-12-15 13:14:04 GMT 54.874420 -4.868640 26,050 139 470 -128
2019-12-15 13:14:01 GMT 54.874420 -4.868640 26,050 139 472 -64
2019-12-15 13:13:58 GMT 54.879547 -4.876152 26,050 139 472 -64
2019-12-15 13:13:55 GMT 54.883739 -4.882341 26,050 139 473 0
2019-12-15 13:13:52 GMT 54.889698 -4.891163 26,050 139 473 0
2019-12-15 13:13:49 GMT 54.893509 -4.896833 26,050 139 473 0
2019-12-15 13:13:46 GMT 54.899193 -4.905146 26,050 139 473 64
2019-12-15 13:13:43 GMT 54.903336 -4.911305 26,050 139 473 0
2019-12-15 13:13:40 GMT 54.909809 -4.920959 26,050 139 473 64
2019-12-15 13:13:37 GMT 54.913605 -4.926560 26,050 139 473 -64
2019-12-15 13:13:34 GMT 54.923447 -4.941101 26,050 139 473 -64
2019-12-15 13:13:28 GMT 54.932968 -4.955157 26,050 139 473 0
2019-12-15 13:13:22 GMT 54.940109 -4.965740 26,050 139 474 0
2019-12-15 13:13:18 GMT 54.945282 -4.973333 26,075 139 474 0
2019-12-15 13:13:15 GMT 54.952423 -4.983996 26,050 139 474 64
2019-12-15 13:13:11 GMT 54.962227 -4.998530 26,050 139 474 64
2019-12-15 13:13:08 GMT 54.962227 -4.998530 26,050 139 474 0
2019-12-15 13:13:04 GMT 54.970093 -5.010182 26,050 139 474 0
2019-12-15 13:13:01 GMT 54.974236 -5.016341 26,050 139 474 0
2019-12-15 13:12:57 GMT 54.981079 -5.026487 26,050 139 474 0
2019-12-15 13:12:54 GMT 54.985222 -5.032654 26,050 139 475 -64
2019-12-15 13:12:51 GMT 54.990391 -5.040311 26,050 139 475 -64
2019-12-15 13:12:48 GMT 54.995361 -5.047733 26,050 139 474 -64
2019-12-15 13:12:44 GMT 55.002029 -5.057623 26,050 139 474 0
2019-12-15 13:12:41 GMT 55.011841 -5.072291 26,050 139 474 0
2019-12-15 13:12:38 GMT 55.011841 -5.072291 26,075 139 474 -64
2019-12-15 13:12:35 GMT 55.016830 -5.079679 26,050 139 474 0
2019-12-15 13:12:32 GMT 55.022186 -5.087639 26,050 139 474 -64
2019-12-15 13:12:29 GMT 55.027493 -5.095492 26,075 139 474 0
2019-12-15 13:12:26 GMT 55.031494 -5.101485 26,050 139 474 64
2019-12-15 13:12:22 GMT 55.038803 -5.112305 26,050 139 474 64
2019-12-15 13:12:19 GMT 55.043644 -5.119546 26,050 139 474 64
2019-12-15 13:12:16 GMT 55.048965 -5.127465 26,050 139 475 64
2019-12-15 13:12:13 GMT 55.057617 -5.140471 26,050 139 475 0
2019-12-15 13:12:10 GMT 55.057617 -5.140471 26,050 139 475 0
2019-12-15 13:12:07 GMT 55.062607 -5.147903 26,050 139 475 0
2019-12-15 13:12:04 GMT 55.068924 -5.157354 26,050 139 474 0
2019-12-15 13:12:01 GMT 55.074554 -5.165821 26,050 139 475 0
2019-12-15 13:11:58 GMT 55.079544 -5.173268 26,050 139 474 0
2019-12-15 13:11:55 GMT 55.085037 -5.181508 26,050 139 474 0
2019-12-15 13:11:52 GMT 55.094200 -5.195118 26,050 139 474 0
2019-12-15 13:11:49 GMT 55.094200 -5.195118 26,050 139 474 -64
2019-12-15 13:11:46 GMT 55.099880 -5.203525 26,050 139 474 -64
2019-12-15 13:11:43 GMT 55.103851 -5.209539 26,050 139 473 -128
2019-12-15 13:11:40 GMT 55.109711 -5.218183 26,075 139 474 -64
2019-12-15 13:11:37 GMT 55.113190 -5.223434 26,075 139 473 0
2019-12-15 13:11:34 GMT 55.120468 -5.234339 26,075 139 473 0
2019-12-15 13:11:31 GMT 55.123947 -5.239563 26,075 139 473 64
2019-12-15 13:11:28 GMT 55.128937 -5.247022 26,075 139 473 64
2019-12-15 13:11:25 GMT 55.137680 -5.260287 26,050 139 472 128
2019-12-15 13:11:19 GMT 55.143631 -5.269237 26,050 139 472 128
2019-12-15 13:11:16 GMT 55.147736 -5.275518 26,050 139 472 128
2019-12-15 13:11:13 GMT 55.152531 -5.282676 26,050 139 472 -64
2019-12-15 13:11:10 GMT 55.158646 -5.291937 26,050 139 472 -128
2019-12-15 13:11:07 GMT 55.162582 -5.297914 26,050 139 471 -128
2019-12-15 13:11:04 GMT 55.169998 -5.309062 26,050 139 471 0
2019-12-15 13:11:01 GMT 55.174072 -5.315282 26,050 139 470 64
2019-12-15 13:10:58 GMT 55.177551 -5.320533 26,050 139 470 64
2019-12-15 13:10:55 GMT 55.183273 -5.329177 26,050 139 470 128
2019-12-15 13:10:52 GMT 55.187714 -5.335882 26,050 139 470 128
2019-12-15 13:10:48 GMT 55.194660 -5.346264 26,050 139 470 128
2019-12-15 13:10:45 GMT 55.199409 -5.353505 26,025 139 469 0
2019-12-15 13:10:42 GMT 55.203831 -5.360246 26,025 139 469 0
2019-12-15 13:10:39 GMT 55.208580 -5.367404 26,050 139 469 -64
2019-12-15 13:10:36 GMT 55.213806 -5.375384 26,050 139 469 0
2019-12-15 13:10:33 GMT 55.219208 -5.383543 26,050 139 469 -64
2019-12-15 13:10:30 GMT 55.223663 -5.390209 26,050 139 468 0
2019-12-15 13:10:27 GMT 55.229370 -5.398892 26,050 139 468 -64
2019-12-15 13:10:24 GMT 55.233627 -5.405354 26,050 139 469 0
2019-12-15 13:10:21 GMT 55.237534 -5.411349 26,050 139 469 0
2019-12-15 13:10:17 GMT 55.245075 -5.422752 26,050 138 469 0
2019-12-15 13:10:14 GMT 55.250610 -5.431204 26,050 138 469 0
2019-12-15 13:10:11 GMT 55.253906 -5.436132 26,050 138 469 0
2019-12-15 13:10:07 GMT 55.261604 -5.447804 26,050 139 469 64
2019-12-15 13:10:04 GMT 55.266678 -5.455544 26,050 139 469 0
2019-12-15 13:10:00 GMT 55.273705 -5.466281 26,050 138 472 0
2019-12-15 13:09:56 GMT 55.280132 -5.476019 26,050 138 472 0
2019-12-15 13:09:53 GMT 55.283569 -5.481289 26,050 138 472 0
2019-12-15 13:09:50 GMT 55.290115 -5.491306 26,050 138 473 -64
2019-12-15 13:09:47 GMT 55.295727 -5.499822 26,050 139 474 -64
2019-12-15 13:09:43 GMT 55.302017 -5.509401 26,075 139 474 -64
2019-12-15 13:09:40 GMT 55.304989 -5.513888 26,075 139 476 -64
2019-12-15 13:09:37 GMT 55.311134 -5.523210 26,075 139 477 -64
2019-12-15 13:09:34 GMT 55.320259 -5.537109 26,075 139 479 -64
2019-12-15 13:09:28 GMT 55.325272 -5.544703 26,075 139 479 -64
2019-12-15 13:09:25 GMT 55.330444 -5.552619 26,075 139 480 0
2019-12-15 13:09:21 GMT 55.338833 -5.565407 26,075 138 482 0
2019-12-15 13:09:18 GMT 55.342373 -5.570734 26,075 138 482 -64
2019-12-15 13:09:15 GMT 55.352474 -5.586132 26,075 139 484 -320
2019-12-15 13:09:09 GMT 55.362995 -5.601945 26,125 139 483 -640
2019-12-15 13:09:06 GMT 55.362995 -5.601945 26,125 139 482 -704
2019-12-15 13:09:03 GMT 55.372814 -5.616677 26,175 139 479 -960
2019-12-15 13:09:00 GMT 55.372814 -5.616677 26,225 139 479 -1024
2019-12-15 13:08:57 GMT 55.377377 -5.623419 26,250 139 477 -1216
2019-12-15 13:08:54 GMT 55.384094 -5.633401 26,300 139 475 -1280
2019-12-15 13:08:51 GMT 55.388260 -5.639622 26,375 139 473 -1408
2019-12-15 13:08:48 GMT 55.399796 -5.656909 26,550 138 466 -1792
2019-12-15 13:08:44 GMT 55.399796 -5.656909 26,700 138 464 -1984
2019-12-15 13:08:40 GMT 55.412151 -5.676020 26,800 138 459 -2560
2019-12-15 13:08:36 GMT 55.412151 -5.676020 26,875 138 456 -2752
2019-12-15 13:08:33 GMT 55.417507 -5.684426 27,100 138 454 -2944
2019-12-15 13:08:30 GMT 55.422070 -5.691501 27,175 138 453 -2816
2019-12-15 13:08:27 GMT 55.425514 -5.696911 27,300 138 453 -2496
2019-12-15 13:08:23 GMT 55.433006 -5.708646 27,425 138 451 -2048
2019-12-15 13:08:20 GMT 55.442780 -5.724039 27,625 138 450 -1600
2019-12-15 13:08:17 GMT 55.442780 -5.724039 27,675 138 449 -1536
2019-12-15 13:08:11 GMT 55.457169 -5.746193 27,850 139 450 -1280
2019-12-15 13:08:08 GMT 55.457169 -5.746193 27,925 139 450 -1152
2019-12-15 13:08:05 GMT 55.460194 -5.750742 27,925 139 450 -1088
2019-12-15 13:08:02 GMT 55.466339 -5.760098 27,950 139 450 -1088
2019-12-15 13:07:59 GMT 55.472160 -5.768938 28,050 139 451 -1216
2019-12-15 13:07:56 GMT 55.475788 -5.774517 28,075 139 451 -1344
2019-12-15 13:07:53 GMT 55.478943 -5.779308 28,125 138 452 -1472
2019-12-15 13:07:50 GMT 55.485352 -5.789212 28,275 138 452 -1472
2019-12-15 13:07:47 GMT 55.489288 -5.795205 28,300 138 452 -1536
2019-12-15 13:07:44 GMT 55.495743 -5.805192 28,600 138 451 -1536
2019-12-15 13:07:41 GMT 55.498878 -5.810051 28,475 138 451 -1536
2019-12-15 13:07:38 GMT 55.503395 -5.817003 28,525 138 450 -1536
2019-12-15 13:07:35 GMT 55.509212 -5.825930 28,650 138 451 -1536
2019-12-15 13:07:32 GMT 55.512333 -5.830822 28,700 138 450 -1472
2019-12-15 13:07:29 GMT 55.516895 -5.837774 28,800 138 450 -1408
2019-12-15 13:07:26 GMT 55.521736 -5.845242 28,825 138 451 -1344
2019-12-15 13:07:23 GMT 55.527237 -5.853715 28,875 138 451 -1216
2019-12-15 13:07:20 GMT 55.536484 -5.867948 29,000 138 452 -960
2019-12-15 13:07:14 GMT 55.541195 -5.875282 29,050 138 452 -960
2019-12-15 13:07:11 GMT 55.545433 -5.881805 29,075 138 452 -960
2019-12-15 13:07:08 GMT 55.555069 -5.896579 29,175 139 454 -704
2019-12-15 13:07:02 GMT 55.560749 -5.905323 29,225 139 455 -704
2019-12-15 13:06:59 GMT 55.564911 -5.911560 29,250 139 456 -704
2019-12-15 13:06:56 GMT 55.569534 -5.918635 29,650 138 457 -704
2019-12-15 13:06:53 GMT 55.578140 -5.931868 29,350 138 459 -832
2019-12-15 13:06:47 GMT 55.583836 -5.940771 29,400 138 459 -1280
2019-12-15 13:06:43 GMT 55.593842 -5.956421 29,575 138 458 -1600
2019-12-15 13:06:39 GMT 55.603249 -5.970898 29,675 138 457 -1536
2019-12-15 13:06:35 GMT 55.603249 -5.970898 29,725 138 458 -1536
2019-12-15 13:06:32 GMT 55.607986 -5.978310 29,825 138 458 -1472
2019-12-15 13:06:29 GMT 55.611954 -5.984545 29,875 138 457 -1408
2019-12-15 13:06:26 GMT 55.617496 -5.993214 29,925 138 457 -1408
2019-12-15 13:06:23 GMT 55.622059 -6.000338 30,000 138 457 -1280
2019-12-15 13:06:20 GMT 55.626945 -6.008062 30,050 138 457 -1344
2019-12-15 13:06:17 GMT 55.630901 -6.014242 30,100 138 457 -1344
2019-12-15 13:06:14 GMT 55.640579 -6.029330 30,200 138 457 -1344
2019-12-15 13:06:11 GMT 55.640579 -6.029330 30,250 138 457 -1344
2019-12-15 13:06:08 GMT 55.645332 -6.036730 30,325 138 457 -1216
2019-12-15 13:06:05 GMT 55.650055 -6.044062 30,450 138 457 -1472
2019-12-15 13:06:02 GMT 55.654179 -6.050549 30,400 138 457 -1088
2019-12-15 13:05:59 GMT 55.660976 -6.061106 30,500 138 457 -1088
2019-12-15 13:05:56 GMT 55.664932 -6.067371 30,550 138 458 -1152
2019-12-15 13:05:53 GMT 55.674225 -6.082015 30,625 138 458 -1344
2019-12-15 13:05:50 GMT 55.674225 -6.082015 30,675 138 457 -1472
2019-12-15 13:05:46 GMT 55.679920 -6.090975 30,775 138 457 -1472
2019-12-15 13:05:43 GMT 55.684982 -6.098910 30,850 138 457 -1216
2019-12-15 13:05:40 GMT 55.690208 -6.107025 30,900 138 457 -1152
2019-12-15 13:05:36 GMT 55.696198 -6.116388 31,000 138 456 -640
2019-12-15 13:05:33 GMT 55.700821 -6.123546 31,025 138 456 -512
2019-12-15 13:05:30 GMT 55.704941 -6.129872 31,025 138 456 -256
2019-12-15 13:05:27 GMT 55.710785 -6.138954 31,025 138 456 -64
2019-12-15 13:05:24 GMT 55.715393 -6.146164 31,025 138 456 -64
2019-12-15 13:05:21 GMT 55.720608 -6.154318 31,025 138 456 -64
2019-12-15 13:05:18 GMT 55.730530 -6.169905 31,050 138 456 0
2019-12-15 13:05:15 GMT 55.734467 -6.176064 31,050 138 456 0
2019-12-15 13:05:09 GMT 55.738998 -6.183222 31,050 138 455 0
2019-12-15 13:05:06 GMT 55.744492 -6.191878 31,050 138 455 0
2019-12-15 13:05:03 GMT 55.748447 -6.198092 31,050 138 454 0
2019-12-15 13:05:00 GMT 55.752029 -6.203756 31,025 138 454 0
2019-12-15 13:04:57 GMT 55.756920 -6.211395 31,025 138 454 64
2019-12-15 13:04:54 GMT 55.763168 -6.221258 31,025 138 454 64
2019-12-15 13:04:51 GMT 55.767254 -6.227703 31,025 138 454 64
2019-12-15 13:04:48 GMT 55.771957 -6.235074 31,025 138 454 64
2019-12-15 13:04:45 GMT 55.782623 -6.251803 31,025 138 454 0
2019-12-15 13:04:42 GMT 55.782623 -6.251803 31,025 138 453 0
2019-12-15 13:04:36 GMT 55.790482 -6.264095 31,025 138 453 0
2019-12-15 13:04:33 GMT 55.795166 -6.271529 31,025 138 453 0
2019-12-15 13:04:30 GMT 55.805649 -6.288008 31,025 138 452 128
2019-12-15 13:04:26 GMT 55.805649 -6.288008 31,000 138 452 64
2019-12-15 13:04:23 GMT 55.810501 -6.295681 31,000 138 452 -64
2019-12-15 13:04:20 GMT 55.815342 -6.303234 31,000 138 452 -64
2019-12-15 13:04:17 GMT 55.820023 -6.310647 31,025 138 452 -128
2019-12-15 13:04:13 GMT 55.830845 -6.327524 31,025 138 452 0
2019-12-15 13:04:10 GMT 55.830845 -6.327524 31,025 138 452 0
2019-12-15 13:04:07 GMT 55.835220 -6.334367 31,025 138 452 0
2019-12-15 13:04:04 GMT 55.840527 -6.342716 31,025 138 452 64
2019-12-15 13:04:01 GMT 55.850491 -6.358509 31,025 138 452 64
2019-12-15 13:03:58 GMT 55.850491 -6.358509 31,025 138 451 0
2019-12-15 13:03:55 GMT 55.855179 -6.365911 31,025 138 451 -64
2019-12-15 13:03:52 GMT 55.859844 -6.373272 31,025 138 451 -64
2019-12-15 13:03:49 GMT 55.863602 -6.379145 31,025 138 453 64
2019-12-15 13:03:45 GMT 55.870010 -6.389299 31,050 138 451 64
2019-12-15 13:03:42 GMT 55.875595 -6.398121 31,050 138 451 64
2019-12-15 13:03:39 GMT 55.879490 -6.404257 31,025 138 451 64
2019-12-15 13:03:36 GMT 55.883400 -6.410437 31,025 138 451 64
2019-12-15 13:03:33 GMT 55.889919 -6.420822 31,025 138 451 64
2019-12-15 13:03:29 GMT 55.895187 -6.429249 31,025 138 451 64
2019-12-15 13:03:26 GMT 55.899090 -6.435413 31,050 138 451 0
2019-12-15 13:03:22 GMT 55.905655 -6.445713 31,025 138 452 0
2019-12-15 13:03:19 GMT 55.910168 -6.452923 31,025 138 452 0
2019-12-15 13:03:16 GMT 55.914871 -6.460294 31,025 138 451 -128
2019-12-15 13:03:13 GMT 55.924042 -6.474895 31,025 138 451 -128
2019-12-15 13:03:07 GMT 55.929611 -6.483765 31,050 138 451 -64
2019-12-15 13:03:04 GMT 55.935059 -6.492421 31,050 138 451 0
2019-12-15 13:02:58 GMT 55.942383 -6.503989 31,050 138 451 0
2019-12-15 13:02:54 GMT 55.949890 -6.515808 31,025 138 451 64
2019-12-15 13:02:51 GMT 55.953789 -6.522017 31,025 138 451 0
2019-12-15 13:02:48 GMT 55.959549 -6.531122 31,025 138 451 0
2019-12-15 13:02:44 GMT 55.964951 -6.539778 31,025 138 451 0
2019-12-15 13:02:41 GMT 55.971199 -6.549654 31,025 138 451 0
2019-12-15 13:02:35 GMT 55.978786 -6.561842 31,025 138 451 0
2019-12-15 13:02:32 GMT 55.985321 -6.572238 31,025 138 451 0
2019-12-15 13:02:29 GMT 55.989807 -6.579396 31,025 138 451 0
2019-12-15 13:02:26 GMT 55.993263 -6.584845 31,025 138 451 0
2019-12-15 13:02:23 GMT 55.998058 -6.592484 31,025 138 452 0
2019-12-15 13:02:19 GMT 56.004482 -6.602612 31,025 138 452 0
2019-12-15 13:02:16 GMT 56.008850 -6.609442 31,050 138 452 0
2019-12-15 13:02:13 GMT 56.014492 -6.618319 31,050 138 452 -64
2019-12-15 13:02:08 GMT 56.021072 -6.628751 31,050 138 452 0
2019-12-15 13:02:05 GMT 56.025146 -6.635160 31,050 138 452 0
2019-12-15 13:02:02 GMT 56.030319 -6.643295 31,050 138 452 0
2019-12-15 13:01:59 GMT 56.036232 -6.652651 31,050 138 453 0
2019-12-15 13:01:55 GMT 56.040794 -6.659861 31,050 138 453 0
2019-12-15 13:01:52 GMT 56.045334 -6.667037 31,050 138 453 0
2019-12-15 13:01:49 GMT 56.051285 -6.676442 31,050 138 453 0
2019-12-15 13:01:46 GMT 56.056019 -6.683807 31,050 138 452 0
2019-12-15 13:01:42 GMT 56.066353 -6.700115 31,050 138 453 0
2019-12-15 13:01:39 GMT 56.071701 -6.708485 31,050 138 453 64
2019-12-15 13:01:36 GMT 56.071701 -6.708485 31,050 138 453 64
2019-12-15 13:01:33 GMT 56.076096 -6.715476 31,050 138 454 64
2019-12-15 13:01:30 GMT 56.081295 -6.723633 31,050 138 453 -64
2019-12-15 13:01:27 GMT 56.087395 -6.733246 31,050 138 453 -64
2019-12-15 13:01:24 GMT 56.090103 -6.737449 31,050 138 453 0
2019-12-15 13:01:20 GMT 56.096191 -6.747104 31,050 138 453 0
2019-12-15 13:01:17 GMT 56.100723 -6.754345 31,050 138 454 0
2019-12-15 13:01:14 GMT 56.105576 -6.762002 31,050 138 453 64
2019-12-15 13:01:11 GMT 56.109970 -6.768951 31,050 138 453 64
2019-12-15 13:01:08 GMT 56.115921 -6.778398 31,025 138 453 64
2019-12-15 13:01:05 GMT 56.122353 -6.788521 31,025 138 453 0
2019-12-15 13:01:01 GMT 56.125473 -6.793499 31,050 138 452 0
2019-12-15 13:00:58 GMT 56.130314 -6.801224 31,050 138 453 0
2019-12-15 13:00:55 GMT 56.135605 -6.809776 31,050 138 453 0
2019-12-15 13:00:51 GMT 56.140881 -6.818218 31,050 138 453 -64
2019-12-15 13:00:48 GMT 56.146957 -6.828003 31,050 138 454 -64
2019-12-15 13:00:45 GMT 56.151821 -6.835728 31,050 138 454 -128
2019-12-15 13:00:42 GMT 56.155243 -6.841236 31,050 138 453 -64
2019-12-15 13:00:39 GMT 56.160572 -6.849718 31,050 138 453 64
2019-12-15 13:00:36 GMT 56.164158 -6.855383 31,050 138 453 64
2019-12-15 13:00:30 GMT 56.174561 -6.872198 31,050 137 453 0
2019-12-15 13:00:27 GMT 56.180729 -6.882334 31,050 137 454 0
2019-12-15 13:00:24 GMT 56.183807 -6.887429 31,050 137 454 64
2019-12-15 13:00:21 GMT 56.187653 -6.893754 31,050 137 453 64
2019-12-15 13:00:17 GMT 56.194138 -6.904478 31,025 137 454 128
2019-12-15 13:00:14 GMT 56.198730 -6.912148 31,025 136 454 128
2019-12-15 13:00:11 GMT 56.203632 -6.920357 31,025 136 454 -64
2019-12-15 13:00:07 GMT 56.210384 -6.931772 31,025 136 455 -192
2019-12-15 13:00:04 GMT 56.214478 -6.938782 31,050 136 456 -448
2019-12-15 13:00:01 GMT 56.218918 -6.946356 31,075 135 457 -640
2019-12-15 12:59:57 GMT 56.225422 -6.957607 31,100 135 456 -960
2019-12-15 12:59:54 GMT 56.229656 -6.964989 31,175 135 457 -1152
2019-12-15 12:59:51 GMT 56.233101 -6.971083 31,500 135 458 -1152
2019-12-15 12:59:48 GMT 56.239105 -6.981812 31,325 134 458 -1152
2019-12-15 12:59:45 GMT 56.249210 -7.000093 31,375 134 458 -1216
2019-12-15 12:59:41 GMT 56.249210 -7.000093 31,425 134 458 -1152
2019-12-15 12:59:37 GMT 56.254486 -7.009943 31,550 133 458 -1024
2019-12-15 12:59:34 GMT 56.260380 -7.020864 31,550 133 459 -896
2019-12-15 12:59:31 GMT 56.264011 -7.027817 31,600 133 459 -896
2019-12-15 12:59:27 GMT 56.270096 -7.039407 31,650 132 460 -896
2019-12-15 12:59:24 GMT 56.273602 -7.046099 31,700 132 460 -960
2019-12-15 12:59:21 GMT 56.277794 -7.054253 31,775 131 462 -896
2019-12-15 12:59:18 GMT 56.282959 -7.064459 31,825 131 461 -896
2019-12-15 12:59:15 GMT 56.286484 -7.071616 31,825 131 461 -896
2019-12-15 12:59:12 GMT 56.290688 -7.080259 31,875 130 463 -896
2019-12-15 12:59:09 GMT 56.295807 -7.091074 32,050 129 466 -64
2019-12-15 12:59:06 GMT 56.298412 -7.096739 31,950 129 464 -704
2019-12-15 12:59:03 GMT 56.302505 -7.105574 32,000 129 464 -576
2019-12-15 12:59:00 GMT 56.307400 -7.116308 32,025 129 466 -192
2019-12-15 12:58:57 GMT 56.312195 -7.126780 32,025 129 466 -192
2019-12-15 12:58:54 GMT 56.315639 -7.134247 32,025 129 466 -128
2019-12-15 12:58:50 GMT 56.320816 -7.145608 32,050 129 467 -64
2019-12-15 12:58:46 GMT 56.326172 -7.157260 32,050 129 467 0
2019-12-15 12:58:43 GMT 56.330429 -7.166498 32,050 129 467 -64
2019-12-15 12:58:40 GMT 56.334538 -7.175531 32,050 129 467 0
2019-12-15 12:58:36 GMT 56.342220 -7.192268 32,050 129 466 128
2019-12-15 12:58:30 GMT 56.348923 -7.207031 32,025 129 467 64
2019-12-15 12:58:25 GMT 56.355164 -7.220850 32,025 129 466 0
2019-12-15 12:58:22 GMT 56.359268 -7.229836 32,025 129 467 0
2019-12-15 12:58:15 GMT 56.370243 -7.253809 32,050 129 467 0
2019-12-15 12:58:10 GMT 56.375977 -7.266457 32,050 129 467 -64
2019-12-15 12:58:07 GMT 56.381462 -7.278442 32,050 129 466 -64
2019-12-15 12:58:04 GMT 56.384071 -7.284107 32,050 129 466 -64
2019-12-15 12:57:59 GMT 56.395294 -7.308738 32,050 129 466 0
2019-12-15 12:57:56 GMT 56.395294 -7.308738 32,050 129 466 -64
2019-12-15 12:57:49 GMT 56.404320 -7.328482 32,050 129 466 64
2019-12-15 12:57:45 GMT 56.409767 -7.340584 32,050 129 466 64
2019-12-15 12:57:42 GMT 56.413956 -7.349854 32,050 129 466 64
2019-12-15 12:57:39 GMT 56.418045 -7.358926 32,025 129 466 64
2019-12-15 12:57:36 GMT 56.426239 -7.376903 32,025 129 466 0
2019-12-15 12:57:33 GMT 56.432144 -7.389887 32,025 129 466 64
2019-12-15 12:57:29 GMT 56.432144 -7.389887 32,025 129 466 64
2019-12-15 12:57:26 GMT 56.436768 -7.400064 32,025 129 466 64
2019-12-15 12:57:22 GMT 56.440887 -7.409113 32,025 129 467 64
2019-12-15 12:57:19 GMT 56.445648 -7.419600 32,025 129 466 64
2019-12-15 12:57:15 GMT 56.450268 -7.429848 32,025 129 466 64
2019-12-15 12:57:12 GMT 56.454346 -7.438909 32,025 129 466 0
2019-12-15 12:57:08 GMT 56.459812 -7.450962 32,025 129 466 64
2019-12-15 12:57:05 GMT 56.464142 -7.460632 32,025 129 466 0
2019-12-15 12:57:02 GMT 56.467957 -7.469072 32,025 129 466 -64
2019-12-15 12:56:59 GMT 56.472565 -7.479359 32,025 129 466 -64
2019-12-15 12:56:55 GMT 56.477734 -7.490873 32,050 129 466 -64
2019-12-15 12:56:52 GMT 56.481922 -7.500143 32,050 129 466 -64
2019-12-15 12:56:49 GMT 56.491562 -7.521557 32,050 129 465 -64
2019-12-15 12:56:45 GMT 56.491562 -7.521557 32,050 129 465 0
2019-12-15 12:56:42 GMT 56.494858 -7.528797 32,050 129 466 0
2019-12-15 12:56:38 GMT 56.506897 -7.555681 32,050 128 465 64
2019-12-15 12:56:34 GMT 56.512043 -7.567177 32,025 128 465 64
2019-12-15 12:56:28 GMT 56.514999 -7.573825 32,025 128 465 64
2019-12-15 12:56:25 GMT 56.522552 -7.590720 32,000 128 466 0
2019-12-15 12:56:17 GMT 56.529053 -7.605286 32,000 128 466 0
2019-12-15 12:56:13 GMT 56.535416 -7.619435 32,000 128 466 0
2019-12-15 12:56:08 GMT 56.541367 -7.632751 32,000 128 465 0
2019-12-15 12:56:02 GMT 56.550121 -7.652493 32,000 128 466 0
2019-12-15 12:55:58 GMT 56.554592 -7.662449 32,000 128 465 -64
2019-12-15 12:55:54 GMT 56.587875 -7.737379 32,000 128 466 0
2019-12-15 12:55:34 GMT 56.587875 -7.737379 32,000 128 466 0
2019-12-15 12:55:30 GMT 56.593369 -7.749880 32,000 128 466 0
2019-12-15 12:55:27 GMT 56.595932 -7.755661 32,025 128 465 0
2019-12-15 12:55:22 GMT 56.604126 -7.774200 32,025 128 465 0
2019-12-15 12:55:17 GMT 56.610168 -7.787848 32,000 128 465 0
2019-12-15 12:55:14 GMT 56.614334 -7.797289 32,025 128 465 0
2019-12-15 12:55:11 GMT 56.617676 -7.804842 32,025 128 465 0
2019-12-15 12:55:08 GMT 56.622791 -7.816329 32,025 128 465 0
2019-12-15 12:55:04 GMT 56.628887 -7.829974 32,025 128 464 0
2019-12-15 12:54:57 GMT 56.637726 -7.849989 32,025 128 464 0
2019-12-15 12:54:54 GMT 56.640701 -7.856684 32,025 128 464 0
2019-12-15 12:54:51 GMT 56.645416 -7.867241 32,025 128 464 0
2019-12-15 12:54:47 GMT 56.650085 -7.877884 32,025 128 464 0
2019-12-15 12:54:44 GMT 56.654022 -7.886639 32,000 128 464 64
2019-12-15 12:54:41 GMT 56.658867 -7.897575 32,000 129 464 64
2019-12-15 12:54:36 GMT 56.665852 -7.913257 32,000 129 464 64
2019-12-15 12:54:31 GMT 56.672928 -7.928939 32,000 129 464 64
2019-12-15 12:54:26 GMT 56.678467 -7.941343 32,000 129 464 64
2019-12-15 12:54:23 GMT 56.683727 -7.953038 32,000 129 464 0
2019-12-15 12:54:20 GMT 56.686707 -7.959681 32,000 129 464 0
2019-12-15 12:54:16 GMT 56.691875 -7.971113 32,000 129 464 0
2019-12-15 12:54:11 GMT 56.699890 -7.988863 32,000 129 463 -64
2019-12-15 12:54:06 GMT 56.705750 -8.001738 32,000 129 463 -64
2019-12-15 12:54:03 GMT 56.710354 -8.011957 32,000 129 462 -64
2019-12-15 12:54:00 GMT 56.714314 -8.020551 32,000 130 461 128
2019-12-15 12:53:56 GMT 56.719341 -8.031626 32,000 129 462 -64
2019-12-15 12:53:52 GMT 56.725479 -8.045082 32,000 129 462 0
2019-12-15 12:53:47 GMT 56.732208 -8.059673 32,000 130 461 -64
2019-12-15 12:53:40 GMT 56.742279 -8.081217 32,025 130 461 -64
2019-12-15 12:53:36 GMT 56.747406 -8.092117 32,025 130 461 -64
2019-12-15 12:53:32 GMT 56.752159 -8.102063 32,025 131 460 -128
2019-12-15 12:53:26 GMT 56.761375 -8.121289 32,025 131 460 64
2019-12-15 12:53:23 GMT 56.765984 -8.130857 32,025 131 460 192
2019-12-15 12:53:16 GMT 56.775055 -8.149881 32,000 130 461 128
2019-12-15 12:53:13 GMT 56.780411 -8.161383 32,000 129 460 64
2019-12-15 12:53:09 GMT 56.784466 -8.170373 32,000 130 459 -64
2019-12-15 12:53:06 GMT 56.788654 -8.179587 32,000 130 458 -64
2019-12-15 12:53:02 GMT 56.794601 -8.192196 32,000 133 458 0
2019-12-15 12:52:55 GMT 56.804531 -8.210774 32,000 136 457 0
2019-12-15 12:52:51 GMT 56.811188 -8.222026 32,000 138 456 192
2019-12-15 12:52:46 GMT 56.819286 -8.234342 31,975 142 455 192
2019-12-15 12:52:42 GMT 56.836487 -8.254938 32,000 151 451 -192
2019-12-15 12:52:36 GMT 56.848755 -8.264809 32,000 157 449 -320
2019-12-15 12:52:30 GMT 56.848755 -8.264809 32,025 162 450 0
2019-12-15 12:52:25 GMT 56.856903 -8.269701 32,025 163 453 128
2019-12-15 12:52:20 GMT 56.868542 -8.275895 32,025 163 453 128
2019-12-15 12:52:15 GMT 56.877338 -8.280590 32,025 163 452 64
2019-12-15 12:52:09 GMT 56.889816 -8.287125 32,000 163 452 128
2019-12-15 12:52:06 GMT 56.896843 -8.290779 32,000 163 453 128
2019-12-15 12:52:01 GMT 56.905655 -8.295536 32,000 163 452 -64
2019-12-15 12:51:55 GMT 56.917046 -8.301677 32,000 163 452 -128
2019-12-15 12:51:49 GMT 56.932480 -8.309870 32,025 163 452 64
2019-12-15 12:51:46 GMT 56.936459 -8.312043 32,025 163 451 0
2019-12-15 12:51:41 GMT 56.952667 -8.320684 32,000 163 451 -64
2019-12-15 12:51:38 GMT 56.952667 -8.320684 32,000 163 451 -64
2019-12-15 12:51:35 GMT 56.956879 -8.322916 32,000 163 451 0
2019-12-15 12:51:28 GMT 56.972260 -8.331358 32,025 163 450 -64
2019-12-15 12:51:25 GMT 56.977432 -8.334160 32,025 163 450 -64
2019-12-15 12:51:17 GMT 56.994137 -8.343407 32,025 162 450 -64
2019-12-15 12:51:14 GMT 56.998901 -8.346090 32,025 162 451 -64
2019-12-15 12:51:08 GMT 57.011036 -8.352976 32,025 162 450 64
2019-12-15 12:51:05 GMT 57.017551 -8.356786 32,025 162 450 128
2019-12-15 12:50:58 GMT 57.031265 -8.364544 32,000 164 447 0
2019-12-15 12:50:55 GMT 57.037445 -8.367805 32,000 166 447 -64
2019-12-15 12:50:49 GMT 57.050766 -8.373384 32,025 173 446 64
2019-12-15 12:50:44 GMT 57.058891 -8.375923 32,025 172 445 64
2019-12-15 12:50:35 GMT 57.078552 -8.380165 32,000 175 444 0
2019-12-15 12:50:24 GMT 57.099701 -8.381710 32,000 182 443 0
2019-12-15 12:50:14 GMT 57.121170 -8.378620 32,000 190 442 0
2019-12-15 12:50:04 GMT 57.140259 -8.371840 32,000 196 441 0
2019-12-15 12:49:54 GMT 57.159725 -8.360596 32,000 203 440 0
2019-12-15 12:49:44 GMT 57.179031 -8.344631 32,000 209 440 64
2019-12-15 12:49:31 GMT 57.201828 -8.318539 32,000 217 440 -64
2019-12-15 12:49:22 GMT 57.215122 -8.298842 32,000 224 440 0
2019-12-15 12:49:17 GMT 57.223362 -8.284312 32,000 231 440 0
2019-12-15 12:49:14 GMT 57.227280 -8.276739 32,000 230 439 0
2019-12-15 12:49:08 GMT 57.235325 -8.259415 32,000 234 440 0
2019-12-15 12:49:04 GMT 57.240463 -8.246870 32,000 236 440 0
2019-12-15 12:48:57 GMT 57.248451 -8.224684 32,000 239 440 0
2019-12-15 12:48:54 GMT 57.251312 -8.215628 32,000 243 440 0
2019-12-15 12:48:47 GMT 57.257671 -8.192523 32,000 247 441 0
2019-12-15 12:48:42 GMT 57.261349 -8.176663 32,000 250 440 0
2019-12-15 12:48:37 GMT 57.265305 -8.156197 32,000 254 440 0
2019-12-15 12:48:29 GMT 57.269531 -8.127651 32,000 261 441 0
2019-12-15 12:48:23 GMT 57.271545 -8.107738 32,000 263 441 0
2019-12-15 12:48:13 GMT 57.273514 -8.069973 32,000 269 441 0
2019-12-15 12:48:03 GMT 57.273102 -8.030577 32,000 277 441 0
2019-12-15 12:47:53 GMT 57.270264 -7.993841 32,000 283 442 0
2019-12-15 12:47:43 GMT 57.264999 -7.956762 32,000 290 442 0
2019-12-15 12:47:32 GMT 57.257355 -7.921400 32,000 297 443 -64
2019-12-15 12:47:23 GMT 57.247707 -7.888981 32,025 304 443 -64
2019-12-15 12:47:18 GMT 57.242260 -7.873830 32,025 305 443 0
2019-12-15 12:47:10 GMT 57.232910 -7.848616 32,025 305 442 0
2019-12-15 12:47:00 GMT 57.222012 -7.819430 32,000 305 442 0
2019-12-15 12:46:51 GMT 57.209953 -7.787180 32,000 305 442 0
2019-12-15 12:46:40 GMT 57.198349 -7.756262 32,000 305 441 -64
2019-12-15 12:46:31 GMT 57.188644 -7.730341 32,025 305 441 0
2019-12-15 12:46:20 GMT 57.174900 -7.693708 32,025 305 439 0
2019-12-15 12:46:10 GMT 57.163147 -7.662363 32,000 305 439 0
2019-12-15 12:45:59 GMT 57.151390 -7.630979 32,000 305 439 64
2019-12-15 12:45:50 GMT 57.140171 -7.601299 32,000 305 439 0
2019-12-15 12:45:39 GMT 57.128403 -7.570009 32,000 305 439 64
2019-12-15 12:45:30 GMT 57.116150 -7.537596 32,000 305 439 -64
2019-12-15 12:45:19 GMT 57.101715 -7.499371 32,000 305 439 0
2019-12-15 12:45:09 GMT 57.093384 -7.477312 32,000 305 438 -64
2019-12-15 12:45:05 GMT 57.089104 -7.466007 32,000 305 438 -64
2019-12-15 12:44:58 GMT 57.080200 -7.442551 32,000 305 439 0
2019-12-15 12:44:54 GMT 57.076488 -7.432783 32,000 305 439 64
2019-12-15 12:44:48 GMT 57.068623 -7.411962 32,000 305 439 64
2019-12-15 12:44:45 GMT 57.063782 -7.399115 32,000 305 439 64
2019-12-15 12:44:40 GMT 57.059692 -7.388477 32,000 305 439 0
2019-12-15 12:44:37 GMT 57.056808 -7.380838 32,000 305 439 0
2019-12-15 12:44:33 GMT 57.052189 -7.368548 32,000 305 440 -64
2019-12-15 12:44:30 GMT 57.048370 -7.358536 32,000 305 440 0
2019-12-15 12:44:27 GMT 57.044739 -7.349056 32,000 305 440 0
2019-12-15 12:44:24 GMT 57.041245 -7.339897 32,000 305 440 -64
2019-12-15 12:44:19 GMT 57.034653 -7.322474 32,000 305 440 0
2019-12-15 12:44:16 GMT 57.032181 -7.316036 32,000 305 440 0
2019-12-15 12:44:13 GMT 57.027794 -7.304491 32,000 305 440 0
2019-12-15 12:44:08 GMT 57.022293 -7.290115 32,000 306 440 0
2019-12-15 12:44:04 GMT 57.017303 -7.276983 32,000 306 440 0
2019-12-15 12:44:00 GMT 57.013363 -7.266659 32,000 305 440 0
2019-12-15 12:43:56 GMT 57.008385 -7.253546 32,000 306 440 0
2019-12-15 12:43:53 GMT 57.005356 -7.245569 32,000 306 440 0
2019-12-15 12:43:50 GMT 57.001236 -7.234926 32,000 306 440 0
2019-12-15 12:43:47 GMT 56.994232 -7.216644 32,000 306 440 -64
2019-12-15 12:43:44 GMT 56.994232 -7.216644 32,000 305 440 -64
2019-12-15 12:43:38 GMT 56.987503 -7.198963 32,000 305 440 0
2019-12-15 12:43:33 GMT 56.981689 -7.183771 32,000 305 440 0
2019-12-15 12:43:27 GMT 56.971573 -7.157249 32,000 306 440 0
2019-12-15 12:43:19 GMT 56.962109 -7.132519 32,000 306 441 0
2019-12-15 12:43:07 GMT 56.951752 -7.105751 32,000 306 441 -64
2019-12-15 12:43:03 GMT 56.946003 -7.090877 32,000 306 441 -64
2019-12-15 12:42:58 GMT 56.939621 -7.074423 32,025 306 442 0
2019-12-15 12:42:51 GMT 56.931931 -7.054682 32,025 306 443 64
2019-12-15 12:42:47 GMT 56.927662 -7.043654 32,000 306 443 64
2019-12-15 12:42:43 GMT 56.923332 -7.032402 32,000 306 443 64
2019-12-15 12:42:39 GMT 56.918610 -7.020178 32,000 306 443 64
2019-12-15 12:42:36 GMT 56.913757 -7.007647 32,000 306 444 64
2019-12-15 12:42:32 GMT 56.910141 -6.998119 32,000 306 444 64
2019-12-15 12:42:29 GMT 56.906479 -6.988592 32,000 306 444 64
2019-12-15 12:42:26 GMT 56.903408 -6.980660 32,000 306 445 64
2019-12-15 12:42:23 GMT 56.898926 -6.969023 32,000 306 444 0
2019-12-15 12:42:19 GMT 56.894806 -6.958294 32,000 306 444 0
2019-12-15 12:42:15 GMT 56.889908 -6.945677 32,000 306 445 0
2019-12-15 12:42:12 GMT 56.886978 -6.938038 32,000 306 446 0
2019-12-15 12:42:09 GMT 56.882584 -6.926708 32,000 306 446 0
2019-12-15 12:42:05 GMT 56.877686 -6.914177 32,000 306 446 64
2019-12-15 12:42:02 GMT 56.874939 -6.907139 32,000 306 447 64
2019-12-15 12:41:58 GMT 56.870403 -6.895427 32,000 306 448 64
2019-12-15 12:41:54 GMT 56.865234 -6.882137 32,000 306 449 -64
2019-12-15 12:41:51 GMT 56.861511 -6.872657 32,000 306 450 -64
2019-12-15 12:41:48 GMT 56.858414 -6.864567 32,000 306 451 -64
2019-12-15 12:41:45 GMT 56.849899 -6.842508 32,000 306 452 0
2019-12-15 12:41:36 GMT 56.843491 -6.825943 32,000 306 455 0
2019-12-15 12:41:32 GMT 56.838001 -6.811966 32,000 306 455 0
2019-12-15 12:41:26 GMT 56.830948 -6.793756 32,000 306 458 -64
2019-12-15 12:41:22 GMT 56.826416 -6.782169 32,000 306 458 -64
2019-12-15 12:41:18 GMT 56.821663 -6.769882 32,000 306 459 -64
2019-12-15 12:41:15 GMT 56.816868 -6.757566 32,000 306 458 0
2019-12-15 12:41:11 GMT 56.813187 -6.748095 32,025 306 458 0
2019-12-15 12:41:08 GMT 56.809509 -6.738695 32,000 306 459 64
2019-12-15 12:41:04 GMT 56.803482 -6.723289 32,000 306 459 64
2019-12-15 12:41:01 GMT 56.801041 -6.716988 32,000 306 459 0
2019-12-15 12:40:58 GMT 56.796844 -6.706295 32,000 306 459 0
2019-12-15 12:40:55 GMT 56.792999 -6.696510 32,000 306 459 0
2019-12-15 12:40:52 GMT 56.783432 -6.671963 32,000 306 459 0
2019-12-15 12:40:47 GMT 56.779484 -6.661879 32,000 306 459 0
2019-12-15 12:40:44 GMT 56.779484 -6.661879 32,000 306 459 0
2019-12-15 12:40:41 GMT 56.775787 -6.652479 32,000 306 459 0
2019-12-15 12:40:38 GMT 56.771709 -6.642121 32,000 306 459 0
2019-12-15 12:40:35 GMT 56.768600 -6.634283 32,000 306 459 0
2019-12-15 12:40:31 GMT 56.764069 -6.622610 32,000 306 460 0
2019-12-15 12:40:26 GMT 56.756535 -6.603492 32,000 306 460 0
2019-12-15 12:40:22 GMT 56.751228 -6.590025 32,000 306 459 64
2019-12-15 12:40:18 GMT 56.746902 -6.579008 32,000 306 459 0
2019-12-15 12:40:14 GMT 56.741962 -6.566457 32,000 306 459 64
2019-12-15 12:40:11 GMT 56.738663 -6.557980 32,000 306 459 64
2019-12-15 12:40:07 GMT 56.734097 -6.546345 32,000 306 460 -64
2019-12-15 12:40:04 GMT 56.729767 -6.535359 32,000 306 459 0
2019-12-15 12:40:01 GMT 56.726028 -6.525965 32,000 306 460 -64
2019-12-15 12:39:57 GMT 56.722088 -6.515956 32,000 306 460 0
2019-12-15 12:39:53 GMT 56.714767 -6.497469 32,000 306 459 -64
2019-12-15 12:39:46 GMT 56.707516 -6.479010 32,000 306 460 0
2019-12-15 12:39:43 GMT 56.703930 -6.469884 32,000 306 459 0
2019-12-15 12:39:40 GMT 56.700813 -6.461999 32,000 306 460 64
2019-12-15 12:39:37 GMT 56.696484 -6.451101 32,000 306 459 0
2019-12-15 12:39:34 GMT 56.693409 -6.443216 32,000 306 459 0
2019-12-15 12:39:30 GMT 56.688721 -6.431379 32,025 306 459 -64
2019-12-15 12:39:25 GMT 56.681400 -6.412915 32,025 306 459 0
2019-12-15 12:39:20 GMT 56.675163 -6.397321 32,025 306 459 0
2019-12-15 12:39:17 GMT 56.672058 -6.389494 32,025 306 459 0
2019-12-15 12:39:13 GMT 56.663292 -6.367375 32,025 306 459 0
2019-12-15 12:39:10 GMT 56.659195 -6.357097 32,025 306 459 0
2019-12-15 12:39:07 GMT 56.659195 -6.357097 32,025 306 459 64
2019-12-15 12:39:03 GMT 56.653004 -6.341504 32,025 306 458 64
2019-12-15 12:39:00 GMT 56.649078 -6.331472 32,000 306 458 64
2019-12-15 12:38:54 GMT 56.643414 -6.317139 32,000 306 458 0
2019-12-15 12:38:51 GMT 56.640060 -6.308633 32,000 306 459 0
2019-12-15 12:38:48 GMT 56.636353 -6.299286 32,000 306 458 0
2019-12-15 12:38:45 GMT 56.631916 -6.288078 32,000 306 459 0
2019-12-15 12:38:42 GMT 56.627308 -6.276560 32,000 306 458 0
2019-12-15 12:38:36 GMT 56.620972 -6.260748 32,000 306 458 0
2019-12-15 12:38:32 GMT 56.613201 -6.241120 32,000 306 457 0
2019-12-15 12:38:26 GMT 56.609207 -6.231222 32,000 306 457 -64
2019-12-15 12:38:22 GMT 56.603897 -6.217833 32,025 306 457 -64
2019-12-15 12:38:19 GMT 56.596581 -6.199567 32,025 306 457 0
2019-12-15 12:38:13 GMT 56.592636 -6.189631 32,025 306 458 0
2019-12-15 12:38:09 GMT 56.588058 -6.178145 32,025 306 458 0
2019-12-15 12:38:06 GMT 56.584339 -6.168823 32,025 307 457 0
2019-12-15 12:38:02 GMT 56.578659 -6.154575 32,025 307 457 0
2019-12-15 12:37:59 GMT 56.574051 -6.143105 32,000 306 456 64
2019-12-15 12:37:56 GMT 56.571945 -6.137862 32,000 306 456 64
2019-12-15 12:37:52 GMT 56.567368 -6.126459 32,000 306 456 0
2019-12-15 12:37:49 GMT 56.563019 -6.115639 32,000 306 456 0
2019-12-15 12:37:46 GMT 56.559219 -6.106068 32,000 306 456 -64
2019-12-15 12:37:43 GMT 56.555477 -6.096725 32,025 306 456 0
2019-12-15 12:37:39 GMT 56.550201 -6.083513 32,025 306 456 0
2019-12-15 12:37:35 GMT 56.546356 -6.073941 32,025 306 456 0
2019-12-15 12:37:31 GMT 56.540672 -6.059732 32,025 307 456 0
2019-12-15 12:37:28 GMT 56.534088 -6.043479 32,025 307 455 0
2019-12-15 12:37:21 GMT 56.528275 -6.028997 32,025 307 455 0
2019-12-15 12:37:18 GMT 56.525162 -6.021257 32,025 307 455 0
2019-12-15 12:37:15 GMT 56.521679 -6.012697 31,975 307 452 0
2019-12-15 12:37:11 GMT 56.515862 -5.998278 32,025 307 455 0
2019-12-15 12:37:08 GMT 56.512508 -5.989952 32,025 307 455 0
2019-12-15 12:37:05 GMT 56.508820 -5.980807 32,000 307 455 0
2019-12-15 12:37:01 GMT 56.503326 -5.967324 32,000 307 455 64
2019-12-15 12:36:58 GMT 56.499752 -5.958366 32,000 307 455 64
2019-12-15 12:36:55 GMT 56.496449 -5.950127 32,000 307 455 64
2019-12-15 12:36:51 GMT 56.491104 -5.936862 32,000 306 454 64
2019-12-15 12:36:48 GMT 56.487534 -5.928040 32,000 306 454 64
2019-12-15 12:36:45 GMT 56.483833 -5.918798 32,000 306 454 64
2019-12-15 12:36:41 GMT 56.479038 -5.906868 32,000 306 454 64
2019-12-15 12:36:38 GMT 56.475731 -5.898542 32,000 307 454 64
2019-12-15 12:36:35 GMT 56.471741 -5.888755 32,000 307 453 0
2019-12-15 12:36:31 GMT 56.466560 -5.875883 31,975 307 453 0
2019-12-15 12:36:28 GMT 56.462402 -5.865534 31,975 307 453 64
2019-12-15 12:36:25 GMT 56.459290 -5.857877 31,975 307 453 64
2019-12-15 12:36:22 GMT 56.454365 -5.845671 31,975 307 453 -64
2019-12-15 12:36:19 GMT 56.450500 -5.836229 32,000 307 453 -128
2019-12-15 12:36:15 GMT 56.446793 -5.827082 32,000 307 452 -64
2019-12-15 12:36:11 GMT 56.441750 -5.814600 32,000 307 452 -64
2019-12-15 12:36:08 GMT 56.437042 -5.803028 32,000 307 452 0
2019-12-15 12:36:05 GMT 56.434067 -5.795803 32,000 307 452 0
2019-12-15 12:36:00 GMT 56.428116 -5.781139 32,000 307 452 0
2019-12-15 12:35:57 GMT 56.424545 -5.772400 32,000 307 452 0
2019-12-15 12:35:54 GMT 56.420929 -5.763578 32,000 307 452 -64
2019-12-15 12:35:50 GMT 56.415482 -5.750178 32,000 307 452 -64
2019-12-15 12:35:47 GMT 56.411911 -5.741355 32,000 307 452 -64
2019-12-15 12:35:44 GMT 56.407951 -5.731688 32,000 307 452 -64
2019-12-15 12:35:41 GMT 56.402985 -5.719549 32,000 307 452 -64
2019-12-15 12:35:37 GMT 56.399525 -5.711002 32,000 307 452 -64
2019-12-15 12:35:34 GMT 56.392365 -5.693415 32,000 307 453 -64
2019-12-15 12:35:31 GMT 56.389423 -5.686111 32,000 307 453 -64
2019-12-15 12:35:25 GMT 56.384583 -5.674353 32,025 307 452 0
2019-12-15 12:35:22 GMT 56.380764 -5.664911 32,025 307 452 0
2019-12-15 12:35:19 GMT 56.377029 -5.655878 32,025 307 452 0
2019-12-15 12:35:16 GMT 56.374420 -5.649553 32,025 307 452 0
2019-12-15 12:35:13 GMT 56.369919 -5.638647 32,000 307 452 64
2019-12-15 12:35:10 GMT 56.365589 -5.628090 32,000 307 452 64
2019-12-15 12:35:07 GMT 56.362984 -5.621738 32,000 307 452 64
2019-12-15 12:35:04 GMT 56.358765 -5.611434 32,000 307 453 64
2019-12-15 12:35:01 GMT 56.354919 -5.602029 32,000 307 453 64
2019-12-15 12:34:58 GMT 56.350571 -5.591458 32,000 307 452 64
2019-12-15 12:34:55 GMT 56.347000 -5.582636 32,000 307 453 64
2019-12-15 12:34:52 GMT 56.340450 -5.566549 32,000 307 452 0
2019-12-15 12:34:49 GMT 56.340450 -5.566549 32,000 307 452 -64
2019-12-15 12:34:46 GMT 56.336746 -5.557417 32,000 307 452 -64
2019-12-15 12:34:43 GMT 56.333515 -5.549555 32,000 307 452 -64
2019-12-15 12:34:40 GMT 56.329185 -5.538912 32,000 307 453 -64
2019-12-15 12:34:37 GMT 56.325600 -5.530157 32,000 307 453 -64
2019-12-15 12:34:34 GMT 56.321503 -5.520115 32,000 307 453 -64
2019-12-15 12:34:31 GMT 56.317062 -5.509144 32,000 307 453 0
2019-12-15 12:34:27 GMT 56.312714 -5.498574 32,025 307 453 -64
2019-12-15 12:34:24 GMT 56.309143 -5.489752 32,025 307 453 0
2019-12-15 12:34:20 GMT 56.303627 -5.476513 32,025 307 453 0
2019-12-15 12:34:17 GMT 56.300510 -5.468960 32,025 307 453 0
2019-12-15 12:34:13 GMT 56.296413 -5.459003 32,025 307 454 0
2019-12-15 12:34:10 GMT 56.292271 -5.448961 32,025 307 454 0
2019-12-15 12:34:07 GMT 56.287800 -5.438061 32,000 307 454 64
2019-12-15 12:34:03 GMT 56.283798 -5.428362 32,000 307 454 64
2019-12-15 12:33:59 GMT 56.277885 -5.413771 32,000 307 454 64
2019-12-15 12:33:53 GMT 56.271286 -5.397700 32,000 307 454 64
2019-12-15 12:33:50 GMT 56.267086 -5.387335 32,000 307 455 0
2019-12-15 12:33:46 GMT 56.260941 -5.372572 32,000 307 455 0
2019-12-15 12:33:43 GMT 56.258286 -5.366220 32,000 307 455 -64
2019-12-15 12:33:40 GMT 56.253864 -5.355577 32,025 307 456 -64
2019-12-15 12:33:37 GMT 56.250092 -5.346513 32,000 307 455 -64
2019-12-15 12:33:33 GMT 56.246090 -5.336866 32,025 307 456 -64
2019-12-15 12:33:29 GMT 56.239944 -5.322018 32,025 307 456 -64
2019-12-15 12:33:26 GMT 56.237289 -5.315666 32,025 307 455 -64
2019-12-15 12:33:23 GMT 56.233425 -5.306311 32,025 307 455 -64
2019-12-15 12:33:20 GMT 56.229004 -5.295668 32,025 307 455 0
2019-12-15 12:33:16 GMT 56.224503 -5.284840 32,025 307 455 0
2019-12-15 12:33:13 GMT 56.220612 -5.275435 32,025 307 455 0
2019-12-15 12:33:08 GMT 56.211037 -5.252495 32,025 307 455 0
2019-12-15 12:33:02 GMT 56.207127 -5.243139 32,025 307 455 64
2019-12-15 12:32:59 GMT 56.198822 -5.223167 32,000 307 456 128
2019-12-15 12:32:56 GMT 56.198822 -5.223167 32,000 307 456 128
2019-12-15 12:32:52 GMT 56.194790 -5.213528 32,000 307 456 128
2019-12-15 12:32:48 GMT 56.184643 -5.188980 31,975 307 456 64
2019-12-15 12:32:45 GMT 56.184643 -5.188980 32,000 307 456 0
2019-12-15 12:32:42 GMT 56.177490 -5.171731 32,000 307 456 -64
2019-12-15 12:32:39 GMT 56.177490 -5.171731 32,000 307 456 -64
2019-12-15 12:32:36 GMT 56.173748 -5.162630 32,000 307 456 -64
2019-12-15 12:32:32 GMT 56.167603 -5.147781 32,000 307 455 -64
2019-12-15 12:32:28 GMT 56.164581 -5.140520 32,000 307 456 -64
2019-12-15 12:32:25 GMT 56.160461 -5.130532 32,000 307 455 -64
2019-12-15 12:32:22 GMT 56.157074 -5.122375 32,000 307 455 -64
2019-12-15 12:32:19 GMT 56.148743 -5.102484 32,025 308 455 -64
2019-12-15 12:32:16 GMT 56.148743 -5.102484 32,025 308 455 -64
2019-12-15 12:32:13 GMT 56.144806 -5.093162 32,025 308 456 -64
2019-12-15 12:32:10 GMT 56.140869 -5.083840 32,025 308 456 64
2019-12-15 12:32:06 GMT 56.135483 -5.071306 32,025 308 456 64
2019-12-15 12:32:02 GMT 56.125305 -5.047302 32,000 308 456 128
2019-12-15 12:31:58 GMT 56.125305 -5.047302 32,000 308 456 64
2019-12-15 12:31:55 GMT 56.122494 -5.040665 32,000 307 457 64
2019-12-15 12:31:52 GMT 56.118584 -5.031309 32,000 307 456 0
2019-12-15 12:31:49 GMT 56.113037 -5.018089 32,000 307 456 0
2019-12-15 12:31:45 GMT 56.109879 -5.010515 31,975 307 456 0
2019-12-15 12:31:42 GMT 56.105713 -5.000527 31,975 307 456 0
2019-12-15 12:31:37 GMT 56.098434 -4.982966 32,000 307 457 0
2019-12-15 12:31:34 GMT 56.095001 -4.974809 32,000 307 457 0
2019-12-15 12:31:31 GMT 56.092484 -4.968817 32,000 307 457 0
2019-12-15 12:31:27 GMT 56.085892 -4.953086 32,000 307 457 -64
2019-12-15 12:31:24 GMT 56.082733 -4.945512 32,000 307 457 -64
2019-12-15 12:31:21 GMT 56.080086 -4.939213 32,000 307 457 0
2019-12-15 12:31:18 GMT 56.075134 -4.927368 32,000 307 457 0
2019-12-15 12:31:15 GMT 56.070969 -4.917464 32,000 307 458 0
2019-12-15 12:31:11 GMT 56.066631 -4.907112 32,025 307 458 0
2019-12-15 12:31:08 GMT 56.062206 -4.896555 32,025 307 458 -64
2019-12-15 12:31:05 GMT 56.059044 -4.889002 32,025 307 458 0
2019-12-15 12:31:02 GMT 56.053875 -4.876556 32,025 307 458 0
2019-12-15 12:30:59 GMT 56.051468 -4.870855 32,025 307 458 64
2019-12-15 12:30:56 GMT 56.047165 -4.860618 32,000 307 458 64
2019-12-15 12:30:53 GMT 56.040562 -4.844885 32,000 307 458 128
2019-12-15 12:30:50 GMT 56.036270 -4.834567 32,000 307 458 64
2019-12-15 12:30:47 GMT 56.036270 -4.834567 32,000 307 458 64
2019-12-15 12:30:44 GMT 56.032837 -4.826410 32,000 307 458 0
2019-12-15 12:30:41 GMT 56.026642 -4.811583 32,000 307 459 0
2019-12-15 12:30:37 GMT 56.023041 -4.803106 32,000 307 459 0
2019-12-15 12:30:34 GMT 56.018726 -4.792871 32,000 308 458 64
2019-12-15 12:30:28 GMT 56.011841 -4.776564 32,025 307 459 0
2019-12-15 12:30:25 GMT 56.008438 -4.768324 32,025 307 459 -64
2019-12-15 12:30:22 GMT 56.003860 -4.757413 32,025 307 459 -64
2019-12-15 12:30:17 GMT 55.994202 -4.734442 32,025 308 459 -128
2019-12-15 12:30:11 GMT 55.990723 -4.726285 32,025 308 459 -64
2019-12-15 12:30:07 GMT 55.985489 -4.713907 32,025 308 459 -64
2019-12-15 12:30:04 GMT 55.981487 -4.704552 32,025 308 458 -64
2019-12-15 12:30:01 GMT 55.977676 -4.695573 32,025 308 458 -64
2019-12-15 12:29:57 GMT 55.971863 -4.682090 32,025 308 458 64
2019-12-15 12:29:54 GMT 55.963623 -4.662864 32,025 308 458 128
2019-12-15 12:29:50 GMT 55.957977 -4.649706 32,000 308 458 64
2019-12-15 12:29:46 GMT 55.953094 -4.638311 32,000 308 458 64
2019-12-15 12:29:43 GMT 55.953094 -4.638311 32,000 308 458 64
2019-12-15 12:29:37 GMT 55.946571 -4.623098 32,000 308 457 64
2019-12-15 12:29:34 GMT 55.942848 -4.614429 32,000 308 456 0
2019-12-15 12:29:31 GMT 55.938614 -4.604559 32,000 308 457 0
2019-12-15 12:29:27 GMT 55.933502 -4.592535 32,000 307 457 -64
2019-12-15 12:29:24 GMT 55.929211 -4.582415 32,000 307 456 -64
2019-12-15 12:29:21 GMT 55.926044 -4.574862 32,000 307 455 -128
2019-12-15 12:29:17 GMT 55.920731 -4.562322 32,000 308 454 -128
2019-12-15 12:29:14 GMT 55.916565 -4.552418 32,000 308 454 0
2019-12-15 12:29:11 GMT 55.913288 -4.544735 32,000 308 454 0
2019-12-15 12:29:07 GMT 55.904022 -4.523535 31,975 309 454 64
2019-12-15 12:29:04 GMT 55.904022 -4.523535 31,975 309 453 0
2019-12-15 12:29:01 GMT 55.901508 -4.517956 31,975 309 454 0
2019-12-15 12:28:58 GMT 55.896297 -4.506283 32,000 309 454 -64
2019-12-15 12:28:55 GMT 55.892349 -4.497570 32,000 309 454 -64
2019-12-15 12:28:52 GMT 55.889740 -4.491744 32,000 309 454 0
2019-12-15 12:28:49 GMT 55.884983 -4.481306 32,000 310 454 64
2019-12-15 12:28:46 GMT 55.879028 -4.468273 32,025 310 454 0
2019-12-15 12:28:43 GMT 55.877022 -4.463968 32,025 310 454 0
2019-12-15 12:28:40 GMT 55.871391 -4.451952 32,025 311 454 64
2019-12-15 12:28:36 GMT 55.867310 -4.443387 32,025 314 455 0
2019-12-15 12:28:33 GMT 55.863197 -4.434958 32,025 312 455 0
2019-12-15 12:28:30 GMT 55.859287 -4.427061 32,000 312 455 0
2019-12-15 12:28:26 GMT 55.849140 -4.407148 32,000 313 455 0
2019-12-15 12:28:23 GMT 55.845703 -4.400607 32,000 314 455 -64
2019-12-15 12:28:20 GMT 55.840431 -4.390926 32,000 314 455 -64
2019-12-15 12:28:17 GMT 55.840431 -4.390926 32,000 315 455 0
2019-12-15 12:28:14 GMT 55.836044 -4.382879 32,000 315 456 0
2019-12-15 12:28:11 GMT 55.831192 -4.374057 32,000 315 455 0
2019-12-15 12:28:08 GMT 55.826794 -4.366035 32,000 315 455 0
2019-12-15 12:28:05 GMT 55.822788 -4.358912 32,000 315 455 0
2019-12-15 12:28:02 GMT 55.818832 -4.351668 32,000 315 454 -64
2019-12-15 12:27:58 GMT 55.812103 -4.339433 32,025 315 454 -64
2019-12-15 12:27:55 GMT 55.807659 -4.331446 32,025 315 454 -64
2019-12-15 12:27:52 GMT 55.803982 -4.324751 32,025 315 454 -64
2019-12-15 12:27:49 GMT 55.799606 -4.316795 32,025 315 454 -64
2019-12-15 12:27:46 GMT 55.795349 -4.309054 32,025 315 454 0
2019-12-15 12:27:43 GMT 55.790344 -4.300032 32,025 315 453 -64
2019-12-15 12:27:40 GMT 55.785965 -4.292075 32,025 315 453 -64
2019-12-15 12:27:36 GMT 55.780102 -4.281492 32,025 315 453 0
2019-12-15 12:27:33 GMT 55.774982 -4.272137 32,025 315 453 0
2019-12-15 12:27:29 GMT 55.766052 -4.255954 32,025 315 452 0
2019-12-15 12:27:26 GMT 55.766052 -4.255954 32,025 315 452 0
2019-12-15 12:27:23 GMT 55.762390 -4.249379 32,000 315 452 64
2019-12-15 12:27:20 GMT 55.756546 -4.238749 32,000 315 453 128
2019-12-15 12:27:17 GMT 55.752457 -4.231401 32,000 315 452 64
2019-12-15 12:27:14 GMT 55.748074 -4.223471 32,000 315 452 64
2019-12-15 12:27:11 GMT 55.744396 -4.216862 32,000 315 452 64
2019-12-15 12:27:08 GMT 55.738392 -4.206133 32,000 315 452 0
2019-12-15 12:27:05 GMT 55.734558 -4.199274 32,000 315 451 0
2019-12-15 12:27:02 GMT 55.729874 -4.190855 32,000 315 452 0
2019-12-15 12:26:59 GMT 55.724705 -4.181671 32,000 315 451 64
2019-12-15 12:26:55 GMT 55.721073 -4.175062 32,000 315 452 64
2019-12-15 12:26:52 GMT 55.716385 -4.166648 32,000 315 452 0
2019-12-15 12:26:49 GMT 55.711391 -4.157639 32,000 315 451 0
2019-12-15 12:26:46 GMT 55.703384 -4.143219 32,000 315 451 0
2019-12-15 12:26:40 GMT 55.697250 -4.132108 32,000 315 451 64
2019-12-15 12:26:37 GMT 55.688782 -4.116794 32,000 315 451 64
2019-12-15 12:26:34 GMT 55.688782 -4.116794 32,000 315 451 64
2019-12-15 12:26:31 GMT 55.684994 -4.110003 32,000 315 451 0
2019-12-15 12:26:28 GMT 55.679718 -4.100564 32,000 315 451 -128
2019-12-15 12:26:24 GMT 55.674866 -4.091908 32,000 315 451 -192
2019-12-15 12:26:21 GMT 55.670609 -4.084334 32,000 315 451 -128
2019-12-15 12:26:17 GMT 55.664932 -4.074097 32,000 315 451 -64
2019-12-15 12:26:14 GMT 55.660557 -4.066229 32,000 315 451 0
2019-12-15 12:26:11 GMT 55.655712 -4.057560 32,000 315 451 0
2019-12-15 12:26:07 GMT 55.650593 -4.048376 32,000 315 451 0
2019-12-15 12:26:04 GMT 55.645473 -4.039192 32,000 315 451 0
2019-12-15 12:26:01 GMT 55.635277 -4.020910 32,000 315 451 -64
2019-12-15 12:25:57 GMT 55.635277 -4.020910 32,000 315 451 0
2019-12-15 12:25:54 GMT 55.626804 -4.005718 32,000 315 451 0
2019-12-15 12:25:51 GMT 55.626804 -4.005718 32,000 315 451 0
2019-12-15 12:25:48 GMT 55.620800 -3.994989 32,000 315 451 0
2019-12-15 12:25:45 GMT 55.618607 -3.991033 32,000 315 451 64
2019-12-15 12:25:42 GMT 55.612652 -3.980312 32,000 315 451 0
2019-12-15 12:25:39 GMT 55.608994 -3.973722 32,000 315 451 0
2019-12-15 12:25:36 GMT 55.604877 -3.966408 32,025 315 451 0
2019-12-15 12:25:33 GMT 55.600315 -3.958340 32,025 315 451 -64
2019-12-15 12:25:30 GMT 55.596081 -3.950787 32,025 315 451 0
2019-12-15 12:25:26 GMT 55.590355 -3.940573 32,025 315 451 64
2019-12-15 12:25:23 GMT 55.586121 -3.933020 32,025 315 451 128
2019-12-15 12:25:20 GMT 55.581116 -3.924200 32,000 315 451 128
2019-12-15 12:25:17 GMT 55.575073 -3.913463 32,000 315 451 64
2019-12-15 12:25:14 GMT 55.572151 -3.908300 32,000 315 451 0
2019-12-15 12:25:11 GMT 55.567749 -3.900479 32,000 315 451 0
2019-12-15 12:25:08 GMT 55.558640 -3.884333 32,000 315 451 -64
2019-12-15 12:25:05 GMT 55.558640 -3.884333 32,000 315 451 -64
2019-12-15 12:25:02 GMT 55.555256 -3.878345 32,000 315 451 -64
2019-12-15 12:24:59 GMT 55.551132 -3.871016 32,000 315 451 -64
2019-12-15 12:24:56 GMT 55.546005 -3.861861 32,000 315 451 0
2019-12-15 12:24:53 GMT 55.541748 -3.854287 32,000 315 452 0
2019-12-15 12:24:50 GMT 55.537491 -3.846713 32,000 315 452 0
2019-12-15 12:24:47 GMT 55.533188 -3.839222 32,025 315 451 -64
2019-12-15 12:24:44 GMT 55.528160 -3.830366 32,025 315 452 0
2019-12-15 12:24:41 GMT 55.525089 -3.824873 32,025 315 451 0
2019-12-15 12:24:38 GMT 55.519966 -3.815775 32,025 315 451 0
2019-12-15 12:24:35 GMT 55.516151 -3.808994 32,025 315 452 0
2019-12-15 12:24:32 GMT 55.511265 -3.800411 32,000 315 452 64
2019-12-15 12:24:29 GMT 55.506271 -3.791532 32,000 315 452 -64
2019-12-15 12:24:26 GMT 55.501099 -3.782460 32,000 315 452 0
2019-12-15 12:24:23 GMT 55.497437 -3.775968 32,000 315 452 0
2019-12-15 12:24:20 GMT 55.492996 -3.768144 32,000 315 451 0
2019-12-15 12:24:17 GMT 55.489014 -3.761070 32,000 315 451 -64
2019-12-15 12:24:14 GMT 55.484028 -3.752174 32,000 315 451 -64
2019-12-15 12:24:11 GMT 55.479794 -3.744621 32,000 315 451 -64
2019-12-15 12:24:08 GMT 55.475143 -3.736184 32,000 315 451 -64
2019-12-15 12:24:05 GMT 55.471481 -3.729692 32,025 316 453 128
2019-12-15 12:24:02 GMT 55.462662 -3.713980 32,025 315 452 0
2019-12-15 12:23:59 GMT 55.455540 -3.701534 32,000 316 453 128
2019-12-15 12:23:56 GMT 55.455540 -3.701534 32,025 316 453 192
2019-12-15 12:23:53 GMT 55.451706 -3.694819 32,000 316 453 128
2019-12-15 12:23:50 GMT 55.449440 -3.690977 32,000 316 453 128
2019-12-15 12:23:47 GMT 55.444107 -3.681668 32,000 316 453 0
2019-12-15 12:23:43 GMT 55.439060 -3.672763 32,000 316 453 -64
2019-12-15 12:23:40 GMT 55.433167 -3.662406 32,000 315 452 -64
2019-12-15 12:23:37 GMT 55.428398 -3.654119 32,025 315 452 -128
2019-12-15 12:23:34 GMT 55.425476 -3.648915 32,000 316 453 -128
2019-12-15 12:23:31 GMT 55.415405 -3.631224 32,025 316 453 -64
2019-12-15 12:23:28 GMT 55.415405 -3.631224 32,025 315 452 -64
2019-12-15 12:23:25 GMT 55.411102 -3.623711 32,025 315 452 -64
2019-12-15 12:23:22 GMT 55.405930 -3.614664 32,025 315 452 0
2019-12-15 12:23:19 GMT 55.403595 -3.610463 32,025 315 452 0
2019-12-15 12:23:16 GMT 55.398884 -3.602184 32,025 316 453 0
2019-12-15 12:23:12 GMT 55.392368 -3.590781 32,025 315 452 -64
2019-12-15 12:23:09 GMT 55.388718 -3.584290 32,000 315 453 -64
2019-12-15 12:23:06 GMT 55.376911 -3.563482 32,025 315 452 -64
2019-12-15 12:23:02 GMT 55.376911 -3.563482 32,025 315 452 0
2019-12-15 12:22:59 GMT 55.373699 -3.557739 32,025 315 452 64
2019-12-15 12:22:56 GMT 55.369263 -3.549957 32,025 315 452 128
2019-12-15 12:22:52 GMT 55.363365 -3.539512 32,000 315 452 0
2019-12-15 12:22:49 GMT 55.358803 -3.531522 32,000 315 452 64
2019-12-15 12:22:46 GMT 55.354431 -3.523703 32,000 315 452 0
2019-12-15 12:22:42 GMT 55.349400 -3.514876 32,000 315 452 0
2019-12-15 12:22:39 GMT 55.344086 -3.505527 32,025 316 452 0
2019-12-15 12:22:33 GMT 55.334457 -3.488742 32,025 316 453 -64
2019-12-15 12:22:30 GMT 55.329849 -3.480669 32,025 316 453 64
2019-12-15 12:22:27 GMT 55.326870 -3.475508 32,000 316 450 -64
2019-12-15 12:22:24 GMT 55.321796 -3.466769 32,025 316 453 64
2019-12-15 12:22:21 GMT 55.310158 -3.446628 32,000 316 453 64
2019-12-15 12:22:17 GMT 55.310158 -3.446628 32,000 316 453 128
2019-12-15 12:22:14 GMT 55.306759 -3.440718 32,000 316 453 64
2019-12-15 12:22:11 GMT 55.302292 -3.432985 32,000 316 453 128
2019-12-15 12:22:08 GMT 55.297356 -3.424405 32,000 316 453 64
2019-12-15 12:22:04 GMT 55.291721 -3.414584 32,000 316 453 0
2019-12-15 12:22:01 GMT 55.288139 -3.408425 31,975 316 453 -64
2019-12-15 12:21:58 GMT 55.283661 -3.400672 31,975 316 453 -64
2019-12-15 12:21:55 GMT 55.278305 -3.391383 32,000 316 453 -64
2019-12-15 12:21:52 GMT 55.274590 -3.384954 32,000 316 453 -64
2019-12-15 12:21:49 GMT 55.269981 -3.376964 32,000 316 453 -64
2019-12-15 12:21:46 GMT 55.263565 -3.365855 32,000 316 453 -64
2019-12-15 12:21:43 GMT 55.259136 -3.358071 32,000 316 453 -64
2019-12-15 12:21:40 GMT 55.256927 -3.354223 32,000 316 452 0
2019-12-15 12:21:37 GMT 55.246658 -3.336431 32,000 316 452 0
2019-12-15 12:21:34 GMT 55.246658 -3.336431 32,000 316 452 0
2019-12-15 12:21:31 GMT 55.239723 -3.324280 32,000 316 452 64
2019-12-15 12:21:25 GMT 55.234680 -3.315528 32,000 316 451 128
2019-12-15 12:21:21 GMT 55.224014 -3.297029 31,975 316 451 0
2019-12-15 12:21:18 GMT 55.224014 -3.297029 32,000 316 451 64
2019-12-15 12:21:15 GMT 55.218403 -3.287243 32,000 316 451 0
2019-12-15 12:21:11 GMT 55.208115 -3.269265 32,000 316 450 -64
2019-12-15 12:21:08 GMT 55.208115 -3.269265 32,000 316 450 -64
2019-12-15 12:21:04 GMT 55.203415 -3.261081 32,000 316 449 -64
2019-12-15 12:21:01 GMT 55.194706 -3.245961 32,000 316 449 -64
2019-12-15 12:20:55 GMT 55.189587 -3.237055 32,025 316 449 -64
2019-12-15 12:20:52 GMT 55.185745 -3.230384 32,025 316 449 -64
2019-12-15 12:20:49 GMT 55.181625 -3.223239 32,025 316 449 -64
2019-12-15 12:20:46 GMT 55.175766 -3.213016 32,025 316 448 -64
2019-12-15 12:20:43 GMT 55.172104 -3.206635 32,025 316 448 -64
2019-12-15 12:20:40 GMT 55.167706 -3.199019 32,025 316 448 0
2019-12-15 12:20:37 GMT 55.162678 -3.190363 32,025 316 448 0
2019-12-15 12:20:34 GMT 55.157227 -3.181027 32,025 316 447 -64
2019-12-15 12:20:31 GMT 55.154572 -3.176503 32,025 316 447 -64
2019-12-15 12:20:28 GMT 55.150314 -3.169152 32,025 316 447 0
2019-12-15 12:20:25 GMT 55.145596 -3.161066 32,025 316 447 -64
2019-12-15 12:20:19 GMT 55.135586 -3.143838 32,025 316 446 0
2019-12-15 12:20:16 GMT 55.132652 -3.138761 32,025 316 446 64
2019-12-15 12:20:13 GMT 55.127533 -3.129938 32,025 316 446 64
2019-12-15 12:20:10 GMT 55.123993 -3.123914 32,000 316 446 64
2019-12-15 12:20:07 GMT 55.119873 -3.116805 32,000 316 446 64
2019-12-15 12:20:04 GMT 55.114918 -3.108215 32,000 316 446 64
2019-12-15 12:20:01 GMT 55.110535 -3.100649 32,000 316 446 64
2019-12-15 12:19:58 GMT 55.106003 -3.092813 32,000 316 446 0
2019-12-15 12:19:55 GMT 55.101883 -3.085743 32,000 316 446 -64
2019-12-15 12:19:52 GMT 55.097366 -3.077836 32,000 316 446 -64
2019-12-15 12:19:49 GMT 55.093269 -3.070762 32,000 316 446 -64
2019-12-15 12:19:46 GMT 55.089035 -3.063438 32,000 316 446 0
2019-12-15 12:19:43 GMT 55.083775 -3.054366 32,000 316 446 0
2019-12-15 12:19:40 GMT 55.075562 -3.040224 32,000 316 445 -64
2019-12-15 12:19:37 GMT 55.070927 -3.032143 32,000 316 446 0
2019-12-15 12:19:31 GMT 55.066082 -3.023820 32,000 316 446 0
2019-12-15 12:19:28 GMT 55.063156 -3.018817 32,000 316 445 0
2019-12-15 12:19:25 GMT 55.052948 -3.001126 32,025 330 456 0
2019-12-15 12:19:22 GMT 55.052948 -3.001126 32,000 316 446 -64
2019-12-15 12:19:19 GMT 55.049419 -2.995106 32,025 316 446 -64
2019-12-15 12:19:16 GMT 55.045135 -2.987865 32,025 316 446 -64
2019-12-15 12:19:13 GMT 55.040295 -2.979625 32,000 316 446 128
2019-12-15 12:19:10 GMT 55.035553 -2.971559 32,025 316 446 64
2019-12-15 12:19:07 GMT 55.030239 -2.962563 32,025 316 446 64
2019-12-15 12:19:04 GMT 55.026279 -2.955822 32,025 316 446 128
2019-12-15 12:19:01 GMT 55.022736 -2.949829 32,000 316 446 0
2019-12-15 12:18:58 GMT 55.018204 -2.941993 32,000 316 446 64
2019-12-15 12:18:55 GMT 55.009521 -2.927191 32,000 316 446 0
2019-12-15 12:18:52 GMT 55.009521 -2.927191 32,000 316 446 0
2019-12-15 12:18:49 GMT 55.004959 -2.919367 32,000 316 446 0
2019-12-15 12:18:46 GMT 55.001312 -2.913073 32,000 316 446 0
2019-12-15 12:18:43 GMT 54.996906 -2.905551 32,000 316 446 64
2019-12-15 12:18:40 GMT 54.992344 -2.897727 32,000 316 447 0
2019-12-15 12:18:37 GMT 54.987030 -2.888758 32,000 316 447 -64
2019-12-15 12:18:34 GMT 54.982681 -2.881488 32,000 317 447 -64
2019-12-15 12:18:31 GMT 54.978836 -2.875025 32,000 317 447 -64
2019-12-15 12:18:28 GMT 54.968994 -2.858626 32,000 317 448 0
2019-12-15 12:18:25 GMT 54.968994 -2.858626 32,000 317 448 0
2019-12-15 12:18:19 GMT 54.959793 -2.843197 32,000 317 449 0
2019-12-15 12:18:15 GMT 54.955124 -2.835442 32,000 317 449 0
2019-12-15 12:18:12 GMT 54.945557 -2.819528 32,000 317 449 -64
2019-12-15 12:18:06 GMT 54.939697 -2.809834 32,000 316 449 64
2019-12-15 12:18:03 GMT 54.933128 -2.798850 32,025 316 448 0
2019-12-15 12:17:57 GMT 54.928116 -2.790285 32,025 317 447 0
2019-12-15 12:17:54 GMT 54.923080 -2.781803 32,000 316 448 64
2019-12-15 12:17:51 GMT 54.919235 -2.775260 32,000 316 447 64
2019-12-15 12:17:48 GMT 54.914383 -2.766939 32,000 316 448 0
2019-12-15 12:17:45 GMT 54.910080 -2.759669 32,000 317 447 0
2019-12-15 12:17:42 GMT 54.905777 -2.752398 32,000 317 448 0
2019-12-15 12:17:39 GMT 54.901291 -2.745001 32,000 318 449 64
2019-12-15 12:17:36 GMT 54.896439 -2.737131 32,000 318 449 128
2019-12-15 12:17:33 GMT 54.892445 -2.730852 31,975 320 450 0
2019-12-15 12:17:30 GMT 54.887192 -2.722671 32,000 319 450 0
2019-12-15 12:17:27 GMT 54.882481 -2.715537 31,975 320 450 0
2019-12-15 12:17:24 GMT 54.872360 -2.700536 31,975 321 452 0
2019-12-15 12:17:21 GMT 54.872360 -2.700536 32,000 321 451 0
2019-12-15 12:17:18 GMT 54.868011 -2.694316 32,000 322 453 0
2019-12-15 12:17:15 GMT 54.863441 -2.687988 32,000 322 453 0
2019-12-15 12:17:12 GMT 54.858692 -2.681413 32,000 323 454 0
2019-12-15 12:17:09 GMT 54.853729 -2.674767 32,000 323 454 0
2019-12-15 12:17:06 GMT 54.848877 -2.668385 32,000 324 455 0
2019-12-15 12:17:03 GMT 54.839046 -2.655862 32,000 325 455 0
2019-12-15 12:17:00 GMT 54.833542 -2.649078 32,000 325 456 0
2019-12-15 12:16:57 GMT 54.828873 -2.643424 32,000 326 456 -64
2019-12-15 12:16:54 GMT 54.828873 -2.643424 32,000 327 457 -64
2019-12-15 12:16:51 GMT 54.820999 -2.634215 32,000 328 459 0
2019-12-15 12:16:48 GMT 54.817078 -2.629811 32,000 329 459 0
2019-12-15 12:16:45 GMT 54.812256 -2.624521 32,000 329 458 0
2019-12-15 12:16:42 GMT 54.807579 -2.619490 32,000 329 459 0
2019-12-15 12:16:39 GMT 54.799072 -2.610545 32,000 329 459 0
2019-12-15 12:16:36 GMT 54.795776 -2.607153 32,000 330 460 0
2019-12-15 12:16:33 GMT 54.788681 -2.599801 32,000 330 460 -64
2019-12-15 12:16:30 GMT 54.783932 -2.594854 32,000 330 459 -64
2019-12-15 12:16:27 GMT 54.777054 -2.587765 32,025 330 459 -64
2019-12-15 12:16:24 GMT 54.772659 -2.583241 32,025 330 459 -64
2019-12-15 12:16:21 GMT 54.768860 -2.579283 32,025 330 459 -64
2019-12-15 12:16:18 GMT 54.755951 -2.565890 32,025 330 459 -64
2019-12-15 12:16:15 GMT 54.755951 -2.565890 32,025 330 459 -64
2019-12-15 12:16:12 GMT 54.752647 -2.562561 32,025 330 459 -64
2019-12-15 12:16:09 GMT 54.747013 -2.556735 32,025 330 459 0
2019-12-15 12:16:06 GMT 54.741531 -2.551171 32,025 330 459 64
2019-12-15 12:16:03 GMT 54.736267 -2.545678 32,025 330 459 128
2019-12-15 12:16:00 GMT 54.731735 -2.540992 32,025 330 459 128
2019-12-15 12:15:57 GMT 54.725372 -2.534449 32,025 330 459 0
2019-12-15 12:15:54 GMT 54.717731 -2.526523 32,025 330 459 -64
2019-12-15 12:15:51 GMT 54.713917 -2.522611 32,000 330 459 0
2019-12-15 12:15:47 GMT 54.705551 -2.513930 32,025 330 459 0
2019-12-15 12:15:44 GMT 54.701752 -2.509972 32,025 330 459 0
2019-12-15 12:15:41 GMT 54.694656 -2.502702 32,025 330 459 0
2019-12-15 12:15:38 GMT 54.691177 -2.499067 32,025 330 459 0
2019-12-15 12:15:35 GMT 54.680649 -2.488161 32,025 330 459 0
2019-12-15 12:15:29 GMT 54.668621 -2.475836 32,000 330 459 64
2019-12-15 12:15:26 GMT 54.668621 -2.475836 32,000 330 459 64
2019-12-15 12:15:23 GMT 54.660049 -2.467077 32,000 330 460 64
2019-12-15 12:15:20 GMT 54.657303 -2.464250 32,000 330 460 64
2019-12-15 12:15:17 GMT 54.650932 -2.457775 32,000 330 460 0
2019-12-15 12:15:14 GMT 54.647812 -2.454612 32,000 330 459 0
2019-12-15 12:15:11 GMT 54.639404 -2.445993 32,000 330 459 -64
2019-12-15 12:15:08 GMT 54.635754 -2.442294 32,000 330 459 -64
2019-12-15 12:15:05 GMT 54.624443 -2.430725 32,000 330 457 0
2019-12-15 12:15:02 GMT 54.624443 -2.430725 32,025 330 459 -64
2019-12-15 12:14:59 GMT 54.619694 -2.425898 32,025 330 460 -64
2019-12-15 12:14:56 GMT 54.613457 -2.419572 32,025 330 459 -64
2019-12-15 12:14:53 GMT 54.601822 -2.407541 32,025 329 458 0
2019-12-15 12:14:50 GMT 54.595627 -2.401179 32,025 329 458 0
2019-12-15 12:14:47 GMT 54.595627 -2.401179 32,025 329 458 0
2019-12-15 12:14:44 GMT 54.591110 -2.396518 32,025 329 458 64
2019-12-15 12:14:40 GMT 54.584732 -2.389859 32,025 330 458 64
2019-12-15 12:14:37 GMT 54.579666 -2.384679 32,025 330 458 64
2019-12-15 12:14:34 GMT 54.573669 -2.378459 32,000 330 458 64
2019-12-15 12:14:31 GMT 54.562042 -2.366584 32,000 330 457 0
2019-12-15 12:14:28 GMT 54.562042 -2.366584 32,000 330 457 64
2019-12-15 12:14:25 GMT 54.557316 -2.361728 32,000 330 457 0
2019-12-15 12:14:22 GMT 54.551353 -2.355569 32,000 330 457 0
2019-12-15 12:14:19 GMT 54.545883 -2.349943 32,000 330 457 0
2019-12-15 12:14:16 GMT 54.539749 -2.343642 32,000 330 457 0
2019-12-15 12:14:13 GMT 54.535217 -2.338957 32,000 330 457 0
2019-12-15 12:14:10 GMT 54.525055 -2.328617 32,000 330 456 -64
2019-12-15 12:14:04 GMT 54.518166 -2.321528 32,000 330 456 -64
2019-12-15 12:14:01 GMT 54.507843 -2.311006 32,000 330 456 0
2019-12-15 12:13:58 GMT 54.507843 -2.311006 32,000 330 456 0
2019-12-15 12:13:55 GMT 54.502625 -2.305675 32,000 330 456 0
2019-12-15 12:13:51 GMT 54.496445 -2.299374 32,000 330 456 0
2019-12-15 12:13:47 GMT 54.488323 -2.291066 32,000 330 455 0
2019-12-15 12:13:44 GMT 54.483250 -2.285905 32,000 330 455 0
2019-12-15 12:13:41 GMT 54.478912 -2.281440 32,000 330 455 0
2019-12-15 12:13:38 GMT 54.470821 -2.273171 32,000 330 454 0
2019-12-15 12:13:35 GMT 54.466629 -2.269010 32,000 330 454 0
2019-12-15 12:13:32 GMT 54.460670 -2.262934 32,025 330 454 0
2019-12-15 12:13:29 GMT 54.456528 -2.258660 32,000 330 455 64
2019-12-15 12:13:26 GMT 54.446045 -2.248077 32,000 330 455 -64
2019-12-15 12:13:20 GMT 54.439861 -2.241877 32,000 330 454 0
2019-12-15 12:13:17 GMT 54.433720 -2.235635 32,000 330 455 -64
2019-12-15 12:13:14 GMT 54.428284 -2.230225 32,000 330 455 -64
2019-12-15 12:13:10 GMT 54.421055 -2.222900 32,025 330 454 0
2019-12-15 12:13:07 GMT 54.411530 -2.213180 32,025 330 454 64
2019-12-15 12:13:04 GMT 54.405212 -2.206717 32,025 330 454 64
2019-12-15 12:13:01 GMT 54.405212 -2.206717 32,025 330 454 64
2019-12-15 12:12:57 GMT 54.397640 -2.199013 32,000 330 454 64
2019-12-15 12:12:54 GMT 54.392380 -2.193687 32,000 330 455 0
2019-12-15 12:12:50 GMT 54.380135 -2.181286 32,000 330 455 0
2019-12-15 12:12:47 GMT 54.380135 -2.181286 32,000 330 455 -64
2019-12-15 12:12:44 GMT 54.373806 -2.174877 32,000 330 455 -128
2019-12-15 12:12:41 GMT 54.368916 -2.169966 32,000 330 454 -128
2019-12-15 12:12:37 GMT 54.360771 -2.161810 32,025 330 454 -64
2019-12-15 12:12:34 GMT 54.356255 -2.157232 32,025 330 453 0
2019-12-15 12:12:31 GMT 54.351414 -2.152238 32,025 330 453 0
2019-12-15 12:12:28 GMT 54.345291 -2.146050 32,025 330 453 64
2019-12-15 12:12:25 GMT 54.340805 -2.141445 32,000 330 453 64
2019-12-15 12:12:21 GMT 54.332512 -2.133012 32,000 330 453 64
2019-12-15 12:12:18 GMT 54.327297 -2.127686 32,000 330 453 64
2019-12-15 12:12:15 GMT 54.323154 -2.123524 32,000 330 453 64
2019-12-15 12:12:12 GMT 54.315056 -2.115284 32,000 330 454 0
2019-12-15 12:12:09 GMT 54.310539 -2.110707 32,000 330 454 0
2019-12-15 12:12:06 GMT 54.306381 -2.106548 32,000 330 454 64
2019-12-15 12:12:03 GMT 54.298996 -2.099055 31,975 330 454 64
2019-12-15 12:12:00 GMT 54.295223 -2.095309 31,975 330 454 64
2019-12-15 12:11:57 GMT 54.288712 -2.088695 31,975 330 454 64
2019-12-15 12:11:54 GMT 54.283447 -2.083491 31,975 330 455 0
2019-12-15 12:11:51 GMT 54.278000 -2.078032 31,975 330 455 0
2019-12-15 12:11:48 GMT 54.271500 -2.071472 31,975 330 455 0
2019-12-15 12:11:45 GMT 54.266968 -2.066921 32,000 330 455 0
2019-12-15 12:11:42 GMT 54.262985 -2.062919 31,975 330 455 0
2019-12-15 12:11:39 GMT 54.258133 -2.057975 31,975 330 455 0
2019-12-15 12:11:36 GMT 54.249744 -2.049677 32,000 330 456 0
2019-12-15 12:11:30 GMT 54.239594 -2.039499 32,000 330 456 -64
2019-12-15 12:11:27 GMT 54.234146 -2.034119 32,000 330 456 0
2019-12-15 12:11:24 GMT 54.230301 -2.030273 32,000 330 456 0
2019-12-15 12:11:21 GMT 54.225582 -2.025604 32,000 330 456 0
2019-12-15 12:11:18 GMT 54.217621 -2.017639 32,000 330 456 0
2019-12-15 12:11:15 GMT 54.208145 -2.008144 32,025 330 456 0
2019-12-15 12:11:12 GMT 54.208145 -2.008144 32,000 330 456 -64
2019-12-15 12:11:09 GMT 54.202724 -2.002662 32,000 330 456 0
2019-12-15 12:11:06 GMT 54.197296 -1.997158 32,000 330 456 -64
2019-12-15 12:11:03 GMT 54.192577 -1.992403 32,025 330 456 -64
2019-12-15 12:11:00 GMT 54.180984 -1.980690 32,025 330 456 -64
2019-12-15 12:10:54 GMT 54.175507 -1.975185 32,025 330 456 0
2019-12-15 12:10:50 GMT 54.166786 -1.966472 32,025 330 456 0
2019-12-15 12:10:47 GMT 54.161526 -1.961221 32,025 330 455 0
2019-12-15 12:10:44 GMT 54.157009 -1.956617 32,025 330 457 64
2019-12-15 12:10:41 GMT 54.153351 -1.952977 32,000 330 456 64
2019-12-15 12:10:38 GMT 54.145374 -1.944984 32,000 330 456 64
2019-12-15 12:10:35 GMT 54.135597 -1.935129 32,000 330 456 64
2019-12-15 12:10:32 GMT 54.135597 -1.935129 32,000 330 455 128
2019-12-15 12:10:28 GMT 54.128723 -1.928179 31,975 330 455 128
2019-12-15 12:10:25 GMT 54.123260 -1.922769 31,975 330 455 0
2019-12-15 12:10:22 GMT 54.116547 -1.916016 32,000 330 456 -64
2019-12-15 12:10:19 GMT 54.112930 -1.912406 31,975 330 455 -64
2019-12-15 12:10:16 GMT 54.106174 -1.905724 32,000 330 455 -128
2019-12-15 12:10:13 GMT 54.100918 -1.900473 32,000 330 455 -128
2019-12-15 12:10:09 GMT 54.092770 -1.892314 32,000 330 456 0
2019-12-15 12:10:06 GMT 54.087833 -1.887467 32,000 330 456 0
2019-12-15 12:10:02 GMT 54.082397 -1.882036 32,000 330 456 0
2019-12-15 12:09:59 GMT 54.074936 -1.874660 32,000 330 456 0
2019-12-15 12:09:56 GMT 54.070236 -1.869938 32,000 330 456 0
2019-12-15 12:09:53 GMT 54.063488 -1.863314 32,000 330 455 -64
2019-12-15 12:09:50 GMT 54.057854 -1.857740 32,000 330 455 0
2019-12-15 12:09:47 GMT 54.052223 -1.852166 32,000 330 456 -64
2019-12-15 12:09:44 GMT 54.042572 -1.842564 32,025 330 456 -64
2019-12-15 12:09:41 GMT 54.037857 -1.837856 32,025 330 456 -64
2019-12-15 12:09:38 GMT 54.030212 -1.830322 32,025 330 456 -64
2019-12-15 12:09:35 GMT 54.030212 -1.830322 32,025 330 456 -64
2019-12-15 12:09:32 GMT 54.024757 -1.824942 32,025 330 456 64
2019-12-15 12:09:29 GMT 54.020737 -1.820984 32,025 330 456 0
2019-12-15 12:09:26 GMT 54.016388 -1.816589 32,025 330 456 0
2019-12-15 12:09:23 GMT 54.010574 -1.810861 32,025 330 456 0
2019-12-15 12:09:20 GMT 54.004532 -1.804897 32,025 330 456 -64
2019-12-15 12:09:17 GMT 53.993271 -1.793753 32,025 330 456 -64
2019-12-15 12:09:11 GMT 53.988739 -1.789280 32,025 330 456 64
2019-12-15 12:09:08 GMT 53.982578 -1.783097 32,000 330 456 128
2019-12-15 12:09:05 GMT 53.977844 -1.778451 32,000 330 456 64
2019-12-15 12:09:02 GMT 53.972012 -1.772676 32,000 330 456 64
2019-12-15 12:08:59 GMT 53.966751 -1.767426 32,000 330 456 64
2019-12-15 12:08:56 GMT 53.960587 -1.761265 32,000 330 456 64
2019-12-15 12:08:53 GMT 53.956009 -1.756792 32,000 330 455 -64
2019-12-15 12:08:50 GMT 53.950554 -1.751431 32,025 331 456 -64
2019-12-15 12:08:47 GMT 53.940029 -1.741010 32,025 331 456 0
2019-12-15 12:08:44 GMT 53.930557 -1.731759 32,025 331 456 -64
2019-12-15 12:08:40 GMT 53.930557 -1.731759 32,025 330 455 -64
2019-12-15 12:08:36 GMT 53.918571 -1.719926 32,025 330 454 0
2019-12-15 12:08:33 GMT 53.918571 -1.719926 32,025 330 454 64
2019-12-15 12:08:30 GMT 53.912937 -1.714352 32,025 330 454 0
2019-12-15 12:08:27 GMT 53.908375 -1.709909 32,025 330 455 64
2019-12-15 12:08:24 GMT 53.903114 -1.704739 32,000 330 454 0
2019-12-15 12:08:21 GMT 53.897530 -1.699165 32,025 330 454 0
2019-12-15 12:08:18 GMT 53.891693 -1.693386 32,000 330 454 -64
2019-12-15 12:08:15 GMT 53.886108 -1.687814 32,025 330 454 -64
2019-12-15 12:08:09 GMT 53.877186 -1.679131 32,000 330 454 64
2019-12-15 12:08:06 GMT 53.869949 -1.671962 32,000 330 454 64
2019-12-15 12:08:03 GMT 53.865967 -1.667983 32,000 330 453 64
2019-12-15 12:08:00 GMT 53.859100 -1.661211 32,000 330 453 64
2019-12-15 12:07:57 GMT 53.847336 -1.649519 32,000 330 453 128
2019-12-15 12:07:53 GMT 53.847336 -1.649519 32,000 330 453 64
2019-12-15 12:07:50 GMT 53.840652 -1.642927 32,000 330 453 0
2019-12-15 12:07:47 GMT 53.834496 -1.636882 32,000 330 453 0
2019-12-15 12:07:43 GMT 53.828705 -1.631234 32,000 330 453 0
2019-12-15 12:07:40 GMT 53.823807 -1.626369 32,000 330 453 64
2019-12-15 12:07:37 GMT 53.819275 -1.621896 32,000 330 453 64
2019-12-15 12:07:34 GMT 53.812958 -1.615696 32,000 330 453 0
2019-12-15 12:07:31 GMT 53.804993 -1.607849 32,000 330 452 -64
2019-12-15 12:07:28 GMT 53.798096 -1.601177 32,000 330 452 0
2019-12-15 12:07:25 GMT 53.796112 -1.599217 32,000 330 452 -64
2019-12-15 12:07:22 GMT 53.792313 -1.595450 32,000 330 454 64
2019-12-15 12:07:19 GMT 53.785629 -1.588937 32,000 330 452 -64
2019-12-15 12:07:16 GMT 53.778400 -1.581870 32,000 330 452 0
2019-12-15 12:07:13 GMT 53.774414 -1.577951 32,000 330 452 64
2019-12-15 12:07:10 GMT 53.768463 -1.572065 32,000 330 452 64
2019-12-15 12:07:07 GMT 53.762714 -1.566360 32,000 330 452 64
2019-12-15 12:07:04 GMT 53.756199 -1.560059 32,000 331 453 -64
2019-12-15 12:07:01 GMT 53.752579 -1.556449 31,975 330 452 64
2019-12-15 12:06:58 GMT 53.745529 -1.549622 32,000 330 452 -64
2019-12-15 12:06:55 GMT 53.742279 -1.546404 32,000 330 452 -64
2019-12-15 12:06:52 GMT 53.734680 -1.539028 32,000 330 452 -64
2019-12-15 12:06:49 GMT 53.731243 -1.535662 32,000 331 453 -64
2019-12-15 12:06:46 GMT 53.724541 -1.529119 32,000 331 453 -64
2019-12-15 12:06:43 GMT 53.720901 -1.525609 32,000 330 454 64
2019-12-15 12:06:40 GMT 53.715637 -1.520508 32,000 331 453 0
2019-12-15 12:06:37 GMT 53.709641 -1.514701 32,000 331 453 0
2019-12-15 12:06:34 GMT 53.702911 -1.508187 32,000 331 454 64
2019-12-15 12:06:31 GMT 53.697647 -1.503087 32,000 331 454 64
2019-12-15 12:06:28 GMT 53.691147 -1.496730 32,000 331 454 0
2019-12-15 12:06:25 GMT 53.686974 -1.492687 32,000 330 453 0
2019-12-15 12:06:22 GMT 53.679340 -1.485255 32,000 330 454 0
2019-12-15 12:06:19 GMT 53.670818 -1.476934 32,000 330 453 64
2019-12-15 12:06:13 GMT 53.666107 -1.472325 32,000 330 454 64
2019-12-15 12:06:10 GMT 53.657593 -1.463928 32,000 331 456 64
2019-12-15 12:06:07 GMT 53.653793 -1.460240 31,975 330 456 0
2019-12-15 12:06:04 GMT 53.649261 -1.455767 32,000 331 456 64
2019-12-15 12:06:01 GMT 53.644520 -1.451165 31,975 331 456 64
2019-12-15 12:05:58 GMT 53.638142 -1.444944 32,000 331 456 0
2019-12-15 12:05:55 GMT 53.633205 -1.440178 32,000 331 456 0
2019-12-15 12:05:52 GMT 53.628113 -1.435207 32,000 331 456 0
2019-12-15 12:05:49 GMT 53.620239 -1.427673 32,000 330 456 0
2019-12-15 12:05:46 GMT 53.615887 -1.423376 32,000 330 456 64
2019-12-15 12:05:43 GMT 53.611130 -1.418806 31,975 330 457 64
2019-12-15 12:05:36 GMT 53.591904 -1.400129 31,975 331 459 0
2019-12-15 12:05:33 GMT 53.591904 -1.400129 31,975 331 459 0
2019-12-15 12:05:27 GMT 53.581066 -1.389690 31,975 331 460 -128
2019-12-15 12:05:24 GMT 53.576084 -1.384924 31,975 331 460 -192
2019-12-15 12:05:21 GMT 53.568172 -1.377249 32,000 331 461 -192
2019-12-15 12:05:18 GMT 53.564308 -1.373533 32,000 330 461 -128
2019-12-15 12:05:15 GMT 53.559494 -1.368896 32,000 330 461 -128
2019-12-15 12:05:12 GMT 53.552113 -1.361739 32,000 330 461 0
2019-12-15 12:05:06 GMT 53.543594 -1.353499 32,000 331 462 0
2019-12-15 12:05:03 GMT 53.537121 -1.347198 32,000 331 462 -64
2019-12-15 12:05:00 GMT 53.533401 -1.343628 32,000 331 462 -64
2019-12-15 12:04:57 GMT 53.526947 -1.337429 32,025 331 462 -64
2019-12-15 12:04:54 GMT 53.520271 -1.330961 32,025 331 462 0
2019-12-15 12:04:51 GMT 53.515457 -1.326364 32,025 331 462 64
2019-12-15 12:04:48 GMT 53.507515 -1.318683 32,025 331 461 0
2019-12-15 12:04:45 GMT 53.504162 -1.315451 32,025 331 462 -64
2019-12-15 12:04:42 GMT 53.499344 -1.310826 32,025 331 462 64
2019-12-15 12:04:39 GMT 53.493458 -1.305111 32,025 331 462 64
2019-12-15 12:04:36 GMT 53.486984 -1.298891 32,025 331 461 -64
2019-12-15 12:04:33 GMT 53.477188 -1.289481 32,025 331 460 64
2019-12-15 12:04:30 GMT 53.477188 -1.289481 32,025 331 461 0
2019-12-15 12:04:27 GMT 53.471100 -1.283595 32,025 331 461 64
2019-12-15 12:04:24 GMT 53.458729 -1.271667 32,025 331 461 0
2019-12-15 12:04:21 GMT 53.458729 -1.271667 32,025 331 461 0
2019-12-15 12:04:15 GMT 53.447277 -1.260600 32,025 331 459 0
2019-12-15 12:04:12 GMT 53.442856 -1.256365 32,025 331 460 0
2019-12-15 12:04:09 GMT 53.439175 -1.252765 32,025 331 460 0
2019-12-15 12:04:06 GMT 53.431263 -1.245171 32,025 331 460 0
2019-12-15 12:04:03 GMT 53.427399 -1.241455 32,025 331 460 64
2019-12-15 12:04:00 GMT 53.415199 -1.229742 32,000 331 460 64
2019-12-15 12:03:54 GMT 53.410080 -1.224819 32,000 331 459 0
2019-12-15 12:03:51 GMT 53.403423 -1.218432 32,000 331 459 0
2019-12-15 12:03:48 GMT 53.399559 -1.214716 32,000 331 459 0
2019-12-15 12:03:45 GMT 53.392181 -1.207711 32,000 331 459 0
2019-12-15 12:03:42 GMT 53.388290 -1.204023 32,000 331 459 0
2019-12-15 12:03:39 GMT 53.377625 -1.193743 32,025 331 458 -64
2019-12-15 12:03:36 GMT 53.377625 -1.193743 32,025 331 458 -192
2019-12-15 12:03:33 GMT 53.371399 -1.187779 32,025 331 458 -128
2019-12-15 12:03:30 GMT 53.366787 -1.183373 32,025 331 458 -128
2019-12-15 12:03:27 GMT 53.359268 -1.176165 32,025 331 457 0
2019-12-15 12:03:24 GMT 53.353378 -1.170609 32,025 331 457 -64
2019-12-15 12:03:21 GMT 53.349930 -1.167297 32,025 331 457 0
2019-12-15 12:03:18 GMT 53.344395 -1.162047 32,025 331 456 64
2019-12-15 12:03:15 GMT 53.338203 -1.156069 32,000 331 456 64
2019-12-15 12:03:12 GMT 53.333221 -1.151367 32,025 331 456 64
2019-12-15 12:03:09 GMT 53.327911 -1.146345 32,025 331 456 64
2019-12-15 12:03:06 GMT 53.322422 -1.141124 32,000 331 456 64
2019-12-15 12:03:03 GMT 53.310699 -1.129865 32,000 331 456 0
2019-12-15 12:03:00 GMT 53.305756 -1.125210 32,000 331 456 0
2019-12-15 12:02:57 GMT 53.305756 -1.125210 32,000 331 456 0
2019-12-15 12:02:54 GMT 53.298660 -1.118330 32,000 331 456 0
2019-12-15 12:02:51 GMT 53.294998 -1.114877 32,000 331 456 0
2019-12-15 12:02:48 GMT 53.289322 -1.109462 32,000 331 457 0
2019-12-15 12:02:45 GMT 53.278522 -1.099198 32,000 331 457 0
2019-12-15 12:02:39 GMT 53.270645 -1.091649 32,000 331 457 0
2019-12-15 12:02:36 GMT 53.266605 -1.087808 32,000 331 457 -64
2019-12-15 12:02:33 GMT 53.261490 -1.082938 32,000 331 457 -64
2019-12-15 12:02:30 GMT 53.255814 -1.077523 32,000 331 457 -64
2019-12-15 12:02:27 GMT 53.252129 -1.074075 32,000 331 457 -64
2019-12-15 12:02:24 GMT 53.244450 -1.066724 32,025 331 456 0
2019-12-15 12:02:21 GMT 53.237503 -1.060024 32,025 331 457 0
2019-12-15 12:02:18 GMT 53.234573 -1.057277 32,000 331 456 64
2019-12-15 12:02:15 GMT 53.228897 -1.051862 32,025 331 457 -64
2019-12-15 12:02:12 GMT 53.222660 -1.045882 32,025 331 456 0
2019-12-15 12:02:07 GMT 53.208740 -1.032715 32,025 331 457 64
2019-12-15 12:02:04 GMT 53.206696 -1.030776 32,000 331 456 64
2019-12-15 12:02:01 GMT 53.201946 -1.026252 32,000 331 456 64
2019-12-15 12:01:58 GMT 53.197540 -1.022042 32,000 331 456 64
2019-12-15 12:01:55 GMT 53.192402 -1.017205 32,000 331 456 64
2019-12-15 12:01:52 GMT 53.185093 -1.010257 32,000 331 456 0
2019-12-15 12:01:49 GMT 53.179550 -1.005014 32,000 331 456 0
2019-12-15 12:01:46 GMT 53.174435 -1.000160 32,000 331 456 -64
2019-12-15 12:01:43 GMT 53.171127 -0.997009 32,000 331 456 -64
2019-12-15 12:01:40 GMT 53.163986 -0.990261 32,000 331 456 -64
2019-12-15 12:01:37 GMT 53.155746 -0.982413 32,000 331 456 -64
2019-12-15 12:01:34 GMT 53.152786 -0.979641 32,025 331 457 -64
2019-12-15 12:01:31 GMT 53.145813 -0.973075 32,025 331 457 -64
2019-12-15 12:01:28 GMT 53.142174 -0.969624 32,025 331 457 0
2019-12-15 12:01:25 GMT 53.135376 -0.963162 32,025 331 457 0
2019-12-15 12:01:22 GMT 53.130981 -0.959028 32,025 331 457 0
2019-12-15 12:01:19 GMT 53.126175 -0.954555 32,025 331 457 0
2019-12-15 12:01:16 GMT 53.117752 -0.946551 32,025 331 456 64
2019-12-15 12:01:13 GMT 53.114799 -0.943855 32,000 331 457 64
2019-12-15 12:01:10 GMT 53.108562 -0.937958 32,000 331 457 64
2019-12-15 12:01:07 GMT 53.105118 -0.934646 32,000 331 457 128
2019-12-15 12:01:04 GMT 53.097576 -0.927537 32,000 331 457 64
2019-12-15 12:01:01 GMT 53.091339 -0.921631 32,000 331 456 64
2019-12-15 12:00:58 GMT 53.087494 -0.918045 32,000 331 456 64
2019-12-15 12:00:55 GMT 53.080307 -0.911255 32,000 331 456 0
2019-12-15 12:00:52 GMT 53.076096 -0.907288 32,000 331 457 0
2019-12-15 12:00:49 GMT 53.070621 -0.902056 32,000 331 457 0
2019-12-15 12:00:46 GMT 53.063644 -0.895538 32,000 331 457 0
2019-12-15 12:00:43 GMT 53.059799 -0.891876 32,000 331 456 -64
2019-12-15 12:00:40 GMT 53.048767 -0.881577 32,000 331 451 -64
2019-12-15 12:00:37 GMT 53.048767 -0.881577 32,000 331 456 -64
2019-12-15 12:00:34 GMT 53.041759 -0.875061 32,000 331 456 0
2019-12-15 12:00:31 GMT 53.036636 -0.870209 32,000 331 455 0
2019-12-15 12:00:28 GMT 53.032215 -0.866115 32,025 331 456 0
2019-12-15 12:00:25 GMT 53.026539 -0.860779 32,025 331 456 0
2019-12-15 12:00:22 GMT 53.020294 -0.854950 32,025 331 456 64
2019-12-15 12:00:19 GMT 53.010452 -0.845642 32,000 331 456 64
2019-12-15 12:00:13 GMT 53.003082 -0.838776 32,000 331 456 0
2019-12-15 12:00:10 GMT 52.998550 -0.834503 32,000 331 456 0
2019-12-15 12:00:07 GMT 52.993607 -0.829849 32,000 331 455 -64
2019-12-15 12:00:04 GMT 52.987381 -0.823975 32,000 331 455 -64
2019-12-15 12:00:01 GMT 52.983536 -0.820389 32,025 331 455 -64
2019-12-15 11:59:58 GMT 52.978226 -0.815353 32,025 331 454 -64
2019-12-15 11:59:55 GMT 52.970905 -0.808515 32,025 331 454 0
2019-12-15 11:59:52 GMT 52.966717 -0.804592 32,025 331 454 64
2019-12-15 11:59:49 GMT 52.959595 -0.797882 32,025 331 454 64
2019-12-15 11:59:46 GMT 52.954834 -0.793457 32,025 331 454 64
2019-12-15 11:59:43 GMT 52.950096 -0.788975 32,000 331 454 64
2019-12-15 11:59:40 GMT 52.942978 -0.782305 32,000 331 454 64
2019-12-15 11:59:37 GMT 52.939159 -0.778774 32,000 331 453 0
2019-12-15 11:59:34 GMT 52.926910 -0.767288 32,000 331 453 0
2019-12-15 11:59:31 GMT 52.926910 -0.767288 32,000 331 453 0
2019-12-15 11:59:24 GMT 52.915791 -0.756958 32,000 331 453 0
2019-12-15 11:59:21 GMT 52.908463 -0.750198 32,000 331 453 0
2019-12-15 11:59:18 GMT 52.898426 -0.740871 32,000 331 450 0
2019-12-15 11:59:15 GMT 52.893356 -0.736160 32,000 331 452 -64
2019-12-15 11:59:12 GMT 52.893356 -0.736160 32,000 331 452 -64
2019-12-15 11:59:06 GMT 52.881153 -0.724784 32,025 331 451 -64
2019-12-15 11:59:03 GMT 52.876419 -0.720367 32,025 331 450 -64
2019-12-15 11:59:00 GMT 52.870960 -0.715367 32,025 331 450 -64
2019-12-15 11:58:57 GMT 52.865002 -0.709795 32,025 331 450 -64
2019-12-15 11:58:54 GMT 52.859573 -0.704727 32,025 331 449 0
2019-12-15 11:58:51 GMT 52.855774 -0.701141 32,025 331 449 0
2019-12-15 11:58:48 GMT 52.850010 -0.695748 32,025 331 448 0
2019-12-15 11:58:45 GMT 52.843872 -0.690079 32,025 331 448 0
2019-12-15 11:58:42 GMT 52.837921 -0.684509 32,025 331 447 0
2019-12-15 11:58:39 GMT 52.833252 -0.680132 32,025 331 448 64
2019-12-15 11:58:36 GMT 52.827850 -0.675125 32,000 331 448 0
2019-12-15 11:58:33 GMT 52.822266 -0.669937 32,000 331 448 0
2019-12-15 11:58:30 GMT 52.816494 -0.664594 32,000 331 447 0
2019-12-15 11:58:27 GMT 52.811604 -0.660043 32,000 331 447 -64
2019-12-15 11:58:24 GMT 52.807297 -0.656052 32,000 331 447 -64
2019-12-15 11:58:21 GMT 52.801689 -0.650861 32,000 331 447 -64
2019-12-15 11:58:18 GMT 52.789124 -0.639114 32,025 331 447 -64
2019-12-15 11:58:12 GMT 52.785675 -0.635951 32,000 331 447 0
2019-12-15 11:58:09 GMT 52.773239 -0.624390 32,000 331 447 -64
2019-12-15 11:58:06 GMT 52.773239 -0.624390 32,000 331 447 0
2019-12-15 11:58:03 GMT 52.767654 -0.619202 32,000 331 447 0
2019-12-15 11:58:00 GMT 52.764076 -0.615862 32,000 331 448 0
2019-12-15 11:57:57 GMT 52.757046 -0.609270 32,000 331 447 -64
2019-12-15 11:57:54 GMT 52.752731 -0.605316 32,000 331 447 -64
2019-12-15 11:57:51 GMT 52.748432 -0.601266 32,025 331 447 -64
2019-12-15 11:57:48 GMT 52.740891 -0.594203 32,025 331 448 -64
2019-12-15 11:57:45 GMT 52.736755 -0.590363 32,025 331 448 -64
2019-12-15 11:57:42 GMT 52.730045 -0.584237 32,025 331 448 -64
2019-12-15 11:57:39 GMT 52.724133 -0.578744 32,025 331 447 -64
2019-12-15 11:57:36 GMT 52.718685 -0.573722 32,025 331 447 0
2019-12-15 11:57:33 GMT 52.714371 -0.569763 32,025 331 445 0
2019-12-15 11:57:30 GMT 52.708633 -0.564462 32,025 331 447 0
2019-12-15 11:57:27 GMT 52.698395 -0.554962 32,025 331 445 0
2019-12-15 11:57:24 GMT 52.698395 -0.554962 32,025 331 446 0
2019-12-15 11:57:21 GMT 52.693726 -0.550613 32,000 331 445 64
2019-12-15 11:57:18 GMT 52.688507 -0.545883 32,025 331 446 0
2019-12-15 11:57:15 GMT 52.680748 -0.538722 32,025 331 446 64
2019-12-15 11:57:12 GMT 52.675552 -0.533981 32,025 331 446 64
2019-12-15 11:57:09 GMT 52.671387 -0.530167 32,000 331 446 64
2019-12-15 11:57:06 GMT 52.661102 -0.520752 32,000 331 446 64
2019-12-15 11:57:00 GMT 52.655888 -0.515965 32,000 331 446 64
2019-12-15 11:56:57 GMT 52.649048 -0.509644 32,000 331 446 64
2019-12-15 11:56:54 GMT 52.643829 -0.504837 32,000 331 446 64
2019-12-15 11:56:51 GMT 52.638290 -0.499725 32,000 331 446 64
2019-12-15 11:56:48 GMT 52.634335 -0.496111 32,000 331 446 64
2019-12-15 11:56:45 GMT 52.627121 -0.489426 32,000 331 446 0
2019-12-15 11:56:42 GMT 52.622089 -0.484811 32,000 331 446 0
2019-12-15 11:56:39 GMT 52.617050 -0.480194 32,000 331 446 0
2019-12-15 11:56:36 GMT 52.611336 -0.474845 32,000 331 446 0
2019-12-15 11:56:33 GMT 52.606823 -0.470764 32,000 331 445 64
2019-12-15 11:56:30 GMT 52.601440 -0.465775 32,000 331 445 64
2019-12-15 11:56:27 GMT 52.596069 -0.460798 32,000 331 445 0
2019-12-15 11:56:24 GMT 52.590317 -0.455551 32,000 331 446 0
2019-12-15 11:56:21 GMT 52.585827 -0.451460 32,000 331 446 0
2019-12-15 11:56:18 GMT 52.579357 -0.445496 32,000 331 446 0
2019-12-15 11:56:15 GMT 52.573929 -0.440598 32,000 331 445 0
2019-12-15 11:56:12 GMT 52.568390 -0.435486 32,000 331 445 0
2019-12-15 11:56:09 GMT 52.564972 -0.432390 32,000 331 445 -64
2019-12-15 11:56:06 GMT 52.557953 -0.425949 32,025 331 445 0
2019-12-15 11:56:03 GMT 52.552914 -0.421326 32,000 331 445 -64
2019-12-15 11:56:00 GMT 52.546280 -0.415268 32,000 331 445 -64
2019-12-15 11:55:57 GMT 52.541428 -0.410843 32,000 331 445 -64
2019-12-15 11:55:54 GMT 52.536255 -0.406036 32,025 331 445 -64
2019-12-15 11:55:51 GMT 52.529938 -0.400314 32,025 331 445 0
2019-12-15 11:55:48 GMT 52.527237 -0.397797 32,025 331 445 64
2019-12-15 11:55:45 GMT 52.520966 -0.392075 32,025 331 445 64
2019-12-15 11:55:42 GMT 52.515579 -0.387190 32,000 331 445 64
2019-12-15 11:55:39 GMT 52.508038 -0.380284 32,000 331 445 64
2019-12-15 11:55:35 GMT 52.502125 -0.374791 32,000 331 445 0
2019-12-15 11:55:32 GMT 52.495651 -0.368881 32,000 331 445 0
2019-12-15 11:55:29 GMT 52.490067 -0.363770 32,000 331 445 0
2019-12-15 11:55:25 GMT 52.485600 -0.359645 32,000 331 446 0
2019-12-15 11:55:22 GMT 52.480385 -0.354937 32,000 331 446 0
2019-12-15 11:55:19 GMT 52.474091 -0.349121 32,000 331 446 0
2019-12-15 11:55:16 GMT 52.469959 -0.345363 32,000 331 446 0
2019-12-15 11:55:13 GMT 52.461857 -0.337987 32,000 331 446 0
2019-12-15 11:55:10 GMT 52.457344 -0.333906 32,000 331 446 0
2019-12-15 11:55:07 GMT 52.451385 -0.328491 32,000 331 446 0
2019-12-15 11:55:04 GMT 52.446030 -0.323563 32,000 331 445 64
2019-12-15 11:55:01 GMT 52.435593 -0.314026 32,000 331 447 -64
2019-12-15 11:54:58 GMT 52.430374 -0.309296 32,000 331 445 0
2019-12-15 11:54:55 GMT 52.430374 -0.309296 32,000 331 445 0
2019-12-15 11:54:52 GMT 52.424103 -0.303497 32,000 331 447 -64
2019-12-15 11:54:49 GMT 52.417419 -0.297394 32,000 331 446 -64
2019-12-15 11:54:46 GMT 52.412933 -0.293274 32,000 331 446 -64
2019-12-15 11:54:43 GMT 52.401398 -0.282822 32,000 331 447 -64
2019-12-15 11:54:40 GMT 52.401398 -0.282822 32,000 331 447 -64
2019-12-15 11:54:37 GMT 52.399059 -0.280701 32,000 331 447 -64
2019-12-15 11:54:34 GMT 52.393101 -0.275286 32,000 331 447 -64
2019-12-15 11:54:31 GMT 52.387512 -0.270185 32,000 331 447 -64
2019-12-15 11:54:28 GMT 52.380486 -0.263750 32,000 331 447 -64
2019-12-15 11:54:25 GMT 52.371082 -0.255197 32,025 331 448 -64
2019-12-15 11:54:22 GMT 52.371082 -0.255197 32,025 331 448 -64
2019-12-15 11:54:19 GMT 52.364750 -0.249468 32,025 331 448 -64
2019-12-15 11:54:16 GMT 52.358963 -0.244217 32,025 331 448 0
2019-12-15 11:54:13 GMT 52.354790 -0.240444 32,025 331 448 0
2019-12-15 11:54:10 GMT 52.349030 -0.235138 32,000 331 449 64
2019-12-15 11:54:07 GMT 52.343582 -0.230179 32,025 331 448 64
2019-12-15 11:54:03 GMT 52.336533 -0.223770 32,000 331 449 64
2019-12-15 11:54:00 GMT 52.330902 -0.218735 32,000 331 448 64
2019-12-15 11:53:57 GMT 52.323647 -0.212115 32,000 331 449 64
2019-12-15 11:53:53 GMT 52.318012 -0.207014 32,000 331 449 0
2019-12-15 11:53:50 GMT 52.313683 -0.203090 32,000 331 449 0
2019-12-15 11:53:47 GMT 52.307373 -0.197296 32,000 331 449 0
2019-12-15 11:53:44 GMT 52.301205 -0.191711 32,000 331 449 0
2019-12-15 11:53:41 GMT 52.291580 -0.183029 32,000 331 449 0
2019-12-15 11:53:35 GMT 52.278721 -0.171308 32,000 331 449 64
2019-12-15 11:53:32 GMT 52.278721 -0.171308 32,000 332 451 0
2019-12-15 11:53:29 GMT 52.273636 -0.166702 32,000 331 449 0
2019-12-15 11:53:26 GMT 52.268948 -0.162441 32,000 331 449 0
2019-12-15 11:53:23 GMT 52.264057 -0.158046 32,000 331 449 0
2019-12-15 11:53:20 GMT 52.257156 -0.151749 32,000 331 449 0
2019-12-15 11:53:17 GMT 52.253166 -0.148158 32,000 332 450 0
2019-12-15 11:53:14 GMT 52.246460 -0.142116 32,000 332 450 64
2019-12-15 11:53:11 GMT 52.239899 -0.136185 32,000 332 450 64
2019-12-15 11:53:08 GMT 52.236786 -0.133438 32,000 332 451 0
2019-12-15 11:53:05 GMT 52.229324 -0.126724 32,000 332 451 0
2019-12-15 11:53:02 GMT 52.226028 -0.123749 32,000 332 451 0
2019-12-15 11:52:59 GMT 52.220581 -0.118866 32,000 332 451 0
2019-12-15 11:52:56 GMT 52.215271 -0.114101 32,000 332 451 -64
2019-12-15 11:52:53 GMT 52.209274 -0.108719 32,000 332 451 -64
2019-12-15 11:52:50 GMT 52.205074 -0.104998 32,000 332 451 -64
2019-12-15 11:52:47 GMT 52.198288 -0.098953 32,000 332 452 -64
2019-12-15 11:52:43 GMT 52.189854 -0.091422 32,025 332 451 0
2019-12-15 11:52:40 GMT 52.185104 -0.087204 32,025 332 451 -64
2019-12-15 11:52:37 GMT 52.181076 -0.083618 32,025 332 451 0
2019-12-15 11:52:34 GMT 52.173981 -0.077286 32,025 332 451 0
2019-12-15 11:52:31 GMT 52.168304 -0.072250 32,025 332 451 0
2019-12-15 11:52:28 GMT 52.163551 -0.067958 32,025 332 451 0
2019-12-15 11:52:25 GMT 52.158096 -0.063095 32,025 332 451 -64
2019-12-15 11:52:22 GMT 52.153702 -0.059204 32,025 332 451 -64
2019-12-15 11:52:19 GMT 52.146748 -0.052970 32,025 332 451 0
2019-12-15 11:52:16 GMT 52.141438 -0.048261 32,025 332 450 0
2019-12-15 11:52:13 GMT 52.130501 -0.038452 32,000 332 451 0
2019-12-15 11:52:10 GMT 52.130501 -0.038452 32,000 332 451 0
2019-12-15 11:52:07 GMT 52.123936 -0.032567 32,000 332 451 0
2019-12-15 11:52:04 GMT 52.119781 -0.028839 32,000 331 449 64
2019-12-15 11:52:01 GMT 52.115204 -0.024719 32,000 332 451 0
2019-12-15 11:51:58 GMT 52.109737 -0.019854 32,000 332 450 0
2019-12-15 11:51:55 GMT 52.102112 -0.012970 32,000 332 450 0
2019-12-15 11:51:52 GMT 52.097534 -0.008850 32,000 332 450 0
2019-12-15 11:51:49 GMT 52.093735 -0.005417 32,000 332 450 0
2019-12-15 11:51:46 GMT 52.086834 0.000785 32,025 331 449 64
2019-12-15 11:51:42 GMT 52.079201 0.007612 32,000 331 449 0
2019-12-15 11:51:39 GMT 52.073799 0.012556 32,000 331 448 0
2019-12-15 11:51:36 GMT 52.068008 0.017853 32,000 331 447 0
2019-12-15 11:51:32 GMT 52.061371 0.024013 32,025 330 445 0
2019-12-15 11:51:26 GMT 52.045715 0.038910 32,025 330 445 0
2019-12-15 11:51:23 GMT 52.045715 0.038910 32,025 330 445 0
2019-12-15 11:51:20 GMT 52.038979 0.045279 32,025 330 445 0
2019-12-15 11:51:17 GMT 52.035439 0.048654 32,025 330 445 0
2019-12-15 11:51:14 GMT 52.024593 0.058934 32,025 330 445 -64
2019-12-15 11:51:11 GMT 52.024593 0.058934 32,025 330 445 -64
2019-12-15 11:51:08 GMT 52.019100 0.064113 32,025 330 445 0
2019-12-15 11:51:05 GMT 52.014305 0.068665 32,025 330 445 0
2019-12-15 11:51:02 GMT 52.008438 0.074158 32,000 330 445 0
2019-12-15 11:50:59 GMT 52.002201 0.080043 32,025 330 444 0
2019-12-15 11:50:56 GMT 51.997971 0.084000 32,025 330 444 0
2019-12-15 11:50:53 GMT 51.992611 0.089068 32,025 330 445 -64
2019-12-15 11:50:50 GMT 51.987446 0.093855 32,025 331 445 -64
2019-12-15 11:50:47 GMT 51.980347 0.100555 32,025 331 445 0
2019-12-15 11:50:44 GMT 51.975529 0.104998 32,025 332 446 0
2019-12-15 11:50:41 GMT 51.970184 0.110016 32,025 331 445 0
2019-12-15 11:50:38 GMT 51.959652 0.119751 32,025 331 445 0
2019-12-15 11:50:35 GMT 51.959652 0.119751 32,025 331 445 0
2019-12-15 11:50:32 GMT 51.954487 0.124538 32,000 331 446 64
2019-12-15 11:50:29 GMT 51.948948 0.129639 32,000 331 446 64
2019-12-15 11:50:26 GMT 51.944801 0.133405 32,000 331 445 64
2019-12-15 11:50:23 GMT 51.939789 0.137939 32,000 331 445 0
2019-12-15 11:50:20 GMT 51.933517 0.143661 32,000 331 445 0
2019-12-15 11:50:17 GMT 51.927067 0.149493 32,000 331 445 0
2019-12-15 11:50:14 GMT 51.921661 0.154419 32,000 331 445 0
2019-12-15 11:50:11 GMT 51.918034 0.157654 32,000 331 446 0
2019-12-15 11:50:08 GMT 51.911224 0.163879 32,000 331 446 64
2019-12-15 11:50:05 GMT 51.900787 0.173264 32,000 331 446 64
2019-12-15 11:50:02 GMT 51.900787 0.173264 32,000 332 446 0
2019-12-15 11:49:59 GMT 51.894295 0.179077 32,000 332 446 0
2019-12-15 11:49:56 GMT 51.889965 0.182953 32,000 332 447 -64
2019-12-15 11:49:53 GMT 51.885635 0.186842 32,000 332 447 -64
2019-12-15 11:49:50 GMT 51.881306 0.190659 32,000 332 446 0
2019-12-15 11:49:47 GMT 51.875153 0.196121 32,000 332 447 -64
2019-12-15 11:49:44 GMT 51.868057 0.202282 32,025 332 446 0
2019-12-15 11:49:38 GMT 51.853142 0.215149 32,025 332 446 0
2019-12-15 11:49:35 GMT 51.845856 0.221434 32,025 332 446 0
2019-12-15 11:49:32 GMT 51.845856 0.221434 32,025 332 446 -64
2019-12-15 11:49:29 GMT 51.841503 0.225220 32,025 333 446 -64
2019-12-15 11:49:26 GMT 51.835171 0.230637 32,025 333 446 0
2019-12-15 11:49:23 GMT 51.830795 0.234350 32,000 325 433 -64
2019-12-15 11:49:20 GMT 51.824604 0.239639 32,025 333 445 64
2019-12-15 11:49:17 GMT 51.819298 0.244141 32,000 333 445 128
2019-12-15 11:49:14 GMT 51.813663 0.248947 32,000 331 442 64
2019-12-15 11:49:11 GMT 51.809464 0.252463 32,000 332 445 128
2019-12-15 11:49:08 GMT 51.803097 0.257950 32,000 324 430 0
2019-12-15 11:49:05 GMT 51.798767 0.261765 32,000 329 440 0
2019-12-15 11:49:02 GMT 51.793602 0.266418 31,975 330 441 0
2019-12-15 11:48:59 GMT 51.788200 0.271606 32,000 325 433 -64
2019-12-15 11:48:56 GMT 51.782894 0.277023 32,000 326 435 -64
2019-12-15 11:48:53 GMT 51.775631 0.285034 32,000 324 431 -64
2019-12-15 11:48:50 GMT 51.772705 0.288465 32,000 323 429 64
2019-12-15 11:48:47 GMT 51.767166 0.295220 32,000 323 430 64
2019-12-15 11:48:44 GMT 51.763062 0.300217 32,000 323 430 64
2019-12-15 11:48:41 GMT 51.758286 0.305984 32,000 323 430 64
2019-12-15 11:48:38 GMT 51.749096 0.317230 32,000 323 430 -64
2019-12-15 11:48:35 GMT 51.749096 0.317230 32,000 323 431 -128
2019-12-15 11:48:32 GMT 51.742439 0.325317 32,000 323 431 -128
2019-12-15 11:48:29 GMT 51.739273 0.329208 32,000 324 430 -64
2019-12-15 11:48:26 GMT 51.733688 0.335922 32,000 324 430 -64
2019-12-15 11:48:23 GMT 51.728287 0.342484 32,000 324 430 -64
2019-12-15 11:48:20 GMT 51.724319 0.347257 32,000 324 432 0
2019-12-15 11:48:17 GMT 51.719864 0.352631 32,000 324 430 0
2019-12-15 11:48:14 GMT 51.716232 0.357056 32,000 324 430 0
2019-12-15 11:48:11 GMT 51.711136 0.363217 32,000 324 430 0
2019-12-15 11:48:08 GMT 51.705105 0.370560 32,000 324 430 0
2019-12-15 11:48:05 GMT 51.696487 0.380884 32,000 324 430 0
2019-12-15 11:47:59 GMT 51.690628 0.388010 32,000 324 430 0
2019-12-15 11:47:56 GMT 51.686142 0.393355 32,025 324 430 0
2019-12-15 11:47:53 GMT 51.682343 0.397949 32,025 324 430 0
2019-12-15 11:47:50 GMT 51.677536 0.403673 32,025 324 430 -64
2019-12-15 11:47:47 GMT 51.667694 0.415550 32,025 324 430 -64
2019-12-15 11:47:44 GMT 51.667694 0.415550 32,025 324 430 0
2019-12-15 11:47:41 GMT 51.662277 0.422058 32,025 324 430 0
2019-12-15 11:47:38 GMT 51.656738 0.428772 32,025 324 430 0
2019-12-15 11:47:35 GMT 51.653549 0.432624 32,025 324 430 0
2019-12-15 11:47:32 GMT 51.649242 0.437775 32,025 324 430 64
2019-12-15 11:47:29 GMT 51.645126 0.442719 32,025 324 430 64
2019-12-15 11:47:26 GMT 51.637436 0.451924 32,000 324 430 64
2019-12-15 11:47:23 GMT 51.627548 0.463791 32,000 324 430 0
2019-12-15 11:47:20 GMT 51.627548 0.463791 32,000 324 430 0
2019-12-15 11:47:17 GMT 51.624523 0.467377 32,000 324 430 0
2019-12-15 11:47:14 GMT 51.619766 0.473154 32,000 324 430 0
2019-12-15 11:47:11 GMT 51.614979 0.478821 32,000 324 430 0
2019-12-15 11:47:08 GMT 51.605255 0.490450 32,000 324 430 0
2019-12-15 11:47:05 GMT 51.601109 0.495453 32,000 324 430 0
2019-12-15 11:46:59 GMT 51.595848 0.501709 32,000 324 430 0
2019-12-15 11:46:56 GMT 51.590912 0.507660 32,000 324 429 0
2019-12-15 11:46:53 GMT 51.585526 0.514130 32,000 324 429 0
2019-12-15 11:46:50 GMT 51.580715 0.519867 32,000 324 429 0
2019-12-15 11:46:47 GMT 51.577087 0.524216 32,000 324 429 0
2019-12-15 11:46:44 GMT 51.572803 0.529404 32,000 324 429 0
2019-12-15 11:46:41 GMT 51.566284 0.537186 32,000 324 429 0
2019-12-15 11:46:38 GMT 51.563278 0.540780 32,000 324 429 64
2019-12-15 11:46:35 GMT 51.557877 0.547312 32,000 324 429 64
2019-12-15 11:46:32 GMT 51.553902 0.552063 32,000 324 429 0
2019-12-15 11:46:29 GMT 51.548969 0.557938 32,000 324 427 0
2019-12-15 11:46:26 GMT 51.543243 0.564804 32,000 324 429 0
2019-12-15 11:46:23 GMT 51.539425 0.569382 32,000 324 429 0
2019-12-15 11:46:20 GMT 51.533249 0.576782 32,000 324 430 0
2019-12-15 11:46:17 GMT 51.525146 0.586507 32,000 324 430 0
2019-12-15 11:46:14 GMT 51.520386 0.592194 32,000 324 429 0
2019-12-15 11:46:11 GMT 51.520386 0.592194 32,000 324 429 0
2019-12-15 11:46:08 GMT 51.514797 0.598831 32,000 324 429 0
2019-12-15 11:46:05 GMT 51.510841 0.603638 32,000 324 429 0
2019-12-15 11:46:02 GMT 51.506233 0.609131 32,000 324 429 0
2019-12-15 11:45:59 GMT 51.499878 0.616719 32,000 324 429 0
2019-12-15 11:45:56 GMT 51.491756 0.626450 32,000 324 428 0
2019-12-15 11:45:53 GMT 51.486374 0.632902 32,000 324 429 0
2019-12-15 11:45:50 GMT 51.486374 0.632902 32,000 324 429 0
2019-12-15 11:45:47 GMT 51.480957 0.639343 32,000 324 429 0
2019-12-15 11:45:44 GMT 51.476166 0.645001 32,000 324 428 0
2019-12-15 11:45:41 GMT 51.470444 0.651756 32,000 324 428 0
2019-12-15 11:45:38 GMT 51.467735 0.654984 32,000 324 428 0
2019-12-15 11:45:35 GMT 51.462982 0.660664 32,000 324 428 0
2019-12-15 11:45:32 GMT 51.452652 0.672913 32,000 324 427 0
2019-12-15 11:45:29 GMT 51.449020 0.677292 32,000 324 427 0
2019-12-15 11:45:23 GMT 51.443161 0.684270 32,000 324 427 -64
2019-12-15 11:45:20 GMT 51.439991 0.688019 32,000 324 427 -64
2019-12-15 11:45:17 GMT 51.434280 0.694811 32,000 324 426 -64
2019-12-15 11:45:14 GMT 51.428585 0.701599 32,000 324 427 -64
2019-12-15 11:45:11 GMT 51.424805 0.706169 32,000 324 426 0
2019-12-15 11:45:08 GMT 51.420227 0.711587 32,000 324 426 64
2019-12-15 11:45:05 GMT 51.413921 0.719147 32,000 324 426 64
2019-12-15 11:45:02 GMT 51.406658 0.727844 32,000 324 426 0
2019-12-15 11:44:59 GMT 51.406658 0.727844 32,000 324 426 0
2019-12-15 11:44:56 GMT 51.399536 0.736237 32,000 324 426 0
2019-12-15 11:44:53 GMT 51.396233 0.740204 32,000 324 425 0
2019-12-15 11:44:50 GMT 51.390564 0.746996 32,000 324 426 0
2019-12-15 11:44:47 GMT 51.386780 0.751495 32,000 324 425 0
2019-12-15 11:44:44 GMT 51.377151 0.762956 32,000 324 425 0
2019-12-15 11:44:41 GMT 51.377151 0.762956 32,000 324 425 0
2019-12-15 11:44:38 GMT 51.370972 0.770231 32,000 324 425 0
2019-12-15 11:44:35 GMT 51.366253 0.775909 32,000 324 426 0
2019-12-15 11:44:32 GMT 51.363735 0.778885 32,000 324 426 0
2019-12-15 11:44:29 GMT 51.357285 0.786562 32,000 324 426 0
2019-12-15 11:44:26 GMT 51.353168 0.791397 32,000 324 426 0
2019-12-15 11:44:23 GMT 51.350006 0.795173 32,000 324 426 0
2019-12-15 11:44:20 GMT 51.344147 0.802002 32,000 324 425 0
2019-12-15 11:44:17 GMT 51.334030 0.813953 32,000 324 426 0
2019-12-15 11:44:14 GMT 51.334030 0.813953 32,000 324 427 0
2019-12-15 11:44:11 GMT 51.329132 0.819743 32,000 324 426 0
2019-12-15 11:44:08 GMT 51.324123 0.825729 32,000 324 426 0
2019-12-15 11:44:05 GMT 51.320297 0.830210 32,000 324 426 64
2019-12-15 11:44:02 GMT 51.315720 0.835629 32,000 324 427 -64
2019-12-15 11:43:59 GMT 51.310226 0.842236 31,975 324 426 64
2019-12-15 11:43:56 GMT 51.305641 0.847626 31,975 324 426 -64
2019-12-15 11:43:53 GMT 51.301529 0.852480 31,975 324 427 -64
2019-12-15 11:43:50 GMT 51.295818 0.859222 31,975 324 426 -64
2019-12-15 11:43:47 GMT 51.287750 0.868811 32,000 324 426 -64
2019-12-15 11:43:41 GMT 51.277634 0.880762 32,000 324 426 -64
2019-12-15 11:43:38 GMT 51.277634 0.880762 32,000 324 426 -64
2019-12-15 11:43:35 GMT 51.272263 0.887146 32,000 324 427 -64
2019-12-15 11:43:32 GMT 51.267975 0.892194 32,000 324 427 -64
2019-12-15 11:43:29 GMT 51.263535 0.897390 32,000 324 427 -64
2019-12-15 11:43:26 GMT 51.254974 0.907486 32,000 324 426 0
2019-12-15 11:43:20 GMT 51.248615 0.914917 32,000 324 427 -64
2019-12-15 11:43:17 GMT 51.243164 0.921218 32,025 324 427 -64
2019-12-15 11:43:14 GMT 51.239182 0.925821 32,000 324 427 0
2019-12-15 11:43:11 GMT 51.234413 0.931473 32,000 324 426 0
2019-12-15 11:43:08 GMT 51.228874 0.937958 32,025 324 426 0
2019-12-15 11:43:05 GMT 51.224266 0.943375 32,025 324 426 -64
2019-12-15 11:43:02 GMT 51.220642 0.947719 32,025 324 426 -64
2019-12-15 11:42:59 GMT 51.214165 0.955353 32,025 324 426 -64
2019-12-15 11:42:56 GMT 51.211166 0.958928 32,025 324 426 0
2019-12-15 11:42:53 GMT 51.207695 0.963058 32,025 324 426 -64
2019-12-15 11:42:50 GMT 51.199780 0.972366 32,025 324 426 -64
2019-12-15 11:42:47 GMT 51.195557 0.977412 32,025 324 427 128
2019-12-15 11:42:44 GMT 51.190933 0.982831 32,025 324 427 0
2019-12-15 11:42:41 GMT 51.187443 0.986862 32,025 324 427 128
2019-12-15 11:42:38 GMT 51.182510 0.992584 32,000 324 427 128
2019-12-15 11:42:34 GMT 51.175014 1.001282 32,000 324 427 64
2019-12-15 11:42:28 GMT 51.166580 1.011113 32,000 324 427 -64
2019-12-15 11:42:24 GMT 51.158936 1.020021 32,000 324 427 -64
2019-12-15 11:42:20 GMT 51.153507 1.026306 32,000 324 427 0
2019-12-15 11:42:17 GMT 51.150009 1.030414 32,000 324 426 0
2019-12-15 11:42:14 GMT 51.144291 1.037064 32,000 324 427 0
2019-12-15 11:42:11 GMT 51.136185 1.046596 32,000 324 426 0
2019-12-15 11:42:05 GMT 51.129364 1.054613 32,000 324 426 0
2019-12-15 11:42:02 GMT 51.124786 1.060032 32,000 324 427 0
2019-12-15 11:41:59 GMT 51.120037 1.065598 32,000 324 427 -64
2019-12-15 11:41:56 GMT 51.116867 1.069311 32,000 324 425 0
2019-12-15 11:41:53 GMT 51.110641 1.076586 32,025 324 427 0
2019-12-15 11:41:50 GMT 51.105743 1.082376 32,000 324 427 64
2019-12-15 11:41:44 GMT 51.092194 1.098113 32,000 324 427 64
2019-12-15 11:41:41 GMT 51.087124 1.104050 32,000 324 427 64
2019-12-15 11:41:38 GMT 51.087124 1.104050 32,000 324 427 0
2019-12-15 11:41:35 GMT 51.081390 1.110807 32,000 324 427 0
2019-12-15 11:41:32 GMT 51.078232 1.114502 32,000 324 427 0
2019-12-15 11:41:29 GMT 51.072041 1.121750 32,000 324 427 0
2019-12-15 11:41:26 GMT 51.068848 1.125431 32,000 324 426 0
2019-12-15 11:41:23 GMT 51.063629 1.131592 32,025 324 425 0
2019-12-15 11:41:20 GMT 51.057564 1.138611 32,025 324 427 0
2019-12-15 11:41:17 GMT 51.054428 1.142355 32,025 324 425 0
2019-12-15 11:41:14 GMT 51.049164 1.148442 32,025 324 425 0
2019-12-15 11:41:11 GMT 51.042847 1.155866 32,025 324 426 0
2019-12-15 11:41:08 GMT 51.039688 1.159577 32,025 324 426 0
2019-12-15 11:41:05 GMT 51.033325 1.166926 32,025 324 425 0
2019-12-15 11:41:02 GMT 51.030144 1.170654 32,025 324 425 0
2019-12-15 11:40:59 GMT 51.023674 1.178207 32,025 324 425 64
2019-12-15 11:40:56 GMT 51.020645 1.181698 32,000 324 425 64
2019-12-15 11:40:53 GMT 51.015247 1.187973 32,025 324 425 64
2019-12-15 11:40:50 GMT 51.011444 1.192388 32,000 324 425 64
2019-12-15 11:40:47 GMT 51.006866 1.197732 32,000 324 425 64
2019-12-15 11:40:44 GMT 51.000641 1.204859 32,000 324 425 -64
2019-12-15 11:40:41 GMT 50.996208 1.210022 32,000 324 424 64
2019-12-15 11:40:38 GMT 50.991119 1.215919 32,000 324 425 -64
2019-12-15 11:40:34 GMT 50.986542 1.221190 32,000 324 425 64
2019-12-15 11:40:31 GMT 50.979870 1.228943 32,000 324 425 64
2019-12-15 11:40:28 GMT 50.975098 1.234403 32,000 324 425 0
2019-12-15 11:40:25 GMT 50.968460 1.242123 32,000 324 424 -64
2019-12-15 11:40:22 GMT 50.966904 1.243979 32,000 324 425 0
2019-12-15 11:40:19 GMT 50.957336 1.254965 32,000 325 426 64
2019-12-15 11:40:16 GMT 50.950836 1.262388 32,025 324 424 -64
2019-12-15 11:40:13 GMT 50.950836 1.262388 32,000 325 426 64
2019-12-15 11:40:10 GMT 50.947655 1.266098 32,000 324 425 64
2019-12-15 11:40:07 GMT 50.942551 1.271964 32,000 324 424 -64
2019-12-15 11:40:04 GMT 50.934677 1.281095 32,000 324 424 -64
2019-12-15 11:39:58 GMT 50.928818 1.287924 32,000 324 424 -64
2019-12-15 11:39:55 GMT 50.923492 1.294250 32,025 324 424 0
2019-12-15 11:39:52 GMT 50.914169 1.305072 32,000 324 424 0
2019-12-15 11:39:49 GMT 50.914169 1.305072 32,025 324 424 0
2019-12-15 11:39:46 GMT 50.909760 1.310272 32,025 324 424 0
2019-12-15 11:39:43 GMT 50.904099 1.316875 32,000 324 425 0
2019-12-15 11:39:40 GMT 50.901077 1.320364 32,025 324 423 0
2019-12-15 11:39:37 GMT 50.895859 1.326376 32,000 324 422 0
2019-12-15 11:39:34 GMT 50.889038 1.334171 32,025 324 424 -64
2019-12-15 11:39:31 GMT 50.885551 1.338196 32,025 324 424 0
2019-12-15 11:39:27 GMT 50.879410 1.345291 32,025 324 422 0
2019-12-15 11:39:21 GMT 50.870235 1.355896 32,025 324 423 0
2019-12-15 11:39:18 GMT 50.865463 1.361340 32,025 324 423 0
2019-12-15 11:39:15 GMT 50.861710 1.365719 32,025 324 423 0
2019-12-15 11:39:12 GMT 50.855072 1.373439 32,000 324 422 0
2019-12-15 11:39:09 GMT 50.852417 1.376483 32,025 324 423 0
2019-12-15 11:39:06 GMT 50.845798 1.384201 32,000 324 422 64
2019-12-15 11:39:03 GMT 50.842667 1.387840 32,025 324 422 0
2019-12-15 11:39:00 GMT 50.837448 1.393853 32,025 324 422 0
2019-12-15 11:38:57 GMT 50.833191 1.398827 32,000 324 422 0
2019-12-15 11:38:54 GMT 50.828156 1.404648 32,000 324 422 64
2019-12-15 11:38:50 GMT 50.820602 1.413302 32,000 324 422 64
2019-12-15 11:38:47 GMT 50.815750 1.418944 32,000 324 422 64
2019-12-15 11:38:44 GMT 50.812557 1.422577 32,000 324 422 0
2019-12-15 11:38:40 GMT 50.806274 1.429856 32,000 324 422 0
2019-12-15 11:38:37 GMT 50.801247 1.435699 32,000 324 419 64
2019-12-15 11:38:34 GMT 50.796684 1.440964 32,000 324 422 0
2019-12-15 11:38:31 GMT 50.785187 1.454163 32,000 324 422 0
2019-12-15 11:38:28 GMT 50.781090 1.458893 32,000 324 421 0
2019-12-15 11:38:21 GMT 50.776852 1.463776 32,000 324 421 0
2019-12-15 11:38:18 GMT 50.772289 1.469040 32,000 324 421 0
2019-12-15 11:38:15 GMT 50.766632 1.475508 32,000 325 418 896
2019-12-15 11:38:12 GMT 50.760498 1.482560 32,000 324 420 64
2019-12-15 11:38:09 GMT 50.758327 1.485138 32,000 324 420 64
2019-12-15 11:38:06 GMT 50.747944 1.497040 31,650 324 419 64
2019-12-15 11:38:00 GMT 50.742920 1.502752 31,975 324 419 64
2019-12-15 11:37:57 GMT 50.738262 1.508179 31,975 324 419 64
2019-12-15 11:37:54 GMT 50.734024 1.513062 31,975 324 419 64
2019-12-15 11:37:51 GMT 50.728683 1.519157 31,975 324 419 0
2019-12-15 11:37:48 GMT 50.723366 1.525269 31,975 324 419 0
2019-12-15 11:37:45 GMT 50.717743 1.531702 31,975 324 419 -64
2019-12-15 11:37:42 GMT 50.715218 1.534576 32,000 325 419 -128
2019-12-15 11:37:38 GMT 50.706573 1.544396 32,000 325 419 0
2019-12-15 11:37:35 GMT 50.704231 1.547089 32,000 325 419 0
2019-12-15 11:37:32 GMT 50.697762 1.554337 31,625 327 424 1088
2019-12-15 11:37:29 GMT 50.694130 1.558380 31,975 325 419 384
2019-12-15 11:37:26 GMT 50.690689 1.562286 31,975 325 418 512
2019-12-15 11:37:23 GMT 50.680344 1.574088 31,925 324 418 960
2019-12-15 11:37:20 GMT 50.680344 1.574088 31,875 324 417 1152
2019-12-15 11:37:17 GMT 50.674255 1.581066 31,800 324 417 1280
2019-12-15 11:37:14 GMT 50.669724 1.586223 31,750 324 417 1344
2019-12-15 11:37:11 GMT 50.666340 1.590197 31,650 324 417 1408
2019-12-15 11:37:08 GMT 50.659679 1.597991 31,650 325 418 1344
2019-12-15 11:37:05 GMT 50.655579 1.602631 31,550 325 420 1344
2019-12-15 11:37:02 GMT 50.653244 1.605305 31,525 325 421 1280
2019-12-15 11:36:59 GMT 50.646057 1.613183 31,425 326 422 1216
2019-12-15 11:36:56 GMT 50.636353 1.623519 31,350 327 423 1216
2019-12-15 11:36:53 GMT 50.636353 1.623519 31,275 327 424 1152
2019-12-15 11:36:50 GMT 50.632122 1.627981 31,125 330 427 832
2019-12-15 11:36:47 GMT 50.626022 1.634216 31,200 329 427 768
2019-12-15 11:36:44 GMT 50.620903 1.639413 31,175 329 427 768
2019-12-15 11:36:41 GMT 50.616211 1.643974 31,125 331 430 1216
2019-12-15 11:36:37 GMT 50.605961 1.653888 30,975 330 429 960
2019-12-15 11:36:34 GMT 50.605961 1.653888 30,950 330 429 960
2019-12-15 11:36:31 GMT 50.593735 1.664935 30,975 331 430 1152
2019-12-15 11:36:28 GMT 50.593735 1.664935 30,925 332 432 1408
2019-12-15 11:36:24 GMT 50.587105 1.670664 30,575 333 435 1792
2019-12-15 11:36:18 GMT 50.579361 1.677222 30,700 333 435 1728
2019-12-15 11:36:14 GMT 50.571671 1.683583 30,525 334 441 1984
2019-12-15 11:36:11 GMT 50.564667 1.689148 30,325 335 443 1920
2019-12-15 11:36:08 GMT 50.553680 1.697677 30,275 335 444 1856
2019-12-15 11:36:05 GMT 50.548096 1.701842 30,200 337 450 1280
2019-12-15 11:36:02 GMT 50.548096 1.701842 30,075 336 448 1472
2019-12-15 11:35:57 GMT 50.540417 1.707483 30,075 336 448 1472
2019-12-15 11:35:53 GMT 50.533806 1.712234 29,950 337 451 1280
2019-12-15 11:35:50 GMT 50.525238 1.718098 28,950 339 456 1408
2019-12-15 11:35:47 GMT 50.520443 1.721290 29,825 339 454 1344
2019-12-15 11:35:44 GMT 50.513855 1.725576 29,825 338 454 1280
2019-12-15 11:35:41 GMT 50.508957 1.728612 29,725 339 456 1408
2019-12-15 11:35:37 GMT 50.497635 1.735691 29,575 339 456 1408
2019-12-15 11:35:34 GMT 50.495445 1.737028 29,525 339 456 1408
2019-12-15 11:35:31 GMT 50.489960 1.740393 28,900 339 456 1344
2019-12-15 11:35:28 GMT 50.481384 1.745713 29,025 339 457 1408
2019-12-15 11:35:24 GMT 50.474304 1.750151 29,275 339 456 1408
2019-12-15 11:35:21 GMT 50.467651 1.754249 29,225 339 457 1408
2019-12-15 11:35:18 GMT 50.463913 1.756511 29,200 339 457 1472
2019-12-15 11:35:15 GMT 50.458015 1.760188 28,875 339 456 1344
2019-12-15 11:35:12 GMT 50.453705 1.762872 29,050 339 456 1408
2019-12-15 11:35:09 GMT 50.447250 1.766847 29,000 339 456 1408
2019-12-15 11:35:06 GMT 50.440189 1.771248 28,875 339 456 1344
2019-12-15 11:35:03 GMT 50.432972 1.775702 28,725 339 456 1472
2019-12-15 11:35:00 GMT 50.428829 1.778301 28,425 339 456 1344
2019-12-15 11:34:57 GMT 50.421192 1.782977 28,000 339 456 1408
2019-12-15 11:34:53 GMT 50.415516 1.786540 28,500 339 455 1472
2019-12-15 11:34:49 GMT 50.406876 1.791856 28,525 339 454 192
2019-12-15 11:34:45 GMT 50.397266 1.797749 28,375 339 456 1472
2019-12-15 11:34:42 GMT 50.392567 1.800644 28,300 339 455 1472
2019-12-15 11:34:39 GMT 50.387466 1.803782 28,250 339 456 1408
2019-12-15 11:34:35 GMT 50.380043 1.808364 28,025 339 454 320
2019-12-15 11:34:29 GMT 50.369057 1.815194 28,025 339 454 448
2019-12-15 11:34:26 GMT 50.355370 1.823656 28,000 339 454 192
2019-12-15 11:34:23 GMT 50.355370 1.823656 28,000 339 454 64
2019-12-15 11:34:17 GMT 50.345036 1.830040 28,000 339 453 64
2019-12-15 11:34:14 GMT 50.336472 1.835295 28,000 339 453 128
2019-12-15 11:34:10 GMT 50.330231 1.839096 28,000 339 453 320
2019-12-15 11:34:07 GMT 50.317757 1.846742 27,925 339 453 1088
2019-12-15 11:34:03 GMT 50.317757 1.846742 27,925 339 453 832
2019-12-15 11:33:59 GMT 50.310539 1.851196 27,675 339 447 1088
2019-12-15 11:33:56 GMT 50.304859 1.854611 27,800 339 453 1664
2019-12-15 11:33:53 GMT 50.297058 1.859436 27,075 339 453 1792
2019-12-15 11:33:49 GMT 50.288498 1.864640 27,625 339 453 1856
2019-12-15 11:33:45 GMT 50.280533 1.869555 27,475 339 453 1792
2019-12-15 11:33:41 GMT 50.275635 1.872518 27,400 339 453 1536
2019-12-15 11:33:38 GMT 50.269016 1.876658 27,350 339 453 1216
2019-12-15 11:33:34 GMT 50.261032 1.881553 27,075 339 452 1024
2019-12-15 11:33:29 GMT 50.249542 1.888564 27,150 339 447 1088
2019-12-15 11:33:24 GMT 50.241734 1.893360 27,050 339 451 1152
2019-12-15 11:33:21 GMT 50.235168 1.897382 26,975 339 450 1216
2019-12-15 11:33:18 GMT 50.228561 1.901451 26,950 339 450 1280
2019-12-15 11:33:15 GMT 50.224510 1.903901 26,900 339 449 1280
2019-12-15 11:33:12 GMT 50.209991 1.912850 26,725 339 449 1280
2019-12-15 11:33:09 GMT 50.205006 1.915927 26,725 339 448 1280
2019-12-15 11:33:06 GMT 50.195927 1.921494 26,575 339 447 1024
2019-12-15 11:33:00 GMT 50.195927 1.921494 26,550 339 447 1088
2019-12-15 11:32:56 GMT 50.187057 1.926944 26,500 339 447 1024
2019-12-15 11:32:52 GMT 50.180145 1.931144 25,875 339 444 1536
2019-12-15 11:32:49 GMT 50.174377 1.934678 26,275 339 445 1088
2019-12-15 11:32:46 GMT 50.166550 1.939521 26,275 339 445 1280
2019-12-15 11:32:40 GMT 50.148724 1.950370 26,050 339 444 1536
2019-12-15 11:32:37 GMT 50.144897 1.952675 26,025 339 444 1536
2019-12-15 11:32:31 GMT 50.140671 1.955269 25,975 339 444 1344
2019-12-15 11:32:28 GMT 50.133041 1.959903 25,850 339 443 1152
2019-12-15 11:32:23 GMT 50.124283 1.965217 25,800 339 442 1280
2019-12-15 11:32:18 GMT 50.114365 1.971251 25,450 339 441 1408
2019-12-15 11:32:12 GMT 50.102966 1.978190 25,550 339 441 1472
2019-12-15 11:32:09 GMT 50.096119 1.982290 25,225 339 438 1280
2019-12-15 11:32:05 GMT 50.089092 1.986521 25,325 339 440 1664
2019-12-15 11:31:59 GMT 50.077332 1.993657 25,025 339 438 1152
2019-12-15 11:31:56 GMT 50.070740 1.997705 25,125 339 438 1152
2019-12-15 11:31:48 GMT 50.056969 2.006193 24,875 339 438 1216
2019-12-15 11:31:45 GMT 50.052429 2.008908 25,000 339 438 1152
2019-12-15 11:31:42 GMT 50.045471 2.013172 24,875 339 436 1280
2019-12-15 11:31:39 GMT 50.040585 2.016140 24,775 339 434 1536
2019-12-15 11:31:35 GMT 50.032158 2.021262 24,200 339 433 1472
2019-12-15 11:31:31 GMT 50.025375 2.025315 24,600 339 435 1536
2019-12-15 11:31:28 GMT 50.020889 2.028062 24,200 339 433 1472
2019-12-15 11:31:25 GMT 50.014709 2.031820 24,200 339 433 1472
2019-12-15 11:31:22 GMT 50.009857 2.034772 24,350 339 433 1472
2019-12-15 11:31:19 GMT 50.004459 2.038038 24,300 339 433 1472
2019-12-15 11:31:16 GMT 49.993469 2.044686 23,825 339 427 1472
2019-12-15 11:31:13 GMT 49.983788 2.050583 24,075 339 431 1344
2019-12-15 11:31:08 GMT 49.983788 2.050583 23,925 339 430 1344
2019-12-15 11:31:03 GMT 49.972092 2.057624 23,875 339 429 1408
2019-12-15 11:31:00 GMT 49.961746 2.063912 23,650 339 429 1472
2019-12-15 11:30:52 GMT 49.954742 2.068176 23,675 339 428 1536
2019-12-15 11:30:49 GMT 49.948837 2.071718 23,575 339 427 1536
2019-12-15 11:30:46 GMT 49.943336 2.075080 23,500 339 426 1408
2019-12-15 11:30:42 GMT 49.929741 2.083320 23,350 339 425 1344
2019-12-15 11:30:39 GMT 49.929741 2.083320 23,325 339 425 1344
2019-12-15 11:30:36 GMT 49.922249 2.087848 23,250 339 423 1792
2019-12-15 11:30:33 GMT 49.917313 2.090891 23,175 339 423 1600
2019-12-15 11:30:30 GMT 49.913635 2.093112 23,125 339 423 1728
2019-12-15 11:30:27 GMT 49.906540 2.097377 22,825 339 423 1856
2019-12-15 11:30:24 GMT 49.902191 2.099979 22,825 339 423 1856
2019-12-15 11:30:21 GMT 49.889988 2.107371 22,650 339 422 1856
2019-12-15 11:30:17 GMT 49.889988 2.107371 22,450 339 422 1856
2019-12-15 11:30:13 GMT 49.883282 2.111453 22,000 339 421 1664
2019-12-15 11:30:10 GMT 49.876160 2.115759 22,500 339 421 1664
2019-12-15 11:30:05 GMT 49.867500 2.121029 22,050 339 412 2048
2019-12-15 11:30:02 GMT 49.852844 2.129902 22,225 339 420 1664
2019-12-15 11:29:58 GMT 49.852844 2.129902 22,125 339 418 1664
2019-12-15 11:29:54 GMT 49.848511 2.132535 21,875 339 418 1664
2019-12-15 11:29:51 GMT 49.840622 2.137347 21,950 339 418 1664
2019-12-15 11:29:44 GMT 49.825516 2.146526 21,725 339 415 1472
2019-12-15 11:29:37 GMT 49.818192 2.150935 21,625 339 415 1408
2019-12-15 11:29:34 GMT 49.809998 2.155922 21,500 339 412 1984
2019-12-15 11:29:30 GMT 49.805008 2.158886 21,425 339 413 1920
2019-12-15 11:29:24 GMT 49.792229 2.166682 21,200 339 412 1984
2019-12-15 11:29:21 GMT 49.788849 2.168716 21,050 339 412 1984
2019-12-15 11:29:17 GMT 49.781937 2.172908 21,000 339 412 1984
2019-12-15 11:29:12 GMT 49.772163 2.178782 20,125 339 412 2048
2019-12-15 11:29:04 GMT 49.759220 2.186576 20,550 340 404 1984
2019-12-15 11:29:00 GMT 49.750191 2.191995 20,400 339 410 1920
2019-12-15 11:28:52 GMT 49.737076 2.199940 19,950 339 410 2112
2019-12-15 11:28:48 GMT 49.731289 2.203427 19,950 339 410 2048
2019-12-15 11:28:41 GMT 49.718903 2.210854 19,800 339 409 2048
2019-12-15 11:28:38 GMT 49.712761 2.214562 19,650 339 408 1856
2019-12-15 11:28:31 GMT 49.699722 2.222346 19,325 339 408 1856
2019-12-15 11:28:28 GMT 49.695351 2.224954 19,375 339 407 1984
2019-12-15 11:28:25 GMT 49.683746 2.231815 19,125 339 407 2048
2019-12-15 11:28:22 GMT 49.683746 2.231815 19,150 339 407 2048
2019-12-15 11:28:16 GMT 49.665848 2.242440 18,500 340 401 2048
2019-12-15 11:28:11 GMT 49.665848 2.242440 18,250 340 402 2048
2019-12-15 11:28:07 GMT 49.655731 2.248367 18,575 340 404 1984
2019-12-15 11:28:04 GMT 49.651703 2.250752 18,525 340 403 1984
2019-12-15 11:28:01 GMT 49.639526 2.257907 18,250 340 402 2048
2019-12-15 11:27:56 GMT 49.639526 2.257907 18,300 340 402 2048
2019-12-15 11:27:52 GMT 49.632019 2.262244 17,950 340 401 2048
2019-12-15 11:27:47 GMT 49.624222 2.266821 18,050 340 400 2048
2019-12-15 11:27:43 GMT 49.616592 2.271207 17,500 340 398 1984
2019-12-15 11:27:40 GMT 49.612068 2.273799 17,650 340 400 2112
2019-12-15 11:27:34 GMT 49.598373 2.281615 17,475 340 398 1984
2019-12-15 11:27:30 GMT 49.592518 2.285008 17,450 340 397 1984
2019-12-15 11:27:26 GMT 49.586655 2.288337 17,250 340 396 2048
2019-12-15 11:27:22 GMT 49.579762 2.292208 17,100 340 393 1920
2019-12-15 11:27:15 GMT 49.568825 2.298444 16,900 340 393 1984
2019-12-15 11:27:10 GMT 49.558731 2.304165 16,750 340 391 1664
2019-12-15 11:27:06 GMT 49.551956 2.307996 16,600 341 390 1664
2019-12-15 11:27:01 GMT 49.538891 2.315220 16,300 341 388 2048
2019-12-15 11:26:54 GMT 49.533352 2.318338 16,225 341 387 2560
2019-12-15 11:26:48 GMT 49.523254 2.323970 15,975 340 388 3136
2019-12-15 11:26:45 GMT 49.517395 2.327295 15,750 340 389 2944
2019-12-15 11:26:39 GMT 49.505745 2.333927 15,425 340 389 2368
2019-12-15 11:26:34 GMT 49.499695 2.337341 15,300 340 388 1920
2019-12-15 11:26:28 GMT 49.487217 2.344319 15,150 342 384 1408
2019-12-15 11:26:24 GMT 49.483017 2.346593 15,000 342 383 1536
2019-12-15 11:26:17 GMT 49.468781 2.353965 14,825 341 379 2048
2019-12-15 11:26:13 GMT 49.464455 2.356270 14,725 340 377 2176
2019-12-15 11:26:10 GMT 49.458527 2.359531 14,325 345 378 2368
2019-12-15 11:26:05 GMT 49.449741 2.364584 14,400 356 388 2624
2019-12-15 11:25:59 GMT 49.433121 2.372830 14,025 346 379 2432
2019-12-15 11:25:55 GMT 49.429550 2.374276 13,850 346 379 2432
2019-12-15 11:25:52 GMT 49.429550 2.374276 13,925 347 380 2432
2019-12-15 11:25:47 GMT 49.417576 2.378034 13,425 356 389 2880
2019-12-15 11:25:44 GMT 49.414948 2.378681 13,425 356 389 2880
2019-12-15 11:25:39 GMT 49.407120 2.379949 13,400 358 390 3008
2019-12-15 11:25:35 GMT 49.398102 2.380653 12,900 359 392 3200
2019-12-15 11:25:32 GMT 49.392483 2.380708 13,100 0 394 3136
2019-12-15 11:25:28 GMT 49.384056 2.380708 12,650 0 395 2752
2019-12-15 11:25:22 GMT 49.374001 2.380708 12,500 0 393 1664
2019-12-15 11:25:12 GMT 49.357475 2.380492 12,225 1 388 896
2019-12-15 11:25:04 GMT 49.341370 2.379986 12,125 1 383 1344
2019-12-15 11:25:01 GMT 49.336575 2.379841 12,050 1 380 1408
2019-12-15 11:24:58 GMT 49.332733 2.379667 12,000 1 378 1280
2019-12-15 11:24:53 GMT 49.319347 2.379191 11,875 1 369 704
2019-12-15 11:24:48 GMT 49.314041 2.379046 11,850 1 367 704
2019-12-15 11:24:42 GMT 49.300961 2.378685 11,650 0 357 1216
2019-12-15 11:24:38 GMT 49.298309 2.378681 11,675 0 353 1472
2019-12-15 11:24:33 GMT 49.288971 2.378610 11,550 0 349 1472
2019-12-15 11:24:30 GMT 49.283504 2.378685 11,475 0 346 1472
2019-12-15 11:24:23 GMT 49.273449 2.378974 11,225 0 340 1472
2019-12-15 11:24:18 GMT 49.265720 2.378974 11,175 3 338 1408
2019-12-15 11:24:12 GMT 49.256691 2.378034 10,950 7 335 896
2019-12-15 11:24:07 GMT 49.249428 2.376589 11,000 9 331 704
2019-12-15 11:24:03 GMT 49.241234 2.374637 10,950 9 325 512
2019-12-15 11:23:58 GMT 49.233856 2.372695 10,875 9 314 960
2019-12-15 11:23:52 GMT 49.223099 2.369878 10,775 9 309 1856
2019-12-15 11:23:45 GMT 49.215446 2.367843 10,575 9 308 2368
2019-12-15 11:23:42 GMT 49.212791 2.367192 10,500 9 308 2560
2019-12-15 11:23:38 GMT 49.205200 2.365159 10,225 9 307 2304
2019-12-15 11:23:35 GMT 49.201996 2.364314 10,125 9 306 2368
2019-12-15 11:23:32 GMT 49.198360 2.363362 10,125 9 306 2368
2019-12-15 11:23:29 GMT 49.193893 2.362201 9,900 9 305 2432
2019-12-15 11:23:26 GMT 49.191101 2.361497 9,775 9 304 2496
2019-12-15 11:23:22 GMT 49.184464 2.359737 9,675 9 303 2496
2019-12-15 11:23:17 GMT 49.176819 2.357765 9,450 10 302 2432
2019-12-15 11:23:12 GMT 49.170521 2.355989 9,250 9 301 2304
2019-12-15 11:23:08 GMT 49.165028 2.354616 9,100 8 297 2304
2019-12-15 11:23:05 GMT 49.162170 2.353962 9,025 6 297 2368
2019-12-15 11:23:01 GMT 49.156742 2.352953 8,875 4 293 2432
2019-12-15 11:22:58 GMT 49.150642 2.352303 8,675 2 291 2560
2019-12-15 11:22:55 GMT 49.148483 2.352131 8,600 2 290 2560
2019-12-15 11:22:52 GMT 49.140076 2.351652 8,325 1 288 2496
2019-12-15 11:22:46 GMT 49.134865 2.351436 8,200 1 287 2432
2019-12-15 11:22:41 GMT 49.129578 2.351215 7,950 1 286 2496
2019-12-15 11:22:38 GMT 49.124405 2.351004 7,800 0 284 2624
2019-12-15 11:22:35 GMT 49.121155 2.350933 7,750 0 283 2560
2019-12-15 11:22:31 GMT 49.115639 2.350930 7,600 359 279 2496
2019-12-15 11:22:27 GMT 49.110992 2.351074 7,325 356 276 2816
2019-12-15 11:22:24 GMT 49.107632 2.351219 7,200 356 276 2880
2019-12-15 11:22:21 GMT 49.102753 2.351638 7,125 355 275 3008
2019-12-15 11:22:18 GMT 49.100235 2.352060 6,950 353 274 3008
2019-12-15 11:22:15 GMT 49.090164 2.354455 6,600 348 268 2304
2019-12-15 11:22:11 GMT 49.090164 2.354455 6,675 349 268 2240
2019-12-15 11:22:08 GMT 49.081879 2.357131 6,275 347 266 2368
2019-12-15 11:22:04 GMT 49.081879 2.357131 6,475 347 266 2368
2019-12-15 11:22:01 GMT 49.079041 2.358187 6,000 340 260 2304
2019-12-15 11:21:58 GMT 49.074345 2.360181 6,150 342 262 2624
2019-12-15 11:21:54 GMT 49.069084 2.362928 5,975 338 258 2112
2019-12-15 11:21:51 GMT 49.066666 2.364446 5,925 337 256 2048
2019-12-15 11:21:48 GMT 49.064255 2.366075 5,850 335 254 1984
2019-12-15 11:21:45 GMT 49.059952 2.369314 5,700 333 250 1728
2019-12-15 11:21:42 GMT 49.056889 2.371674 5,625 334 247 1728
2019-12-15 11:21:39 GMT 49.053257 2.374420 5,400 337 244 2176
2019-12-15 11:21:35 GMT 49.050156 2.376568 5,400 338 243 2240
2019-12-15 11:21:32 GMT 49.047020 2.378540 5,275 339 243 2368
2019-12-15 11:21:29 GMT 49.038826 2.383310 5,075 340 242 2560
2019-12-15 11:21:25 GMT 49.038826 2.383310 4,925 338 242 2496
2019-12-15 11:21:21 GMT 49.035919 2.385019 4,850 337 241 2176
2019-12-15 11:21:18 GMT 49.032486 2.387414 4,800 332 237 1408
2019-12-15 11:21:14 GMT 49.029373 2.390371 4,700 324 228 1152
2019-12-15 11:21:11 GMT 49.026211 2.393863 4,650 319 223 1536
2019-12-15 11:21:08 GMT 49.024017 2.396921 4,550 313 218 1728
2019-12-15 11:21:04 GMT 49.019600 2.405717 4,325 298 208 1984
2019-12-15 11:21:00 GMT 49.019600 2.405717 4,325 298 208 1984
2019-12-15 11:20:57 GMT 49.018066 2.410161 4,250 294 206 1856
2019-12-15 11:20:54 GMT 49.016945 2.414462 4,125 281 196 512
2019-12-15 11:20:51 GMT 49.016235 2.418823 4,125 271 187 640
2019-12-15 11:20:48 GMT 49.015915 2.422767 4,025 271 187 704
2019-12-15 11:20:44 GMT 49.015923 2.429063 3,900 265 176 1408
2019-12-15 11:20:41 GMT 49.016098 2.432627 3,975 265 178 1408
2019-12-15 11:20:36 GMT 49.016464 2.438261 3,875 265 176 1408
2019-12-15 11:20:33 GMT 49.016666 2.441711 3,825 265 171 1280
2019-12-15 11:20:30 GMT 49.016830 2.444810 3,750 265 169 1728
2019-12-15 11:20:26 GMT 49.017132 2.450023 3,450 265 169 2752
2019-12-15 11:20:23 GMT 49.017380 2.454106 3,450 265 170 2624
2019-12-15 11:20:19 GMT 49.017609 2.457768 3,250 265 170 2304
2019-12-15 11:20:16 GMT 49.017876 2.461371 3,225 265 170 2176
2019-12-15 11:20:13 GMT 49.018154 2.466720 2,900 265 166 2176
2019-12-15 11:20:10 GMT 49.018295 2.468966 2,725 266 166 2688
2019-12-15 11:20:07 GMT 49.018528 2.473442 2,900 265 166 2176
2019-12-15 11:20:01 GMT 49.018902 2.479730 2,600 266 168 3328
2019-12-15 11:19:57 GMT 49.019413 2.489560 2,400 266 169 3392
2019-12-15 11:19:52 GMT 49.019459 2.490789 2,100 267 172 3072
2019-12-15 11:19:49 GMT 49.019600 2.493824 1,925 267 172 2752
2019-12-15 11:19:40 GMT 49.020390 2.509725 1,400 266 171 2880
2019-12-15 11:19:30 GMT 49.020721 2.516221 1,125 266 173 2944
2019-12-15 11:19:27 GMT 49.020996 2.520350 975 266 174 2752
2019-12-15 11:19:19 GMT 49.021500 2.529602 675 266 173 1152

Making use of Plane Finder data

You are free to use the raw flight data, aircraft information and images provided in this report for your own purposes provided the data is correctly attributed to Plane Finder. We ask that you please credit Plane Finder and link to planefinder.net in close proximity to the content.

Optionally one of the following logos (no smaller then 150x24px) can be used and must link to planefinder.net

Embedding the Plane Finder map

You are welcome to embed the Plane Finder playback map on your website to offer visitors a more interactive experience. We suggest using the following HTML code:

<iframe src="//planefinder.net/data/report/UA986-N642UA-7700-squawk-2019-12-15/map" width="800" height="600" seamless="seamless"></iframe>

Where our data comes from

Plane Finder has a global network of data feeds and antenna radars that receive data broadcast directly from aircraft. The primary technologies used are ADS-B and MLAT. We also show feeds from the FAA and a FLARM glider feed.

Click here to find out more about the Plane Finder network.

How we collect our data